Provisional Data: Susquehanna River near Danville, PA


Please select a monitoring station.
Please select start date.
Please select start date.

Toggle Unit: C/F Toggle Unit: C/F
Sample Time Temperature (C) Temperature (F) Specific Conductivity (mS/cm) pH   Turbidity (NTU+) DO (mg/L)
10/20/2020 12:00:00 AM 22.29444 72.13 -1 6.66 -5.3 0
10/20/2020 12:15:00 AM 19.87222 67.77 -2 6.48 -5.2 0
10/20/2020 12:30:00 AM 15.99445 60.79 -2 6.52 -5 0
10/20/2020 12:45:00 AM 19.79444 67.63 -1 6.47 -5.2 0
10/20/2020 1:00:00 AM 15.47778 59.86 -2 6.61 -4.9 0
10/20/2020 1:15:00 AM 18.48333 65.27 -2 6.65 -5.2 0
10/20/2020 1:30:00 AM 15.32778 59.59 -2 6.5 -5 0
10/20/2020 1:45:00 AM 19.51667 67.13 -2 6.65 -5.1 0
10/20/2020 2:00:00 AM 18.28889 64.92 -2 6.66 -5.1 0
10/20/2020 2:15:00 AM 17.31667 63.17 -2 6.54 -5.2 0
10/20/2020 2:30:00 AM 14.61667 58.31 -2 6.48 -4.9 0
10/20/2020 2:45:00 AM 22.71667 72.89 -1 6.67 -5.3 0
10/20/2020 3:00:00 AM 25.05556 77.1 -1 6.49 -5.5 0
10/20/2020 3:15:00 AM 25.71111 78.28 -1 6.52 -5.5 0
10/20/2020 3:30:00 AM 27.37222 81.27 -1 6.64 -5.5 0
10/20/2020 3:45:00 AM 25.80555 78.45 -1 6.54 -5.4 0
10/20/2020 4:00:00 AM 12.13889 53.85 -3 6.65 -4.8 0
10/20/2020 4:15:00 AM 12.20556 53.97 -3 6.6 -4.9 0
10/20/2020 4:30:00 AM 12.27222 54.09 -3 6.63 -4.9 0
10/20/2020 4:45:00 AM 16.09444 60.97 -2 6.41 -5 0
10/20/2020 5:00:00 AM 16.42778 61.57 -2 6.57 -5.1 0
10/20/2020 5:15:00 AM 17.83333 64.1 -2 6.6 -5 0
10/20/2020 5:30:00 AM 18.56111 65.41 -2 6.65 -5.2 0
10/20/2020 5:45:00 AM 16.41667 61.55 -2 6.32 -5 0
10/20/2020 6:00:00 AM 17.51667 63.53 -2 6.53 -5.1 0
10/20/2020 6:15:00 AM 15.32778 59.59 -2 6.48 -5 0
10/20/2020 6:30:00 AM 16.21667 61.19 -2 6.39 -5.1 0
10/20/2020 6:45:00 AM 15.29444 59.53 -2 6.42 -5 0
10/20/2020 7:00:00 AM 15.86111 60.55 -2 6.37 -5 0
10/20/2020 7:15:00 AM 14.13333 57.44 -3 6.38 -5 0
10/20/2020 7:30:00 AM 14.83333 58.7 -3 6.4 -5 0
10/20/2020 7:45:00 AM 14.47222 58.05 -3 6.42 -5 0
10/20/2020 8:00:00 AM 15.23889 59.43 -2 6.43 -5 0
10/20/2020 8:15:00 AM 14.03889 57.27 -3 6.16 -5 0
10/20/2020 8:30:00 AM 12.10556 53.79 -3 6.69 -4.9 0
10/20/2020 8:45:00 AM 14.70556 58.47 -3 6.58 -5 0
10/20/2020 9:00:00 AM 15.30556 59.55 -2 6.64 -5 0
10/20/2020 9:15:00 AM 19.54444 67.18 -2 6.61 -5.2 0
10/20/2020 9:30:00 AM 15.42778 59.77 -2 6.63 -5 0
10/20/2020 9:45:00 AM 15.63889 60.15 -2 6.65 -5.1 0
10/20/2020 10:00:00 AM 17.26111 63.07 -2 6.61 -5.1 0
10/20/2020 10:15:00 AM 15.79444 60.43 -2 6.61 -5 0
10/20/2020 10:30:00 AM 17.28333 63.11 -2 6.5 -5.1 0
10/20/2020 10:45:00 AM 16.51667 61.73 -2 6.76 -5 0
10/20/2020 11:00:00 AM 17.51667 63.53 -2 6.42 -5.1 0
10/20/2020 11:15:00 AM 20.34444 68.62 -2 6.38 -5.2 0
10/20/2020 11:30:00 AM 24.43889 75.99 -1 6.69 -5.3 0
10/20/2020 11:45:00 AM 23.5 74.3 -1 6.69 -5.4 0
10/20/2020 12:00:00 PM 20.78333 69.41 -1 6.68 -5.2 0
10/20/2020 12:15:00 PM 20.14445 68.26 -1 6.74 -5.2 0
10/20/2020 12:30:00 PM 19.72222 67.5 -2 6.66 -5.1 0
10/20/2020 12:45:00 PM 17.25 63.05 -2 6.56 -5.1 0
10/20/2020 1:00:00 PM 17.32222 63.18 -2 6.56 -5 0
10/20/2020 1:15:00 PM 16.36111 61.45 -2 6.67 -5 0
10/20/2020 1:30:00 PM 13.90555 57.03 -3 6.29 -4.9 0
10/20/2020 1:45:00 PM 16.5 61.7 -2 6.52 -5.1 0
10/20/2020 2:00:00 PM 13.41111 56.14 -3 6.65 -5 0
10/20/2020 2:15:00 PM 17.25 63.05 -2 6.56 -5.1 0
10/20/2020 2:30:00 PM 14.92222 58.86 -3 6.45 -5 0
10/20/2020 2:45:00 PM 18.3 64.94 -2 6.58 -5.2 0
10/20/2020 3:00:00 PM 19.4 66.92 -2 6.65 -5.1 0
10/20/2020 3:15:00 PM 19.49444 67.09 -2 6.54 -5.3 0
10/20/2020 3:30:00 PM 17.92777 64.27 -2 6.56 -5.1 0
10/20/2020 3:45:00 PM 17.08333 62.75 -2 6.63 -5.1 0
10/20/2020 4:00:00 PM 16.87778 62.38 -2 6.62 -5 0
10/20/2020 4:15:00 PM 16.70556 62.07 -2 6.65 -5.1 0
10/20/2020 4:30:00 PM 16.83889 62.31 -2 6.59 -5.1 0
10/20/2020 4:45:00 PM 17.05 62.69 -2 6.51 -5.1 0
10/20/2020 5:00:00 PM 13.48333 56.27 -3 6.66 -4.9 0
10/20/2020 5:15:00 PM 17.27222 63.09 -2 6.55 -5.1 0
10/20/2020 5:30:00 PM 16.81667 62.27 -2 6.65 -5 0
10/20/2020 5:45:00 PM 15.52778 59.95 -2 6.5 -5 0
10/20/2020 6:00:00 PM 16.93333 62.48 -2 6.66 -5.1 0
10/20/2020 6:15:00 PM 16.83889 62.31 -2 6.66 -5 0
10/20/2020 6:30:00 PM 15.88333 60.59 -2 6.44 -5.1 0
10/20/2020 6:45:00 PM 16.87222 62.37 -2 6.42 -5.1 0
10/20/2020 7:00:00 PM 17.18889 62.94 -2 6.49 -5.1 0
10/20/2020 7:15:00 PM 17.14445 62.86 -2 6.43 -5.1 0
10/20/2020 7:30:00 PM 17.57778 63.64 -2 6.52 -5.1 0
10/20/2020 7:45:00 PM 15.46667 59.84 -2 6.78 -5 0
10/20/2020 8:00:00 PM 16.69444 62.05 -2 6.65 -5.1 0
10/20/2020 8:15:00 PM 16.65 61.97 -2 6.66 -5 0
10/20/2020 8:30:00 PM 16.78889 62.22 -2 6.66 -5.1 0
10/20/2020 8:45:00 PM 15.84445 60.52 -3 6.27 -5.1 0
10/20/2020 9:00:00 PM 14.66111 58.39 -3 6.66 -5.1 0
10/20/2020 9:15:00 PM 16.74444 62.14 -2 6.63 -5.1 0
10/20/2020 9:30:00 PM 17.25556 63.06 -2 6.5 -5.2 0
10/20/2020 9:45:00 PM 16.62778 61.93 -2 6.59 -5.1 0
10/20/2020 10:00:00 PM 13.46667 56.24 -3 6.61 -5.1 0
10/20/2020 10:15:00 PM 16.82778 62.29 -2 6.38 -5.1 0
10/20/2020 10:30:00 PM 15.57778 60.04 -3 6.45 -5.1 0
10/20/2020 10:45:00 PM 15.47222 59.85 -3 6.54 -5.1 0
10/20/2020 11:00:00 PM 14.16667 57.5 -3 6.57 -5.1 0
10/20/2020 11:15:00 PM 17.51111 63.52 -2 6.51 -5.1 0
10/20/2020 11:30:00 PM 16.68889 62.04 -2 6.62 -5.1 0
10/20/2020 11:45:00 PM 15.61667 60.11 -2 6.88 -5.1 0
10/21/2020 12:00:00 AM 16.63889 61.95 -2 6.47 -5.1 0
10/21/2020 12:15:00 AM 16.52778 61.75 -2 6.5 -5.2 0
10/21/2020 12:30:00 AM 14.54444 58.18 -3 6.3 -4.9 0
10/21/2020 12:45:00 AM 16.65 61.97 -2 6.59 -5.2 0
10/21/2020 1:00:00 AM 16.67778 62.02 -2 6.65 -5 0
10/21/2020 1:15:00 AM 14.13889 57.45 -3 6.51 -5.1 0
10/21/2020 1:30:00 AM 13.52778 56.35 -3 6.57 -5 0
10/21/2020 1:45:00 AM 13.53333 56.36 -3 6.61 -5.1 0
10/21/2020 2:00:00 AM 16.61667 61.91 -2 6.65 -5.1 0
10/21/2020 2:15:00 AM 16.85555 62.34 -2 6.51 -5 0
10/21/2020 2:30:00 AM 16.62222 61.92 -2 6.55 -5.1 0
10/21/2020 2:45:00 AM 16.61667 61.91 -2 6.64 -5 0
10/21/2020 3:00:00 AM 16.6 61.88 -2 6.65 -5 0
10/21/2020 3:15:00 AM 15.55556 60 -3 6.39 -5.1 0
10/21/2020 3:30:00 AM 16.6 61.88 -2 6.65 -5 0
10/21/2020 3:45:00 AM 16.22778 61.21 -2 6.44 -5.1 0
10/21/2020 4:00:00 AM 16.6 61.88 -2 6.59 -5 0
10/21/2020 4:15:00 AM 16.58333 61.85 -2 6.65 -5.1 0
10/21/2020 4:30:00 AM 16.3 61.34 -2 6.42 -5.1 0
10/21/2020 4:45:00 AM 16.58333 61.85 -2 6.64 -5.1 0
10/21/2020 5:00:00 AM 17.76111 63.97 -2 6.4 -5.1 0
10/21/2020 5:15:00 AM 15.05 59.09 -3 6.35 -5 0
10/21/2020 5:30:00 AM 15.55 59.99 -2 6.48 -5.1 0
10/21/2020 5:45:00 AM 15.23889 59.43 -2 6.54 -5.1 0
10/21/2020 6:00:00 AM 14.38889 57.9 -3 6.45 -5 0
10/21/2020 6:15:00 AM 17.78889 64.02 -2 6.52 -5.1 0
10/21/2020 6:30:00 AM 15.48333 59.87 -3 6.36 -5.1 0
10/21/2020 6:45:00 AM 15.03333 59.06 -3 6.39 -5 0
10/21/2020 7:00:00 AM 15.13334 59.24 -3 6.34 -5.1 0
10/21/2020 7:15:00 AM 15.1 59.18 -3 6.32 -5 0
10/21/2020 7:30:00 AM 14.51111 58.12 -3 6.52 -4.9 0
10/21/2020 7:45:00 AM 15.32778 59.59 -3 6.36 -5 0
10/21/2020 8:00:00 AM 16.62778 61.93 -2 6.51 -5.1 0
10/21/2020 8:15:00 AM 17.13889 62.85 -2 6.53 -5.1 0
10/21/2020 8:30:00 AM 16.62778 61.93 -2 6.63 -5.1 0
10/21/2020 8:45:00 AM 16.64444 61.96 -2 6.59 -5 0
10/21/2020 9:00:00 AM 13.39444 56.11 -3 6.36 -4.9 0
10/21/2020 9:15:00 AM 16.61667 61.91 -2 6.64 -5.1 0
10/21/2020 9:30:00 AM 14.31667 57.77 -3 6.45 -5.1 0
10/21/2020 9:45:00 AM 13.36667 56.06 -3 6.61 -4.9 0
10/21/2020 10:00:00 AM 16.62222 61.92 -2 6.65 -5.1 0
10/21/2020 10:15:00 AM 16.84444 62.32 -2 6.5 -5.1 0
10/21/2020 10:30:00 AM 16.98889 62.58 -2 6.46 -5.2 0
10/21/2020 10:45:00 AM 16.15556 61.08 -2 6.41 -5.1 0
10/21/2020 11:00:00 AM 15.68889 60.24 -3 6.5 -5 0
10/21/2020 11:15:00 AM 13.50556 56.31 -3 6.62 -4.9 0
10/21/2020 11:30:00 AM 17.48889 63.48 -2 6.47 -5.2 0
10/21/2020 11:45:00 AM 13.53889 56.37 -3 6.65 -5 0
10/21/2020 12:00:00 PM 17.54445 63.58 -2 6.47 -5.1 0
10/21/2020 12:15:00 PM 13.87778 56.98 -3 6.66 -5 0
10/21/2020 12:30:00 PM 15.68889 60.24 -3 6.52 -5.1 0
10/21/2020 12:45:00 PM 15.63333 60.14 -3 6.54 -5.1 0
10/21/2020 1:00:00 PM 14.71667 58.49 -3 6.66 -4.9 0
10/21/2020 1:15:00 PM 15.89444 60.61 -3 6.65 -5.1 0
10/21/2020 1:30:00 PM 16.6 61.88 -3 6.63 -5.2 0
10/21/2020 1:45:00 PM 16.53889 61.77 -3 6.66 -5.1 0
10/21/2020 2:00:00 PM 15.19444 59.35 -3 6.65 -5 0
10/21/2020 2:15:00 PM 14.62222 58.32 -3 6.65 -5.1 0
10/21/2020 2:30:00 PM 15.13889 59.25 -3 6.64 -5 0
10/21/2020 2:45:00 PM 15.06667 59.12 -3 6.44 -5 0
10/21/2020 3:00:00 PM 15.52778 59.95 -3 6.65 -5 0
10/21/2020 3:15:00 PM 14.98889 58.98 -3 6.6 -5 0
10/21/2020 3:30:00 PM 15.57222 60.03 -3 6.65 -5.1 0
10/21/2020 3:45:00 PM 15.38333 59.69 -3 6.54 -5 0
10/21/2020 4:00:00 PM 15.41667 59.75 -3 6.6 -5.1 0
10/21/2020 4:15:00 PM 15.75 60.35 -3 6.57 -5.1 0
10/21/2020 4:30:00 PM 15.80556 60.45 -3 6.63 -5.1 0
10/21/2020 4:45:00 PM 15.76111 60.37 -3 6.56 -4.9 0
10/21/2020 5:00:00 PM 17.95 64.31 -2 6.57 -5.1 0
10/21/2020 5:15:00 PM 18.42778 65.17 -2 6.53 -5.1 0
10/21/2020 5:30:00 PM 14.68333 58.43 -3 6.65 -5 0
10/21/2020 5:45:00 PM 14.77778 58.6 -3 6.65 -4.9 0
10/21/2020 6:00:00 PM 15.74444 60.34 -3 6.56 -5 0
10/21/2020 6:15:00 PM 15.73333 60.32 -3 6.6 -4.9 0
10/21/2020 6:30:00 PM 13.67222 56.61 -3 6.51 -4.9 0
10/21/2020 6:45:00 PM 17.94445 64.3 -2 6.54 -5.2 0
10/21/2020 7:00:00 PM 13.43889 56.19 -4 6.53 -5 0
10/21/2020 7:15:00 PM 15.72222 60.3 -3 6.46 -5.1 0
10/21/2020 7:30:00 PM 17.12222 62.82 -3 6.66 -5.2 0
10/21/2020 7:45:00 PM 17.37778 63.28 -3 6.21 -5.1 0
10/21/2020 8:00:00 PM 15.99445 60.79 -3 6.65 -5.1 0
10/21/2020 8:15:00 PM 15.75556 60.36 -3 6.52 -5.1 0
10/21/2020 8:30:00 PM 13.27222 55.89 -4 6.47 -5 0
10/21/2020 8:45:00 PM 15.72222 60.3 -3 6.37 -5.1 0
10/21/2020 9:00:00 PM 15.1 59.18 -3 6.81 -5 0
10/21/2020 9:15:00 PM 13.52222 56.34 -4 6.42 -4.9 0
10/21/2020 9:30:00 PM 14.95555 58.92 -3 6.64 -4.9 0
10/21/2020 9:45:00 PM 15.74444 60.34 -3 6.45 -5.1 0
10/21/2020 10:00:00 PM 15.72778 60.31 -3 6.4 -5.1 0
10/21/2020 10:15:00 PM 15.41667 59.75 -3 6.61 -5.1 0
10/21/2020 10:30:00 PM 12.77222 54.99 -4 6.41 -4.9 0
10/21/2020 10:45:00 PM 15.34444 59.62 -3 6.59 -5 0
10/21/2020 11:00:00 PM 15.66111 60.19 -3 6.38 -5 0
10/21/2020 11:15:00 PM 13.07778 55.54 -4 6.53 -5.1 0
10/21/2020 11:30:00 PM 15.41667 59.75 -3 6.41 -5 0
10/21/2020 11:45:00 PM 13.96667 57.14 -4 7.07 -4.9 0
10/22/2020 12:00:00 AM 12.70555 54.87 -4 6.54 -4.9 0
10/22/2020 12:15:00 AM 15.67778 60.22 -3 6.45 -5 0
10/22/2020 12:30:00 AM 15.06111 59.11 -3 6.45 -4.9 0
10/22/2020 12:45:00 AM 15.65 60.17 -3 6.43 -5.1 0
10/22/2020 1:00:00 AM 15.65 60.17 -3 6.55 -5 0
10/22/2020 1:15:00 AM 15.37778 59.68 -3 6.32 -5 0
10/22/2020 1:30:00 AM 13.81111 56.86 -3 6.55 -5 0
10/22/2020 1:45:00 AM 15.58889 60.06 -3 6.38 -5 0
10/22/2020 2:00:00 AM 15.58333 60.05 -3 6.42 -5 0
10/22/2020 2:15:00 AM 15.52778 59.95 -3 6.3 -4.9 0
10/22/2020 2:30:00 AM 13.08333 55.55 -4 6.33 -4.9 0
10/22/2020 2:45:00 AM 12.66111 54.79 -4 6.55 -4.9 0
10/22/2020 3:00:00 AM 19.43334 66.98 -2 6.49 -5.2 0
10/22/2020 3:15:00 AM 26.58889 79.86 -1 6.46 -5.5 0
10/22/2020 3:30:00 AM 14.48333 58.07 -3 6.44 -5 0
10/22/2020 3:45:00 AM 15.09444 59.17 -3 6.44 -5 0
10/22/2020 4:00:00 AM 14.85 58.73 -3 6.58 -5 0
10/22/2020 4:15:00 AM 15.06111 59.11 -3 6.6 -5.1 0
10/22/2020 4:30:00 AM 15.17778 59.32 -3 6.36 -5.1 0
10/22/2020 4:45:00 AM 14.98889 58.98 -3 6.36 -5 0
10/22/2020 5:00:00 AM 14.73333 58.52 -3 6.53 -5 0
10/22/2020 5:15:00 AM 14.58889 58.26 -3 6.53 -5 0
10/22/2020 5:30:00 AM 15.41667 59.75 -3 6.41 -5.1 0
10/22/2020 5:45:00 AM 15.36667 59.66 -3 6.48 -5 0
10/22/2020 6:00:00 AM 15.49444 59.89 -3 6.31 -4.9 0
10/22/2020 6:15:00 AM 13 55.4 -4 6.32 -5 0
10/22/2020 6:30:00 AM 12.68333 54.83 -4 6.3 -4.9 0
10/22/2020 6:45:00 AM 14.71667 58.49 -4 5.78 -5 0
10/22/2020 7:00:00 AM 14.33889 57.81 -3 6.51 -5 0
10/22/2020 7:15:00 AM 14.1 57.38 -3 6.5 -5 0
10/22/2020 7:30:00 AM 13.96667 57.14 -4 6.37 -4.9 0
10/22/2020 7:45:00 AM 12.88889 55.2 -4 6.25 -4.9 0
10/22/2020 8:00:00 AM 12.73889 54.93 -4 6.3 -4.9 0
10/22/2020 8:15:00 AM 13.04444 55.48 -4 6.27 -5 0
10/22/2020 8:30:00 AM 13.05 55.49 -4 6.26 -5 0
10/22/2020 8:45:00 AM 13.02222 55.44 -4 6.28 -4.9 0
10/22/2020 9:00:00 AM 12.98889 55.38 -4 6.3 -4.7 0
10/22/2020 9:15:00 AM 13 55.4 -4 6.28 -5 0
10/22/2020 9:30:00 AM 12.84444 55.12 -4 6.32 -4.9 0
10/22/2020 9:45:00 AM 12.95555 55.32 -4 6.27 -4.9 0
10/22/2020 10:00:00 AM 12.91111 55.24 -4 6.27 -4.9 0
10/22/2020 10:15:00 AM 12.92778 55.27 -4 6.27 -4.9 0
10/22/2020 10:30:00 AM 12.79444 55.03 -4 7.18 -4.9 0
10/22/2020 10:45:00 AM 37.77222 99.99 0 7 -999.9 0
10/22/2020 11:00:00 AM -23.32778 -9.99 18458 3.73 -22.3 0
10/22/2020 11:15:00 AM 13.15556 55.68 -4 6.23 -4.9 0
10/22/2020 11:30:00 AM 13.11667 55.61 -4 6.24 -5 0
10/22/2020 11:45:00 AM 13.08889 55.56 -4 6.25 -5.1 0
10/22/2020 12:00:00 PM 13.08889 55.56 -4 6.26 -5 0
10/22/2020 12:15:00 PM 13.11667 55.61 -4 6.24 -4.9 0
10/22/2020 12:30:00 PM -23.32778 -9.99 -388 6.49 -41.2 0
10/22/2020 12:45:00 PM -23.32778 -9.99 23541 6.49 -52.4 0
10/22/2020 1:00:00 PM 18.05 64.49 -2 6.77 -5.1 0
10/22/2020 1:15:00 PM 13.04444 55.48 -4 6.26 -4.9 0
10/22/2020 1:30:00 PM 13.02222 55.44 -4 6.25 -5 0
10/22/2020 1:45:00 PM 13.08889 55.56 -4 6.26 -4.9 0
10/22/2020 2:00:00 PM 12.91667 55.25 -4 6.27 -4.9 0
10/22/2020 2:15:00 PM 12.93889 55.29 -4 6.27 -4.8 0
10/22/2020 2:30:00 PM 14.68889 58.44 -3 6.27 -5.1 0
10/22/2020 2:45:00 PM 14.87778 58.78 -3 6.24 -5 0
10/22/2020 3:00:00 PM 15.56111 60.01 -3 6.3 -5 0
10/22/2020 3:15:00 PM 12.45 54.41 -4 6.33 -4.8 0
10/22/2020 3:30:00 PM 13.95 57.11 -3 6.22 -4.9 0
10/22/2020 3:45:00 PM 14.9 58.82 -3 6.26 -5 0
10/22/2020 4:00:00 PM 15.56111 60.01 -3 6.27 -5.1 0
10/22/2020 4:15:00 PM 12.98889 55.38 -4 6.24 -5 0
10/22/2020 4:30:00 PM 13.30556 55.95 -4 6.23 -5 0
10/22/2020 4:45:00 PM 15.07222 59.13 -3 6.28 -5.1 0
10/22/2020 5:00:00 PM 15.13334 59.24 -3 6.3 -5.1 0
10/22/2020 5:15:00 PM 15.24444 59.44 -3 6.21 -5.1 0
10/22/2020 5:30:00 PM 15.54444 59.98 -3 6.25 -5 0
10/22/2020 5:45:00 PM 15.35 59.63 -3 6.3 -5.1 0
10/22/2020 6:00:00 PM 15.43889 59.79 -3 6.26 -5 0
10/22/2020 6:15:00 PM 15.14444 59.26 -3 6.23 -5 0
10/22/2020 6:30:00 PM 14.68889 58.44 -3 6.27 -4.9 0
10/22/2020 6:45:00 PM 15.22778 59.41 -3 6.27 -5 0
10/22/2020 7:00:00 PM 15.29444 59.53 -3 6.28 -5 0
10/22/2020 7:15:00 PM 14.67222 58.41 -3 6.26 -4.9 0
10/22/2020 7:30:00 PM 15.57222 60.03 -3 6.26 -4.9 0
10/22/2020 7:45:00 PM 14.86111 58.75 -3 6.21 -4.9 0
10/22/2020 8:00:00 PM 12.95 55.31 -4 6.25 -4.9 0
10/22/2020 8:15:00 PM 12.90555 55.23 -4 6.28 -5 0
10/22/2020 8:30:00 PM 15.03889 59.07 -3 6.12 -5.1 0
10/22/2020 8:45:00 PM 14.78333 58.61 -3 6.22 -5 0
10/22/2020 9:00:00 PM 14.76667 58.58 -3 6.19 -5.1 0
10/22/2020 9:15:00 PM 12.58333 54.65 -4 6.8 -5 0
10/22/2020 9:30:00 PM 14.76667 58.58 -3 6.2 -5 0
10/22/2020 9:45:00 PM 14.83333 58.7 -3 6.17 -5 0
10/22/2020 10:00:00 PM 15.19444 59.35 -3 6.26 -5 0
10/22/2020 10:15:00 PM 17.16667 62.9 -3 6.23 -5.2 0
10/22/2020 10:30:00 PM 12.78333 55.01 -4 6.22 -4.9 0
10/22/2020 10:45:00 PM 12.75556 54.96 -4 6.24 -5 0
10/22/2020 11:00:00 PM 15.28333 59.51 -3 5.52 -5.1 0
10/22/2020 11:15:00 PM 12.99444 55.39 -4 6.32 -5 0
10/22/2020 11:30:00 PM 16.78889 62.22 -3 6.15 -5.1 0
10/22/2020 11:45:00 PM 11.61111 52.9 -4 6.9 -5 0
10/23/2020 12:00:00 AM 17.97222 64.35 -2 6.19 -5.1 0
10/23/2020 12:15:00 AM 12.61667 54.71 -4 6.24 -4.8 0
10/23/2020 12:30:00 AM 12.57222 54.63 -4 6.15 -4.9 0
10/23/2020 12:45:00 AM 12.81111 55.06 -4 6.19 -5 0
10/23/2020 1:00:00 AM 14 57.2 -4 6.17 -5 0
10/23/2020 1:15:00 AM 12.88889 55.2 -4 6.19 -4.9 0
10/23/2020 1:30:00 AM 12.79444 55.03 -4 6.18 -4.9 0
10/23/2020 1:45:00 AM 13.03889 55.47 -4 6.24 -5.1 0
10/23/2020 2:00:00 AM 12.86667 55.16 -4 6.22 -5 0
10/23/2020 2:15:00 AM 12.71667 54.89 -4 6.17 -4.9 0
10/23/2020 2:30:00 AM 12.76667 54.98 -4 6.19 -5 0
10/23/2020 2:45:00 AM 12.70555 54.87 -4 6.19 -4.9 0
10/23/2020 3:00:00 AM 12.81111 55.06 -4 6.22 -4.9 0
10/23/2020 3:15:00 AM 12.66111 54.79 -4 6.18 -4.9 0
10/23/2020 3:30:00 AM 12.89444 55.21 -4 6.35 -4.9 0
10/23/2020 3:45:00 AM 12.68889 54.84 -4 6.21 -5 0
10/23/2020 4:00:00 AM 13.25556 55.86 -4 6.12 -5 0
10/23/2020 4:15:00 AM 12.73333 54.92 -4 6.2 -4.9 0
10/23/2020 4:30:00 AM 14.28889 57.72 -4 6.11 -5.2 0
10/23/2020 4:45:00 AM 12.76667 54.98 -4 6.27 -4.9 0
10/23/2020 5:00:00 AM 12.81111 55.06 -4 6.14 -4.9 0
10/23/2020 5:15:00 AM 12.60556 54.69 -4 6.18 -4.9 0
10/23/2020 5:30:00 AM 12.68333 54.83 -4 6.18 -5 0
10/23/2020 5:45:00 AM 12.60556 54.69 -4 6.15 -4.9 0
10/23/2020 6:00:00 AM 12.68889 54.84 -4 6.17 -4.9 0
10/23/2020 6:15:00 AM 12.73333 54.92 -4 6.19 -4.9 0
10/23/2020 6:30:00 AM 12.82778 55.09 -4 6.2 -4.9 0
10/23/2020 6:45:00 AM 13.15 55.67 -4 6.25 -5 0
10/23/2020 7:00:00 AM 13.16667 55.7 -4 6.25 -5 0
10/23/2020 7:15:00 AM 13.19444 55.75 -4 6.24 -4.9 0
10/23/2020 7:30:00 AM 13.31667 55.97 -4 6.24 -5 0
10/23/2020 7:45:00 AM 13.43333 56.18 -4 6.23 -5 0
10/23/2020 8:00:00 AM 13.51667 56.33 -4 6.21 -5 0
10/23/2020 8:15:00 AM 13.6 56.48 -4 6.2 -5 0
10/23/2020 8:30:00 AM 13.97222 57.15 -4 6.13 -5.1 0
10/23/2020 8:45:00 AM 14.07222 57.33 -4 6.15 -5.2 0
10/23/2020 9:00:00 AM 14.10556 57.39 -4 6.14 -5.1 0
10/23/2020 9:15:00 AM 14.12778 57.43 -4 6.16 -4.9 0
10/23/2020 9:30:00 AM 14.13333 57.44 -4 6.21 -5.1 0
10/23/2020 9:45:00 AM 14.14444 57.46 -4 6.23 -4.9 0
10/23/2020 10:00:00 AM 14.17222 57.51 -4 6.27 -5.1 0
10/23/2020 10:15:00 AM 14.18889 57.54 -4 6.28 -4.9 0
10/23/2020 10:30:00 AM 14.18889 57.54 -4 6.28 -5 0
10/23/2020 10:45:00 AM 14.19444 57.55 -4 6.34 -5 0
10/23/2020 11:00:00 AM 14.15 57.47 -4 6.35 -5.1 0
10/23/2020 11:15:00 AM 14.15 57.47 -4 6.37 -5 0
10/23/2020 11:30:00 AM 13.31111 55.96 -4 6.33 -5 0
10/23/2020 11:45:00 AM 13.96111 57.13 -4 6.33 -5 0
10/23/2020 12:00:00 PM 14.21111 57.58 -4 6.36 -5.1 0
10/23/2020 12:15:00 PM 14.03333 57.26 -4 6.32 -5 0
10/23/2020 12:30:00 PM 13.99444 57.19 -4 6.31 -5.1 0
10/23/2020 12:45:00 PM 14.31111 57.76 -4 6.3 -5.1 0
10/23/2020 1:00:00 PM 14.56111 58.21 -4 6.32 -5.1 0
10/23/2020 1:15:00 PM 14.42222 57.96 -4 6.3 -5.1 0
10/23/2020 1:30:00 PM 13.09444 55.57 -4 6.28 -5 0
10/23/2020 1:45:00 PM 13.41111 56.14 -4 6.28 -5 0
10/23/2020 2:00:00 PM 13.01667 55.43 -4 6.28 -5 0
10/23/2020 2:15:00 PM 12.93333 55.28 -4 6.27 -5 0
10/23/2020 2:30:00 PM 12.92778 55.27 -4 6.26 -4.8 0
10/23/2020 2:45:00 PM 12.88889 55.2 -4 6.26 -4.9 0
10/23/2020 3:00:00 PM 12.68889 54.84 -4 6.26 -4.9 0
10/23/2020 3:15:00 PM 12.69444 54.85 -4 6.26 -4.9 0
10/23/2020 3:30:00 PM 13.26111 55.87 -4 6.27 -5 0
10/23/2020 3:45:00 PM 13.54445 56.38 -4 6.29 -4.9 0
10/23/2020 4:00:00 PM 12.67222 54.81 -4 6.26 -5 0
10/23/2020 4:15:00 PM 13.2 55.76 -4 6.28 -4.9 0
10/23/2020 4:30:00 PM 13.21667 55.79 -4 6.29 -4.9 0
10/23/2020 4:45:00 PM 13.33333 56 -4 6.31 -4.9 0
10/23/2020 5:00:00 PM 13.29445 55.93 -5 6.38 -5 0
10/23/2020 5:15:00 PM 13.15556 55.68 -4 6.38 -5 0
10/23/2020 5:30:00 PM 13.25 55.85 -5 6.44 -4.9 0
10/23/2020 5:45:00 PM 13.40556 56.13 -4 6.37 -4.9 0
10/23/2020 6:00:00 PM 13.45556 56.22 -4 6.39 -4.9 0
10/23/2020 6:15:00 PM 13.3 55.94 -5 6.46 -5.1 0
10/23/2020 6:30:00 PM 13.41111 56.14 -4 6.41 -5.1 0
10/23/2020 6:45:00 PM 13.33333 56 -4 6.42 -4.9 0
10/23/2020 7:00:00 PM 13.25 55.85 -5 6.42 -4.9 0
10/23/2020 7:15:00 PM 13.41667 56.15 -4 6.38 -5 0
10/23/2020 7:30:00 PM 13.42222 56.16 -4 6.38 -4.9 0
10/23/2020 7:45:00 PM 13.21667 55.79 -5 6.39 -4.8 0
10/23/2020 8:00:00 PM 13.17222 55.71 -4 6.37 -4.9 0
10/23/2020 8:15:00 PM 12.93333 55.28 -5 6.42 -4.9 0
10/23/2020 8:30:00 PM 12.70555 54.87 -4 6.33 -4.9 0
10/23/2020 8:45:00 PM 13.03333 55.46 -5 6.38 -5 0
10/23/2020 9:00:00 PM 12.85 55.13 -5 6.37 -4.9 0
10/23/2020 9:15:00 PM 12.53889 54.57 -4 6.29 -5 0
10/23/2020 9:30:00 PM 12.58889 54.66 -4 6.28 -4.8 0
10/23/2020 9:45:00 PM 12.76111 54.97 -4 6.27 -4.9 0
10/23/2020 10:00:00 PM 12.90555 55.23 -4 6.27 -4.9 0
10/23/2020 10:15:00 PM 12.93333 55.28 -4 6.27 -4.9 0
10/23/2020 10:30:00 PM 13.22778 55.81 -4 6.28 -5 0
10/23/2020 10:45:00 PM 12.50555 54.51 -4 6.27 -4.9 0
10/23/2020 11:00:00 PM 13.30556 55.95 -4 6.28 -5 0
10/23/2020 11:15:00 PM 13.45 56.21 -4 6.29 -5.1 0
10/23/2020 11:30:00 PM 13.42778 56.17 -4 6.29 -4.9 0
10/23/2020 11:45:00 PM 13.46667 56.24 -4 6.29 -5 0
10/24/2020 12:00:00 AM 13.58889 56.46 -4 6.3 -5 0
10/24/2020 12:15:00 AM 14.29444 57.73 -4 6.31 -5 0
10/24/2020 12:30:00 AM 14.17222 57.51 -4 6.31 -5.2 0
10/24/2020 12:45:00 AM 14.12222 57.42 -4 6.33 -5 0
10/24/2020 1:00:00 AM 14.08889 57.36 -4 6.33 -5 0
10/24/2020 1:15:00 AM 14.1 57.38 -4 6.35 -5.1 0
10/24/2020 1:30:00 AM 14.17222 57.51 -4 6.4 -5.2 0
10/24/2020 1:45:00 AM 14.18333 57.53 -4 6.4 -5.1 0
10/24/2020 2:00:00 AM 14.18889 57.54 -4 6.41 -5 0
10/24/2020 2:15:00 AM 14.18889 57.54 -4 6.31 -5.1 0
10/24/2020 2:30:00 AM 14.19444 57.55 -4 6.33 -5.1 0
10/24/2020 2:45:00 AM 14.15555 57.48 -4 6.36 -5.1 0
10/24/2020 3:00:00 AM 14.11667 57.41 -4 6.33 -5 0
10/24/2020 3:15:00 AM 14.07778 57.34 -4 6.32 -5 0
10/24/2020 3:30:00 AM 13.99444 57.19 -4 6.31 -5 0
10/24/2020 3:45:00 AM 13.83889 56.91 -4 6.26 -5 0
10/24/2020 4:00:00 AM 13.80555 56.85 -4 6.23 -5 0
10/24/2020 4:15:00 AM 13.72222 56.7 -4 6.23 -5 0
10/24/2020 4:30:00 AM 13.90555 57.03 -4 6.25 -5 0
10/24/2020 4:45:00 AM 13.67778 56.62 -4 6.21 -4.9 0
10/24/2020 5:00:00 AM 13.64444 56.56 -4 6.21 -5 0
10/24/2020 5:15:00 AM 13.68889 56.64 -4 6.2 -5 0
10/24/2020 5:30:00 AM 13.72778 56.71 -4 6.2 -4.9 0
10/24/2020 5:45:00 AM 13.76111 56.77 -4 6.2 -5.1 0
10/24/2020 6:00:00 AM 13.82778 56.89 -4 6.21 -5.1 0
10/24/2020 6:15:00 AM 13.90555 57.03 -4 6.22 -4.9 0
10/24/2020 6:30:00 AM 13.98889 57.18 -4 6.24 -5.1 0
10/24/2020 6:45:00 AM 14.03333 57.26 -4 6.23 -5.1 0
10/24/2020 7:00:00 AM 14.02778 57.25 -4 6.25 -5.1 0
10/24/2020 7:15:00 AM 14.06667 57.32 -4 6.24 -5.1 0
10/24/2020 7:30:00 AM 14.09444 57.37 -4 6.32 -5 0
10/24/2020 7:45:00 AM 14.08333 57.35 -4 6.37 -4.9 0
10/24/2020 8:00:00 AM 14.12222 57.42 -4 6.33 -5 0
10/24/2020 8:15:00 AM 14.12778 57.43 -4 6.34 -5 0
10/24/2020 8:30:00 AM 14.15 57.47 -4 6.33 -5.1 0
10/24/2020 8:45:00 AM 14.15555 57.48 -4 6.36 -5.1 0
10/24/2020 9:00:00 AM 14.14444 57.46 -4 6.37 -5.2 0
10/24/2020 9:15:00 AM 14.15555 57.48 -4 6.39 -5 0
10/24/2020 9:30:00 AM 14.16667 57.5 -4 6.4 -5 0
10/24/2020 9:45:00 AM 14.18889 57.54 -4 6.34 -5 0
10/24/2020 10:00:00 AM 14.18333 57.53 -4 6.37 -5.1 0
10/24/2020 10:15:00 AM 14.17778 57.52 -4 6.39 -5 0
10/24/2020 10:30:00 AM 14.23333 57.62 -4 6.38 -5 0
10/24/2020 10:45:00 AM 14.18333 57.53 -4 6.39 -4.9 0
10/24/2020 11:00:00 AM 14.19444 57.55 -4 6.38 -5 0
10/24/2020 11:15:00 AM 14.17778 57.52 -4 6.44 -5 0
10/24/2020 11:30:00 AM 14.16111 57.49 -4 6.43 -5 0
10/24/2020 11:45:00 AM 14.17222 57.51 -4 6.51 -5 0
10/24/2020 12:00:00 PM 14.17778 57.52 -4 6.43 -5 0
10/24/2020 12:15:00 PM 14.18889 57.54 -4 6.53 -5.1 0
10/24/2020 12:30:00 PM 14.2 57.56 -4 6.51 -5.1 0
10/24/2020 12:45:00 PM 14.21667 57.59 -4 6.42 -5 0
10/24/2020 1:00:00 PM 14.17222 57.51 -4 6.52 -5 0
10/24/2020 1:15:00 PM 14.19444 57.55 -4 6.53 -4.9 0
10/24/2020 1:30:00 PM 14.18889 57.54 -4 6.52 -5.2 0
10/24/2020 1:45:00 PM 14.21111 57.58 -4 6.48 -5.1 0
10/24/2020 2:00:00 PM 14.24444 57.64 -4 6.48 -5 0
10/24/2020 2:15:00 PM 14.2 57.56 -4 6.51 -5 0
10/24/2020 2:30:00 PM 14.17222 57.51 -4 6.51 -5 0
10/24/2020 2:45:00 PM 14.18889 57.54 -4 6.51 -5.1 0
10/24/2020 3:00:00 PM 14.2 57.56 -4 6.45 -4.9 0
10/24/2020 3:15:00 PM 14.16111 57.49 -4 6.53 -5 0
10/24/2020 3:30:00 PM 14.18889 57.54 -4 6.46 -5 0
10/24/2020 3:45:00 PM 14.18333 57.53 -4 6.53 -5 0
10/24/2020 4:00:00 PM 14.16111 57.49 -4 6.52 -5 0
10/24/2020 4:15:00 PM 14.19444 57.55 -4 6.53 -5 0
10/24/2020 4:30:00 PM 14.17222 57.51 -4 6.47 -5 0
10/24/2020 4:45:00 PM 14.19444 57.55 -4 6.45 -4.9 0
10/24/2020 5:00:00 PM 14.20555 57.57 -4 6.45 -5.1 0
10/24/2020 5:15:00 PM 14.18889 57.54 -4 6.52 -5.1 0
10/24/2020 5:30:00 PM 14.15 57.47 -4 6.54 -5 0
10/24/2020 5:45:00 PM 14.18333 57.53 -4 6.46 -5 0
10/24/2020 6:00:00 PM 13.95555 57.12 -4 6.55 -5.1 0
10/24/2020 6:15:00 PM 13.86667 56.96 -4 6.58 -5 0
10/24/2020 6:30:00 PM 13.60556 56.49 -4 6.53 -4.8 0
10/24/2020 6:45:00 PM 13.53333 56.36 -4 6.5 -5 0
10/24/2020 7:00:00 PM 13.46111 56.23 -4 6.51 -4.9 0
10/24/2020 7:15:00 PM 13.33333 56 -4 6.5 -5 0
10/24/2020 7:30:00 PM 13.39444 56.11 -4 6.59 -5 0
10/24/2020 7:45:00 PM 13.15 55.67 -4 6.51 -5 0
10/24/2020 8:00:00 PM 13.17222 55.71 -4 6.55 -4.9 0
10/24/2020 8:15:00 PM 13.16667 55.7 -4 6.5 -5 0
10/24/2020 8:30:00 PM 13.16667 55.7 -4 6.45 -4.8 0
10/24/2020 8:45:00 PM 13.13333 55.64 -4 6.48 -4.9 0
10/24/2020 9:00:00 PM 13.08889 55.56 -4 6.43 -4.9 0
10/24/2020 9:15:00 PM 13.08333 55.55 -4 6.43 -4.9 0
10/24/2020 9:30:00 PM 12.93889 55.29 -4 6.38 -5 0
10/24/2020 9:45:00 PM 13.09444 55.57 -4 6.49 -4.9 0
10/24/2020 10:00:00 PM 12.97778 55.36 -4 6.43 -5.1 0
10/24/2020 10:15:00 PM 12.89444 55.21 -4 6.43 -4.9 0
10/24/2020 10:30:00 PM 12.72778 54.91 -4 6.42 -5.1 0
10/24/2020 10:45:00 PM 12.33333 54.2 -4 6.32 -4.9 0
10/24/2020 11:00:00 PM 12.47222 54.45 -4 6.33 -5 0
10/24/2020 11:15:00 PM 12.46111 54.43 -4 6.32 -4.8 0
10/24/2020 11:30:00 PM 12.18889 53.94 -4 6.33 -4.7 0
10/24/2020 11:45:00 PM 12.47778 54.46 -4 6.3 -5 0
10/25/2020 12:00:00 AM 12.51667 54.53 -4 6.29 -4.9 0
10/25/2020 12:15:00 AM 12.54445 54.58 -4 6.29 -4.9 0
10/25/2020 12:30:00 AM 12.45 54.41 -4 6.31 -5.1 0
10/25/2020 12:45:00 AM 12.52778 54.55 -4 6.28 -4.9 0
10/25/2020 1:00:00 AM 12.48889 54.48 -4 6.28 -5 0
10/25/2020 1:15:00 AM 12.55555 54.6 -4 6.28 -4.9 0
10/25/2020 1:30:00 AM 12.55555 54.6 -4 6.28 -5 0
10/25/2020 1:45:00 AM 12.56667 54.62 -4 6.27 -4.9 0
10/25/2020 2:00:00 AM 12.54445 54.58 -4 6.27 -5 0
10/25/2020 2:15:00 AM 12.57778 54.64 -4 6.27 -5 0
10/25/2020 2:30:00 AM 12.58889 54.66 -4 6.27 -4.9 0
10/25/2020 2:45:00 AM 12.57778 54.64 -4 6.27 -5 0
10/25/2020 3:00:00 AM 12.6 54.68 -4 6.27 -4.9 0
10/25/2020 3:15:00 AM 12.58889 54.66 -4 6.27 -5 0
10/25/2020 3:30:00 AM 12.6 54.68 -4 6.27 -4.9 0
10/25/2020 3:45:00 AM 12.53889 54.57 -4 6.28 -4.9 0
10/25/2020 4:00:00 AM 12.6 54.68 -4 6.27 -5 0
10/25/2020 4:15:00 AM 12.60556 54.69 -4 6.27 -4.8 0
10/25/2020 4:30:00 AM 12.62778 54.73 -4 6.27 -5 0
10/25/2020 4:45:00 AM 12.58889 54.66 -4 6.27 -4.9 0
10/25/2020 5:00:00 AM 12.57222 54.63 -4 6.28 -5 0
10/25/2020 5:15:00 AM 12.65 54.77 -4 6.27 -4.9 0
10/25/2020 5:30:00 AM 12.58333 54.65 -4 6.28 -5 0
10/25/2020 5:45:00 AM 12.59444 54.67 -4 6.27 -4.9 0
10/25/2020 6:00:00 AM 12.61111 54.7 -4 6.27 -5 0
10/25/2020 6:15:00 AM 12.6 54.68 -4 6.28 -4.9 0
10/25/2020 6:30:00 AM 12.60556 54.69 -4 6.28 -4.8 0
10/25/2020 6:45:00 AM 12.59444 54.67 -4 6.27 -4.9 0
10/25/2020 7:00:00 AM 12.58889 54.66 -4 6.27 -4.9 0
10/25/2020 7:15:00 AM 12.57778 54.64 -4 6.28 -5 0
10/25/2020 7:30:00 AM 12.61111 54.7 -4 6.27 -4.9 0
10/25/2020 7:45:00 AM 12.60556 54.69 -4 6.28 -5 0
10/25/2020 8:00:00 AM 12.61111 54.7 -4 6.27 -4.9 0
10/25/2020 8:15:00 AM 12.61667 54.71 -4 6.28 -5 0
10/25/2020 8:30:00 AM 12.63334 54.74 -4 6.27 -4.9 0
10/25/2020 8:45:00 AM 12.69444 54.85 -4 6.27 -5 0
10/25/2020 9:00:00 AM 12.61111 54.7 -4 6.27 -5 0
10/25/2020 9:15:00 AM 12.68333 54.83 -4 6.27 -4.8 0
10/25/2020 9:30:00 AM 12.66667 54.8 -4 6.27 -5 0
10/25/2020 9:45:00 AM 12.61667 54.71 -4 6.28 -5 0
10/25/2020 10:00:00 AM 12.40556 54.33 -4 6.31 -4.9 0
10/25/2020 10:15:00 AM 12.58333 54.65 -4 6.27 -4.8 0
10/25/2020 10:30:00 AM 12.66111 54.79 -4 6.27 -4.8 0
10/25/2020 10:45:00 AM 12.55 54.59 -4 6.3 -5 0
10/25/2020 11:00:00 AM 12.57222 54.63 -4 6.28 -4.9 0
10/25/2020 11:15:00 AM 12.6 54.68 -4 6.28 -4.9 0
10/25/2020 11:30:00 AM 12.56111 54.61 -4 6.28 -5 0
10/25/2020 11:45:00 AM 12.52778 54.55 -4 6.28 -4.9 0
10/25/2020 12:00:00 PM 12.58333 54.65 -4 6.28 -4.9 0
10/25/2020 12:15:00 PM 12.61111 54.7 -4 6.27 -5 0
10/25/2020 12:30:00 PM 12.62222 54.72 -4 6.27 -4.9 0
10/25/2020 12:45:00 PM 12.62222 54.72 -4 6.27 -4.9 0
10/25/2020 1:00:00 PM 12.67778 54.82 -4 6.27 -5.1 0
10/25/2020 1:15:00 PM 12.65555 54.78 -4 6.27 -4.9 0
10/25/2020 1:30:00 PM 12.65555 54.78 -4 6.27 -5.1 0
10/25/2020 1:45:00 PM 12.62222 54.72 -4 6.27 -5 0
10/25/2020 2:00:00 PM 12.66111 54.79 -4 6.27 -5 0
10/25/2020 2:15:00 PM 12.68889 54.84 -4 6.26 -5 0
10/25/2020 2:30:00 PM 12.69444 54.85 -4 6.26 -4.8 0
10/25/2020 2:45:00 PM 12.64444 54.76 -4 6.27 -4.9 0
10/25/2020 3:00:00 PM 12.62222 54.72 -4 6.27 -5 0
10/25/2020 3:15:00 PM 12.55555 54.6 -4 6.27 -5 0
10/25/2020 3:30:00 PM 12.44445 54.4 -4 6.26 -4.8 0
10/25/2020 3:45:00 PM 12.60556 54.69 -4 6.27 -5 0
10/25/2020 4:00:00 PM 12.59444 54.67 -4 6.26 -5 0
10/25/2020 4:15:00 PM 12.48333 54.47 -4 6.23 -4.9 0
10/25/2020 4:30:00 PM 12.54445 54.58 -4 6.25 -5 0
10/25/2020 4:45:00 PM 12.43889 54.39 -4 6.25 -4.9 0
10/25/2020 5:00:00 PM 12.60556 54.69 -4 6.25 -4.9 0
10/25/2020 5:15:00 PM 12.64444 54.76 -4 6.24 -4.9 0
10/25/2020 5:30:00 PM 12.61667 54.71 -4 6.24 -4.9 0
10/25/2020 5:45:00 PM 12.67222 54.81 -4 6.24 -5 0
10/25/2020 6:00:00 PM 12.48333 54.47 -4 6.2 -5 0
10/25/2020 6:15:00 PM 12.55555 54.6 -4 6.19 -5 0
10/25/2020 6:30:00 PM 12.45 54.41 -4 6.13 -4.9 0
10/25/2020 6:45:00 PM 12.57222 54.63 -4 6.2 -4.9 0
10/25/2020 7:00:00 PM 12.42222 54.36 -4 6.14 -5 0
10/25/2020 7:15:00 PM 12.53889 54.57 -4 6.18 -5 0
10/25/2020 7:30:00 PM 12.33889 54.21 -4 6.1 -4.9 0
10/25/2020 7:45:00 PM 12.25 54.05 -4 6.04 -5 0
10/25/2020 8:00:00 PM 12.62778 54.73 -4 6.14 -4.9 0
10/25/2020 8:15:00 PM 12.22778 54.01 -4 6.06 -4.9 0
10/25/2020 8:30:00 PM 12.25 54.05 -4 6.06 -4.9 0
10/25/2020 8:45:00 PM 12.65555 54.78 -4 6.11 -4.9 0
10/25/2020 9:00:00 PM 12.69444 54.85 -4 6.11 -4.9 0
10/25/2020 9:15:00 PM 12.55555 54.6 -4 6.16 -5 0
10/25/2020 9:30:00 PM 12.59444 54.67 -4 6.08 -4.8 0
10/25/2020 9:45:00 PM 12.55 54.59 -4 6.06 -5 0
10/25/2020 10:00:00 PM 12.31667 54.17 -4 6 -4.9 0
10/25/2020 10:15:00 PM 12.30556 54.15 -4 5.99 -4.9 0
10/25/2020 10:30:00 PM 12.38333 54.29 -4 6.02 -4.9 0
10/25/2020 10:45:00 PM 12.48333 54.47 -4 6.03 -4.9 0
10/25/2020 11:00:00 PM 12.47778 54.46 -4 6.04 -5 0
10/25/2020 11:15:00 PM 12.47778 54.46 -4 6.05 -4.8 0
10/25/2020 11:30:00 PM 12.46667 54.44 -4 6.05 -5 0
10/25/2020 11:45:00 PM 12.45555 54.42 -4 6.02 -4.9 0
10/26/2020 12:00:00 AM 12.6 54.68 -4 6.02 -4.8 0
10/26/2020 12:15:00 AM 12.55555 54.6 -4 6.04 -5 0
10/26/2020 12:30:00 AM 11.26111 52.27 -4 5.92 -4.9 0
10/26/2020 12:45:00 AM 10.83889 51.51 -4 6.01 -4.8 0
10/26/2020 1:00:00 AM 12.15556 53.88 -3 6.25 -4.9 0
10/26/2020 1:15:00 AM 13.35 56.03 -3 6.28 -5 0
10/26/2020 1:30:00 AM 13.31667 55.97 -3 6.31 -5 0
10/26/2020 1:45:00 AM 12.59444 54.67 -3 6.5 -4.9 0
10/26/2020 2:00:00 AM 12.33889 54.21 -3 6.54 -4.9 0
10/26/2020 2:15:00 AM 12.26667 54.08 -3 6.57 -4.9 0
10/26/2020 2:30:00 AM 12.13889 53.85 -3 6.61 -4.9 0
10/26/2020 2:45:00 AM 12.17778 53.92 -3 6.62 -4.8 0
10/26/2020 3:00:00 AM 12.21111 53.98 -3 6.62 -4.9 0
10/26/2020 3:15:00 AM 12.08889 53.76 -3 6.63 -4.8 0
10/26/2020 3:30:00 AM 12.08333 53.75 -3 6.62 -4.9 0
10/26/2020 3:45:00 AM 12.11111 53.8 -3 6.63 -4.8 0
10/26/2020 4:00:00 AM 12.08889 53.76 -3 6.64 -4.9 0
10/26/2020 4:15:00 AM 12.91111 55.24 -3 6.59 -5 0
10/26/2020 4:30:00 AM 12.1 53.78 -3 6.61 -4.9 0
10/26/2020 4:45:00 AM 12.24444 54.04 -3 6.64 -4.9 0
10/26/2020 5:00:00 AM 14.99445 58.99 -2 6.43 -5 0
10/26/2020 5:15:00 AM 12.98333 55.37 -3 6.64 -5 0
10/26/2020 5:30:00 AM 19.61666 67.31 -2 6.53 -5.2 0
10/26/2020 5:45:00 AM 13.07222 55.53 -3 6.59 -4.9 0
10/26/2020 6:00:00 AM 12.47222 54.45 -3 6.62 -4.9 0
10/26/2020 6:15:00 AM 12.71667 54.89 -3 6.62 -4.9 0
10/26/2020 6:30:00 AM 12.64444 54.76 -3 6.64 -4.9 0
10/26/2020 6:45:00 AM 13.09444 55.57 -3 6.63 -4.9 0
10/26/2020 7:00:00 AM 12.88333 55.19 -3 6.65 -4.9 0
10/26/2020 7:15:00 AM 12.52222 54.54 -3 6.64 -4.9 0
10/26/2020 7:30:00 AM 15.33333 59.6 -2 6.75 -4.9 0
10/26/2020 7:45:00 AM 12.97778 55.36 -3 6.66 -5 0
10/26/2020 8:00:00 AM 12.08889 53.76 -3 6.64 -4.9 0
10/26/2020 8:15:00 AM 12.23889 54.03 -3 6.98 -4.8 0
10/26/2020 8:30:00 AM 12.43333 54.38 -3 6.65 -4.8 0
10/26/2020 8:45:00 AM 12.35556 54.24 -3 6.64 -4.9 0
10/26/2020 9:00:00 AM 12.07778 53.74 -3 6.65 -4.9 0
10/26/2020 9:15:00 AM 12.37222 54.27 -3 6.65 -4.9 0
10/26/2020 9:30:00 AM 12.15 53.87 -3 6.65 -4.9 0
10/26/2020 9:45:00 AM 12.39444 54.31 -3 6.65 -5 0
10/26/2020 10:00:00 AM 12.35556 54.24 -3 6.65 -4.9 0
10/26/2020 10:15:00 AM 12.14444 53.86 -3 6.64 -4.9 0
10/26/2020 10:30:00 AM 16.67222 62.01 -2 6.36 -5 0
10/26/2020 10:45:00 AM 17.64444 63.76 -2 6.21 -5.2 0
10/26/2020 11:00:00 AM 12.28889 54.12 -3 6.66 -4.9 0
10/26/2020 11:15:00 AM 12.18889 53.94 -3 6.65 -4.9 0
10/26/2020 11:30:00 AM 12.30556 54.15 -3 6.65 -5 0
10/26/2020 11:45:00 AM 12.25 54.05 -3 6.65 -4.9 0
10/26/2020 12:00:00 PM 12.25 54.05 -3 6.65 -4.9 0
10/26/2020 12:15:00 PM 12.1 53.78 -3 6.65 -4.9 0
10/26/2020 12:30:00 PM 12.16111 53.89 -3 6.65 -4.9 0
10/26/2020 12:45:00 PM 12.14444 53.86 -3 6.65 -4.9 0
10/26/2020 1:00:00 PM 12.17222 53.91 -3 6.65 -4.8 0
10/26/2020 1:15:00 PM 12.26667 54.08 -3 6.65 -4.8 0
10/26/2020 1:30:00 PM 12.10556 53.79 -3 6.63 -4.8 0
10/26/2020 1:45:00 PM 12.26111 54.07 -3 6.69 -4.9 0
10/26/2020 2:00:00 PM 12.12222 53.82 -3 6.63 -4.8 0
10/26/2020 2:15:00 PM 12.23889 54.03 -3 6.7 -4.7 0
10/26/2020 2:30:00 PM 12.13889 53.85 -3 6.69 -4.9 0
10/26/2020 2:45:00 PM 12.12778 53.83 -3 6.72 -4.9 0
10/26/2020 3:00:00 PM 12.33333 54.2 -3 6.71 -4.9 0
10/26/2020 3:15:00 PM 12.1 53.78 -3 6.72 -5 0
10/26/2020 3:30:00 PM 12.21111 53.98 -3 6.73 -4.9 0
10/26/2020 3:45:00 PM 12.33333 54.2 -3 6.65 -5 0
10/26/2020 4:00:00 PM 12.24444 54.04 -3 6.72 -5 0
10/26/2020 4:15:00 PM 12.14444 53.86 -3 6.71 -4.9 0
10/26/2020 4:30:00 PM 12.12222 53.82 -3 6.72 -4.9 0
10/26/2020 4:45:00 PM 12.12778 53.83 -3 6.72 -4.9 0
10/26/2020 5:00:00 PM 12.18333 53.93 -3 6.74 -4.9 0
10/26/2020 5:15:00 PM 12.13333 53.84 -3 6.72 -4.9 0
10/26/2020 5:30:00 PM 12.2 53.96 -3 6.68 -4.9 0
10/26/2020 5:45:00 PM 12.26111 54.07 -3 6.65 -4.9 0
10/26/2020 6:00:00 PM 12.11111 53.8 -3 6.71 -5 0
10/26/2020 6:15:00 PM 12.16667 53.9 -3 6.73 -4.8 0
10/26/2020 6:30:00 PM 12.37222 54.27 -3 6.66 -4.9 0
10/26/2020 6:45:00 PM 12.08333 53.75 -3 6.69 -4.9 0
10/26/2020 7:00:00 PM 12.13333 53.84 -3 6.69 -4.9 0
10/26/2020 7:15:00 PM 13.28889 55.92 -3 6.67 -4.9 0
10/26/2020 7:30:00 PM 12.16111 53.89 -3 6.66 -4.9 0
10/26/2020 7:45:00 PM 12.08333 53.75 -3 6.68 -4.9 0
10/26/2020 8:00:00 PM 12.26111 54.07 -3 6.65 -4.9 0
10/26/2020 8:15:00 PM 12.5 54.5 -3 6.66 -4.9 0
10/26/2020 8:30:00 PM 12.10556 53.79 -3 6.69 -4.9 0
10/26/2020 8:45:00 PM 12.14444 53.86 -3 6.7 -4.9 0
10/26/2020 9:00:00 PM 12.11667 53.81 -3 6.66 -4.8 0
10/26/2020 9:15:00 PM 12.45555 54.42 -3 6.66 -4.9 0
10/26/2020 9:30:00 PM 12.08889 53.76 -3 6.67 -4.9 0
10/26/2020 9:45:00 PM 14.09444 57.37 -3 6.67 -5.1 0
10/26/2020 10:00:00 PM 13.12778 55.63 -3 6.67 -5 0
10/26/2020 10:15:00 PM 13.21111 55.78 -3 6.67 -5 0
10/26/2020 10:30:00 PM 14.01111 57.22 -3 6.67 -5.1 0
10/26/2020 10:45:00 PM 13.89444 57.01 -3 6.67 -4.9 0
10/26/2020 11:00:00 PM 12.10556 53.79 -3 6.67 -5 0
10/26/2020 11:15:00 PM 13.63889 56.55 -3 6.67 -5 0
10/26/2020 11:30:00 PM 13.81667 56.87 -3 6.67 -5.1 0
10/26/2020 11:45:00 PM 13.84444 56.92 -3 6.68 -5 0
10/27/2020 12:00:00 AM 13.84444 56.92 -3 6.68 -4.9 0
10/27/2020 12:15:00 AM 12.35 54.23 -3 6.65 -4.8 0
10/27/2020 12:30:00 AM 13.43333 56.18 -3 6.67 -4.9 0
10/27/2020 12:45:00 AM 13.78889 56.82 -3 6.69 -5 0
10/27/2020 1:00:00 AM 13.72222 56.7 -3 6.68 -5 0
10/27/2020 1:15:00 AM 13.76667 56.78 -3 6.67 -5 0
10/27/2020 1:30:00 AM 12.57222 54.63 -3 6.65 -5 0
10/27/2020 1:45:00 AM 12.46111 54.43 -3 6.65 -5 0
10/27/2020 2:00:00 AM 13.82222 56.88 -3 6.65 -4.9 0
10/27/2020 2:15:00 AM 13.53333 56.36 -3 6.65 -5 0
10/27/2020 2:30:00 AM 12.12778 53.83 -3 6.65 -4.9 0
10/27/2020 2:45:00 AM 13.61111 56.5 -3 6.6 -4.9 0
10/27/2020 3:00:00 AM 12.11667 53.81 -3 6.64 -4.9 0
10/27/2020 3:15:00 AM 12.15 53.87 -3 6.66 -4.9 0
10/27/2020 3:30:00 AM 13.49444 56.29 -3 6.61 -5 0
10/27/2020 3:45:00 AM 13.43333 56.18 -3 6.52 -4.9 0
10/27/2020 4:00:00 AM 14.07222 57.33 -3 6.52 -5 0
10/27/2020 4:15:00 AM 12.17222 53.91 -3 6.65 -4.8 0
10/27/2020 4:30:00 AM 12.15556 53.88 -3 6.65 -4.9 0
10/27/2020 4:45:00 AM 13.43333 56.18 -3 6.49 -5 0
10/27/2020 5:00:00 AM 13.42222 56.16 -3 6.5 -4.9 0
10/27/2020 5:15:00 AM 13.39444 56.11 -3 6.5 -5 0
10/27/2020 5:30:00 AM 12.22222 54 -3 6.67 -4.9 0
10/27/2020 5:45:00 AM 12.18889 53.94 -3 6.65 -4.9 0
10/27/2020 6:00:00 AM 12.27222 54.09 -3 6.65 -4.9 0
10/27/2020 6:15:00 AM 12.21111 53.98 -3 6.63 -4.8 0
10/27/2020 6:30:00 AM 13.77222 56.79 -3 6.52 -5 0
10/27/2020 6:45:00 AM 13.18333 55.73 -3 6.64 -5 0
10/27/2020 7:00:00 AM 13.94444 57.1 -3 6.53 -4.9 0
10/27/2020 7:15:00 AM 12.12222 53.82 -3 6.65 -4.9 0
10/27/2020 7:30:00 AM 13.42222 56.16 -3 6.56 -4.9 0
10/27/2020 7:45:00 AM 13.01111 55.42 -3 6.57 -5 0
10/27/2020 8:00:00 AM 13.90555 57.03 -3 6.48 -5 0
10/27/2020 8:15:00 AM 12.16111 53.89 -3 6.65 -5 0
10/27/2020 8:30:00 AM 12.26111 54.07 -3 6.67 -4.9 0
10/27/2020 8:45:00 AM 12.73333 54.92 -3 6.57 -4.9 0
10/27/2020 9:00:00 AM 14.02222 57.24 -3 6.53 -5 0
10/27/2020 9:15:00 AM 12.25556 54.06 -3 6.68 -4.9 0
10/27/2020 9:30:00 AM 12.12778 53.83 -3 6.65 -5 0
10/27/2020 9:45:00 AM 12.14444 53.86 -3 6.65 -4.8 0
10/27/2020 10:00:00 AM 12.12222 53.82 -3 6.65 -4.9 0
10/27/2020 10:15:00 AM 12.64444 54.76 -3 6.65 -4.9 0
10/27/2020 10:30:00 AM 13.86667 56.96 -3 6.59 -5 0
10/27/2020 10:45:00 AM 12.64444 54.76 -3 6.65 -4.9 0
10/27/2020 11:00:00 AM 12.69444 54.85 -3 6.64 -4.9 0
10/27/2020 11:15:00 AM 12.55 54.59 -3 6.65 -4.9 0
10/27/2020 11:30:00 AM 12.11111 53.8 -3 6.66 -4.9 0
10/27/2020 11:45:00 AM 12.41111 54.34 -3 6.65 -4.9 0
10/27/2020 12:00:00 PM 12.13889 53.85 -3 6.66 -5 0
10/27/2020 12:15:00 PM 14.04444 57.28 -3 6.51 -5 0
10/27/2020 12:30:00 PM 14.06111 57.31 -3 6.55 -4.9 0
10/27/2020 12:45:00 PM 12.57778 54.64 -3 6.65 -4.9 0
10/27/2020 1:00:00 PM 13.93889 57.09 -3 6.51 -5 0
10/27/2020 1:15:00 PM 12.47222 54.45 -3 6.66 -5 0
10/27/2020 1:30:00 PM 13.56667 56.42 -3 6.48 -4.9 0
10/27/2020 1:45:00 PM 13.84444 56.92 -3 6.51 -5 0
10/27/2020 2:00:00 PM 12.42222 54.36 -3 6.63 -5 0
10/27/2020 2:15:00 PM 12.42778 54.37 -3 6.62 -4.9 0
10/27/2020 2:30:00 PM 13.82222 56.88 -3 6.53 -5 0
10/27/2020 2:45:00 PM 14.21111 57.58 -3 6.43 -5.1 0
10/27/2020 3:00:00 PM 14.16667 57.5 -3 6.44 -5 0
10/27/2020 3:15:00 PM 14.22778 57.61 -3 6.46 -5 0
10/27/2020 3:30:00 PM 12.13889 53.85 -3 6.6 -4.9 0
10/27/2020 3:45:00 PM 13.62778 56.53 -3 6.44 -5 0
10/27/2020 4:00:00 PM 12.38333 54.29 -3 6.65 -4.9 0
10/27/2020 4:15:00 PM 14.22778 57.61 -3 6.41 -4.9 0
10/27/2020 4:30:00 PM 12.1 53.78 -3 6.59 -4.9 0
10/27/2020 4:45:00 PM 13.71111 56.68 -3 6.42 -4.9 0
10/27/2020 5:00:00 PM 12.10556 53.79 -3 6.6 -4.9 0
10/27/2020 5:15:00 PM 14.32778 57.79 -3 6.41 -5.1 0
10/27/2020 5:30:00 PM 12.11111 53.8 -3 6.59 -4.9 0
10/27/2020 5:45:00 PM 14.36111 57.85 -3 6.4 -4.9 0
10/27/2020 6:00:00 PM 14.01111 57.22 -3 6.4 -5.1 0
10/27/2020 6:15:00 PM 12.4 54.32 -3 6.64 -4.9 0
10/27/2020 6:30:00 PM 12.36666 54.26 -3 6.64 -4.9 0
10/27/2020 6:45:00 PM 12.34445 54.22 -3 6.67 -5 0
10/27/2020 7:00:00 PM 13.88334 56.99 -3 6.48 -5 0
10/27/2020 7:15:00 PM 12.12778 53.83 -3 6.49 -4.9 0
10/27/2020 7:30:00 PM 12.28889 54.12 -3 6.64 -4.9 0
10/27/2020 7:45:00 PM 12.56111 54.61 -3 6.64 -5 0
10/27/2020 8:00:00 PM 12.29445 54.13 -3 6.64 -4.9 0
10/27/2020 8:15:00 PM 14.35 57.83 -3 6.38 -5.1 0
10/27/2020 8:30:00 PM 12.54445 54.58 -3 6.63 -4.9 0
10/27/2020 8:45:00 PM 13.60556 56.49 -3 6.35 -4.9 0
10/27/2020 9:00:00 PM 12.3 54.14 -3 6.64 -5 0
10/27/2020 9:15:00 PM 13.88889 57 -3 6.51 -5 0
10/27/2020 9:30:00 PM 12.27222 54.09 -3 6.6 -4.9 0
10/27/2020 9:45:00 PM 14.03333 57.26 -3 6.36 -5 0
10/27/2020 10:00:00 PM 14.56111 58.21 -3 6.37 -5 0
10/27/2020 10:15:00 PM 14.50556 58.11 -3 6.36 -5 0
10/27/2020 10:30:00 PM 14.7 58.46 -3 6.39 -5 0
10/27/2020 10:45:00 PM 13.98333 57.17 -3 6.39 -5.1 0
10/27/2020 11:00:00 PM 13.94444 57.1 -3 6.41 -5.1 0
10/27/2020 11:15:00 PM 12.12222 53.82 -3 6.44 -4.9 0
10/27/2020 11:30:00 PM 13.96111 57.13 -3 6.35 -5 0
10/27/2020 11:45:00 PM 13.98889 57.18 -3 6.36 -5 0
10/28/2020 12:00:00 AM 12.10556 53.79 -3 6.5 -4.8 0
10/28/2020 12:15:00 AM 13.96667 57.14 -3 6.36 -4.9 0
10/28/2020 12:30:00 AM 14.23889 57.63 -3 6.41 -5 0
10/28/2020 12:45:00 AM 14.31667 57.77 -3 6.42 -5 0
10/28/2020 1:00:00 AM 14.41111 57.94 -3 6.43 -5.1 0
10/28/2020 1:15:00 AM 14.47222 58.05 -3 6.44 -5 0
10/28/2020 1:30:00 AM 12.51111 54.52 -3 6.49 -4.9 0
10/28/2020 1:45:00 AM 12.25 54.05 -3 6.53 -4.9 0
10/28/2020 2:00:00 AM 14.04444 57.28 -3 6.38 -5 0
10/28/2020 2:15:00 AM 12.10556 53.79 -3 6.5 -4.9 0
10/28/2020 2:30:00 AM 12.16111 53.89 -3 6.57 -4.9 0
10/28/2020 2:45:00 AM 14.47222 58.05 -3 6.42 -5.1 0
10/28/2020 3:00:00 AM 12.25556 54.06 -3 6.56 -4.8 0
10/28/2020 3:15:00 AM 14.40555 57.93 -3 6.41 -5 0
10/28/2020 3:30:00 AM 14.13333 57.44 -3 6.4 -5 0
10/28/2020 3:45:00 AM 12.08333 53.75 -3 6.52 -5 0
10/28/2020 4:00:00 AM 12.2 53.96 -3 6.55 -4.9 0
10/28/2020 4:15:00 AM 12.12778 53.83 -3 6.48 -5.1 0
10/28/2020 4:30:00 AM 12.08889 53.76 -3 6.46 -4.9 0
10/28/2020 4:45:00 AM 12.37222 54.27 -3 6.46 -4.9 0
10/28/2020 5:00:00 AM 14.48889 58.08 -3 6.42 -5 0
10/28/2020 5:15:00 AM 14.79445 58.63 -3 6.3 -5.1 0
10/28/2020 5:30:00 AM 14.47778 58.06 -3 6.41 -5 0
10/28/2020 5:45:00 AM 14.49444 58.09 -3 6.5 -5 0
10/28/2020 6:00:00 AM 15.05 59.09 -3 6.4 -5 0
10/28/2020 6:15:00 AM 14.54444 58.18 -3 6.42 -5 0
10/28/2020 6:30:00 AM 14.53333 58.16 -3 6.42 -5 0
10/28/2020 6:45:00 AM 12.2 53.96 -3 6.45 -4.9 0
10/28/2020 7:00:00 AM 14.25 57.65 -3 6.33 -5.1 0
10/28/2020 7:15:00 AM 12.11111 53.8 -3 6.38 -5 0
10/28/2020 7:30:00 AM 12.17222 53.91 -3 6.44 -5 0
10/28/2020 7:45:00 AM 14.61667 58.31 -3 6.32 -5.1 0
10/28/2020 8:00:00 AM 12.05556 53.7 -3 6.36 -4.9 0
10/28/2020 8:15:00 AM 14.57778 58.24 -3 6.4 -5 0
10/28/2020 8:30:00 AM 15.15555 59.28 -3 6.4 -5 0
10/28/2020 8:45:00 AM 12.13889 53.85 -3 6.46 -4.9 0
10/28/2020 9:00:00 AM 15.27222 59.49 -3 6.39 -5 0
10/28/2020 9:15:00 AM 12.12222 53.82 -3 6.36 -4.9 0
10/28/2020 9:30:00 AM 12.31111 54.16 -3 6.4 -4.9 0
10/28/2020 9:45:00 AM 14.26111 57.67 -3 6.39 -5 0
10/28/2020 10:00:00 AM 14.47222 58.05 -3 6.42 -5 0
10/28/2020 10:15:00 AM 12.26667 54.08 -3 6.46 -4.9 0
10/28/2020 10:30:00 AM 14.29444 57.73 -3 6.35 -4.9 0
10/28/2020 10:45:00 AM 14.66667 58.4 -3 6.32 -5.1 0
10/28/2020 11:00:00 AM 14.38889 57.9 -3 6.3 -5 0
10/28/2020 11:15:00 AM 12.54445 54.58 -3 6.38 -4.9 0
10/28/2020 11:30:00 AM 12.48889 54.48 -3 6.43 -4.9 0
10/28/2020 11:45:00 AM 12.62222 54.72 -3 6.43 -4.8 0
10/28/2020 12:00:00 PM 12.63334 54.74 -3 6.5 -4.9 0
10/28/2020 12:15:00 PM 12.61111 54.7 -3 6.51 -5 0
10/28/2020 12:30:00 PM 12.79444 55.03 -3 6.55 -5 0
10/28/2020 12:45:00 PM 12.8 55.04 -3 6.55 -5 0
10/28/2020 1:00:00 PM 12.63889 54.75 -3 6.42 -4.9 0
10/28/2020 1:15:00 PM 12.99444 55.39 -3 6.53 -4.9 0
10/28/2020 1:30:00 PM 13.08889 55.56 -3 6.51 -4.9 0
10/28/2020 1:45:00 PM 13.20556 55.77 -3 6.49 -5 0
10/28/2020 2:00:00 PM 13.32222 55.98 -3 6.41 -4.9 0
10/28/2020 2:15:00 PM 13.31111 55.96 -3 6.44 -5 0
10/28/2020 2:30:00 PM 13.32222 55.98 -3 6.42 -5 0
10/28/2020 2:45:00 PM 13.42222 56.16 -3 6.36 -4.9 0
10/28/2020 3:00:00 PM 13.36111 56.05 -3 6.37 -4.9 0
10/28/2020 3:15:00 PM 13.39444 56.11 -3 6.36 -5 0
10/28/2020 3:30:00 PM 13.33333 56 -3 6.4 -5 0
10/28/2020 3:45:00 PM 13.34445 56.02 -3 6.4 -4.8 0
10/28/2020 4:00:00 PM 13.35 56.03 -3 6.41 -5 0
10/28/2020 4:15:00 PM 13.34445 56.02 -3 6.41 -4.8 0
10/28/2020 4:30:00 PM 13.33889 56.01 -3 6.41 -4.9 0
10/28/2020 4:45:00 PM 13.35 56.03 -3 6.41 -5 0
10/28/2020 5:00:00 PM 13.33889 56.01 -3 6.41 -5 0
10/28/2020 5:15:00 PM 13.35 56.03 -3 6.4 -4.9 0
10/28/2020 5:30:00 PM 13.33333 56 -3 6.42 -4.9 0
10/28/2020 5:45:00 PM 13.35 56.03 -3 6.41 -4.9 0
10/28/2020 6:00:00 PM 13.31667 55.97 -3 6.42 -4.8 0
10/28/2020 6:15:00 PM 13.31111 55.96 -3 6.42 -5 0
10/28/2020 6:30:00 PM 13.35556 56.04 -3 6.42 -4.9 0
10/28/2020 6:45:00 PM 13.3 55.94 -3 6.42 -4.9 0
10/28/2020 7:00:00 PM 13.20556 55.77 -3 6.45 -5 0
10/28/2020 7:15:00 PM 13.17778 55.72 -3 6.45 -4.9 0
10/28/2020 7:30:00 PM 13.15556 55.68 -3 6.46 -5 0
10/28/2020 7:45:00 PM 13.01111 55.42 -3 6.53 -4.9 0
10/28/2020 8:00:00 PM 13.07778 55.54 -3 6.49 -4.9 0
10/28/2020 8:15:00 PM 13.08889 55.56 -3 6.46 -4.9 0
10/28/2020 8:30:00 PM 13.1 55.58 -3 6.46 -5 0
10/28/2020 8:45:00 PM 13.05 55.49 -3 6.48 -5 0
10/28/2020 9:00:00 PM 13.00556 55.41 -3 6.5 -4.9 0
10/28/2020 9:15:00 PM 12.91111 55.24 -3 6.5 -4.9 0
10/28/2020 9:30:00 PM 12.76111 54.97 -3 6.54 -4.9 0
10/28/2020 9:45:00 PM 12.3 54.14 -3 6.63 -4.9 0
10/28/2020 10:00:00 PM 12.43889 54.39 -3 6.56 -4.9 0
10/28/2020 10:15:00 PM 12.30556 54.15 -3 6.64 -5 0
10/28/2020 10:30:00 PM 12.42222 54.36 -3 6.57 -4.8 0
10/28/2020 10:45:00 PM 12.32222 54.18 -3 6.57 -4.9 0
10/28/2020 11:00:00 PM 12.31111 54.16 -3 6.57 -4.9 0
10/28/2020 11:15:00 PM 12.28889 54.12 -3 6.59 -4.9 0
10/28/2020 11:30:00 PM 12.22778 54.01 -3 6.54 -4.9 0
10/28/2020 11:45:00 PM 12.12222 53.82 -3 6.52 -4.9 0
10/29/2020 12:00:00 AM 12.2 53.96 -3 6.53 -4.9 0
10/29/2020 12:15:00 AM 12.32222 54.18 -3 6.26 -5 0
10/29/2020 12:30:00 AM 12.64444 54.76 -3 6.27 -5 0
10/29/2020 12:45:00 AM 12.51111 54.52 -3 6.28 -5 0
10/29/2020 1:00:00 AM 12.08889 53.76 -3 6.28 -5 0
10/29/2020 1:15:00 AM 12.1 53.78 -3 6.26 -4.8 0
10/29/2020 1:30:00 AM 12.10556 53.79 -3 6.35 -4.9 0
10/29/2020 1:45:00 AM 12.11667 53.81 -3 6.27 -4.9 0
10/29/2020 2:00:00 AM 12.31667 54.17 -3 6.27 -5 0
10/29/2020 2:15:00 AM 12.14444 53.86 -3 6.29 -5 0
10/29/2020 2:30:00 AM 12.42778 54.37 -3 6.28 -5 0
10/29/2020 2:45:00 AM 12.35 54.23 -3 6.41 -4.9 0
10/29/2020 3:00:00 AM 12.38333 54.29 -3 6.45 -4.9 0
10/29/2020 3:15:00 AM 12.13889 53.85 -3 6.27 -4.9 0
10/29/2020 3:30:00 AM 12.18889 53.94 -3 6.27 -4.8 0
10/29/2020 3:45:00 AM 12.30556 54.15 -3 6.27 -4.9 0
10/29/2020 4:00:00 AM 12.18333 53.93 -3 6.35 -4.9 0
10/29/2020 4:15:00 AM 12.23889 54.03 -3 6.27 -4.9 0
10/29/2020 4:30:00 AM 12.12222 53.82 -3 6.3 -4.9 0
10/29/2020 4:45:00 AM 12.50555 54.51 -3 6.27 -4.9 0
10/29/2020 5:00:00 AM 12.12222 53.82 -3 6.42 -5 0
10/29/2020 5:15:00 AM 14.18333 57.53 -3 6.38 -5 0
10/29/2020 5:30:00 AM 12.27222 54.09 -3 6.32 -4.9 0
10/29/2020 5:45:00 AM 12.16667 53.9 -3 6.29 -4.9 0
10/29/2020 6:00:00 AM 14.67778 58.42 -3 6.31 -5 0
10/29/2020 6:15:00 AM 14.36111 57.85 -3 6.3 -4.9 0
10/29/2020 6:30:00 AM 14.33333 57.8 -3 6.3 -4.9 0
10/29/2020 6:45:00 AM 14.21111 57.58 -3 6.3 -4.9 0
10/29/2020 7:00:00 AM 12.12222 53.82 -3 6.27 -4.8 0
10/29/2020 7:15:00 AM 14.43333 57.98 -3 6.3 -4.9 0
10/29/2020 7:30:00 AM 13.6 56.48 -3 6.29 -5 0
10/29/2020 7:45:00 AM 12.18889 53.94 -3 6.27 -4.9 0
10/29/2020 8:00:00 AM 12.45555 54.42 -3 6.31 -5 0
10/29/2020 8:15:00 AM 12.5 54.5 -3 6.3 -4.9 0
10/29/2020 8:30:00 AM 12.08333 53.75 -3 6.52 -4.9 0
10/29/2020 8:45:00 AM 12.87778 55.18 -3 6.29 -5 0
10/29/2020 9:00:00 AM 12.54445 54.58 -3 6.27 -5 0
10/29/2020 9:15:00 AM 13.30556 55.95 -3 6.29 -5 0
10/29/2020 9:30:00 AM 14.02222 57.24 -3 6.31 -5 0
10/29/2020 9:45:00 AM 12.2 53.96 -3 6.38 -4.9 0
10/29/2020 10:00:00 AM 12.21667 53.99 -3 6.34 -4.9 0
10/29/2020 10:15:00 AM 12.16667 53.9 -3 6.4 -5 0
10/29/2020 10:30:00 AM 12.31667 54.17 -3 6.4 -4.9 0
10/29/2020 10:45:00 AM 12.28889 54.12 -3 6.41 -4.9 0
10/29/2020 11:00:00 AM 13.26667 55.88 -3 6.39 -4.9 0
10/29/2020 11:15:00 AM 14.58333 58.25 -3 6.32 -5 0
10/29/2020 11:30:00 AM 12.67778 54.82 -3 6.42 -4.9 0
10/29/2020 11:45:00 AM 14.2 57.56 -3 6.33 -5 0
10/29/2020 12:00:00 PM 14.5 58.1 -3 6.32 -5.1 0
10/29/2020 12:15:00 PM 14.25556 57.66 -3 6.32 -4.9 0
10/29/2020 12:30:00 PM 12.33333 54.2 -3 6.54 -4.9 0
10/29/2020 12:45:00 PM 12.11667 53.81 -3 6.63 -4.9 0
10/29/2020 1:00:00 PM 14.32778 57.79 -3 6.33 -5 0
10/29/2020 1:15:00 PM 13.00556 55.41 -3 6.45 -5 0
10/29/2020 1:30:00 PM 14.15 57.47 -3 6.36 -5 0
10/29/2020 1:45:00 PM 12.42222 54.36 -3 6.48 -4.9 0
10/29/2020 2:00:00 PM 12.13333 53.84 -3 6.58 -4.9 0
10/29/2020 2:15:00 PM 12.51667 54.53 -3 6.47 -4.9 0
10/29/2020 2:30:00 PM 13.91667 57.05 -3 6.39 -5 0
10/29/2020 2:45:00 PM 13.97222 57.15 -3 6.41 -5 0
10/29/2020 3:00:00 PM 14.04444 57.28 -3 6.39 -5 0
10/29/2020 3:15:00 PM 13.01111 55.42 -3 6.46 -4.9 0
10/29/2020 3:30:00 PM 13.67778 56.62 -3 6.35 -5 0
10/29/2020 3:45:00 PM 14.13889 57.45 -3 6.42 -5 0
10/29/2020 4:00:00 PM 13.07222 55.53 -3 6.49 -4.9 0
10/29/2020 4:15:00 PM 12.74444 54.94 -3 6.54 -4.9 0
10/29/2020 4:30:00 PM 13.01111 55.42 -3 6.53 -5 0
10/29/2020 4:45:00 PM 13.87778 56.98 -3 6.48 -4.9 0
10/29/2020 5:00:00 PM 13.88334 56.99 -3 6.49 -4.9 0
10/29/2020 5:15:00 PM 14.03333 57.26 -3 6.44 -5 0
10/29/2020 5:30:00 PM 12.58889 54.66 -3 6.59 -4.9 0
10/29/2020 5:45:00 PM 13.67222 56.61 -3 6.5 -5 0
10/29/2020 6:00:00 PM 13.72222 56.7 -3 6.49 -5 0
10/29/2020 6:15:00 PM 14.02222 57.24 -3 6.5 -5 0
10/29/2020 6:30:00 PM 13.93333 57.08 -3 6.49 -5 0
10/29/2020 6:45:00 PM 13.45556 56.22 -3 6.51 -4.9 0
10/29/2020 7:00:00 PM 13.38889 56.1 -3 6.49 -5 0
10/29/2020 7:15:00 PM 13.45 56.21 -3 6.53 -4.9 0
10/29/2020 7:30:00 PM 14.05556 57.3 -3 6.52 -5 0
10/29/2020 7:45:00 PM 13.41111 56.14 -3 6.54 -5 0
10/29/2020 8:00:00 PM 13.37222 56.07 -3 6.52 -5 0
10/29/2020 8:15:00 PM 13.16667 55.7 -3 6.5 -4.9 0
10/29/2020 8:30:00 PM 13.08333 55.55 -3 6.54 -4.9 0
10/29/2020 8:45:00 PM 13.6 56.48 -3 6.48 -5 0
10/29/2020 9:00:00 PM 14.16111 57.49 -2 6.51 -5 0
10/29/2020 9:15:00 PM 13.75555 56.76 -3 6.57 -4.9 0
10/29/2020 9:30:00 PM 13.46667 56.24 -3 6.56 -5 0
10/29/2020 9:45:00 PM 13.32222 55.98 -3 6.53 -5 0
10/29/2020 10:00:00 PM 14.10556 57.39 -2 6.52 -5 0
10/29/2020 10:15:00 PM 13.70555 56.67 -3 6.54 -4.9 0
10/29/2020 10:30:00 PM 13.88889 57 -3 6.57 -5 0
10/29/2020 10:45:00 PM 13.31111 55.96 -3 6.52 -5 0
10/29/2020 11:00:00 PM 14.13889 57.45 -2 6.54 -5 0
10/29/2020 11:15:00 PM 14.37778 57.88 -2 6.54 -5 0
10/29/2020 11:30:00 PM 14.05556 57.3 -2 6.56 -4.9 0
10/29/2020 11:45:00 PM 14.26111 57.67 -2 6.53 -5 0
10/30/2020 12:00:00 AM 14.72778 58.51 -2 6.65 -5 0
10/30/2020 12:15:00 AM 14.74445 58.54 -2 6.65 -5 0
10/30/2020 12:30:00 AM 14.65 58.37 -2 6.65 -5 0
10/30/2020 12:45:00 AM 14.77778 58.6 -2 6.65 -5 0
10/30/2020 1:00:00 AM 14.77222 58.59 -2 6.65 -5 0
10/30/2020 1:15:00 AM 14.97222 58.95 -2 6.65 -5 0
10/30/2020 1:30:00 AM 14.70556 58.47 -2 6.65 -5 0
10/30/2020 1:45:00 AM 14.64444 58.36 -2 6.65 -5 0
10/30/2020 2:00:00 AM 14.87778 58.78 -2 6.65 -5 0
10/30/2020 2:15:00 AM 14.71111 58.48 -2 6.65 -5 0
10/30/2020 2:30:00 AM 14.71667 58.49 -2 6.65 -5 0
10/30/2020 2:45:00 AM 14.72222 58.5 -2 6.65 -4.9 0
10/30/2020 3:00:00 AM 14.72778 58.51 -2 6.65 -5 0
10/30/2020 3:15:00 AM 14.73889 58.53 -2 6.65 -4.9 0
10/30/2020 3:30:00 AM 15.26667 59.48 -2 6.58 -5.1 0
10/30/2020 3:45:00 AM 15.18333 59.33 -2 6.58 -5 0
10/30/2020 4:00:00 AM 14.56667 58.22 -2 6.63 -5 0
10/30/2020 4:15:00 AM 14.84445 58.72 -2 6.65 -5 0
10/30/2020 4:30:00 AM 14.84445 58.72 -2 6.65 -5 0
10/30/2020 4:45:00 AM 14.71111 58.48 -2 6.65 -5 0
10/30/2020 5:00:00 AM 14.75556 58.56 -2 6.61 -4.9 0
10/30/2020 5:15:00 AM 15.15555 59.28 -2 6.65 -5 0
10/30/2020 5:30:00 AM 15.14444 59.26 -2 6.65 -5 0
10/30/2020 5:45:00 AM 14.97778 58.96 -2 6.65 -5.1 0
10/30/2020 6:00:00 AM 13.91667 57.05 -3 6.49 -5 0
10/30/2020 6:15:00 AM 15.17222 59.31 -2 6.65 -5.1 0
10/30/2020 6:30:00 AM 14.80556 58.65 -2 6.65 -5 0
10/30/2020 6:45:00 AM 14.8 58.64 -2 6.51 -5 0
10/30/2020 7:00:00 AM 14.9 58.82 -2 6.61 -5 0
10/30/2020 7:15:00 AM 14.84445 58.72 -2 6.63 -5 0
10/30/2020 7:30:00 AM 15.00555 59.01 -2 6.64 -4.9 0
10/30/2020 7:45:00 AM 14.85 58.73 -2 6.62 -5 0
10/30/2020 8:00:00 AM 14.86111 58.75 -2 6.52 -5 0
10/30/2020 8:15:00 AM 15.31667 59.57 -2 6.62 -5 0
10/30/2020 8:30:00 AM 15.35 59.63 -2 6.57 -5 0
10/30/2020 8:45:00 AM 15.31667 59.57 -2 6.6 -5.1 0
10/30/2020 9:00:00 AM 15.26667 59.48 -2 6.57 -5.1 0
10/30/2020 9:15:00 AM 15.29444 59.53 -2 6.56 -5.1 0
10/30/2020 9:30:00 AM 15.33889 59.61 -2 6.61 -5 0
10/30/2020 9:45:00 AM 15.33889 59.61 -2 6.61 -5 0
10/30/2020 10:00:00 AM 15.25 59.45 -2 6.65 -5 0
10/30/2020 10:15:00 AM 15.26111 59.47 -2 6.65 -5.1 0
10/30/2020 10:30:00 AM 15.35 59.63 -2 6.6 -5 0
10/30/2020 10:45:00 AM 15.15 59.27 -2 6.61 -5.1 0
10/30/2020 11:00:00 AM 15.11111 59.2 -2 6.61 -5 0
10/30/2020 11:15:00 AM 15.17778 59.32 -2 6.63 -4.9 0
10/30/2020 11:30:00 AM 15.08333 59.15 -2 6.57 -5 0
10/30/2020 11:45:00 AM 15.14444 59.26 -2 6.61 -5 0
10/30/2020 12:00:00 PM 14.76111 58.57 -2 6.43 -5 0
10/30/2020 12:15:00 PM 15.03333 59.06 -2 6.56 -5 0
10/30/2020 12:30:00 PM 15.23333 59.42 -2 6.64 -5 0
10/30/2020 12:45:00 PM 15.05 59.09 -2 6.44 -4.9 0
10/30/2020 1:00:00 PM 15.25 59.45 -2 6.64 -5 0
10/30/2020 1:15:00 PM 15.27222 59.49 -2 6.64 -5.1 0
10/30/2020 1:30:00 PM 15.12778 59.23 -2 6.5 -5 0
10/30/2020 1:45:00 PM 15.17222 59.31 -2 6.53 -5 0
10/30/2020 2:00:00 PM 15.06667 59.12 -2 6.48 -5 0
10/30/2020 2:15:00 PM 14.86666 58.76 -2 6.47 -5 0
10/30/2020 2:30:00 PM 14.96667 58.94 -2 6.48 -5 0
10/30/2020 2:45:00 PM 15.1 59.18 -2 6.47 -5 0
10/30/2020 3:00:00 PM 14.91111 58.84 -2 6.43 -5 0
10/30/2020 3:15:00 PM 15.09444 59.17 -2 6.47 -5 0
10/30/2020 3:30:00 PM 14.90556 58.83 -2 6.45 -5 0
10/30/2020 3:45:00 PM 15.14444 59.26 -2 6.39 -5 0
10/30/2020 4:00:00 PM 14.90556 58.83 -2 6.44 -5 0
10/30/2020 4:15:00 PM 15.35 59.63 -2 6.33 -5.1 0
10/30/2020 4:30:00 PM 15.08333 59.15 -2 6.41 -5 0
10/30/2020 4:45:00 PM 14.87222 58.77 -2 6.39 -5 0
10/30/2020 5:00:00 PM 15.1 59.18 -2 6.44 -4.9 0
10/30/2020 5:15:00 PM 15.17778 59.32 -2 6.45 -5 0
10/30/2020 5:30:00 PM 15.08889 59.16 -2 6.47 -5 0
10/30/2020 5:45:00 PM 15.15555 59.28 -2 6.48 -4.9 0
10/30/2020 6:00:00 PM 15.18889 59.34 -2 6.42 -5 0
10/30/2020 6:15:00 PM 15.19444 59.35 -2 6.49 -5.1 0
10/30/2020 6:30:00 PM 15.11111 59.2 -2 6.45 -5 0
10/30/2020 6:45:00 PM 15.18333 59.33 -2 6.39 -5 0
10/30/2020 7:00:00 PM 15.17778 59.32 -2 6.47 -5 0
10/30/2020 7:15:00 PM 14.93333 58.88 -2 6.32 -5 0
10/30/2020 7:30:00 PM 15.07778 59.14 -2 6.32 -5.1 0
10/30/2020 7:45:00 PM 15.26111 59.47 -2 6.48 -5 0
10/30/2020 8:00:00 PM 15.20555 59.37 -2 6.47 -5 0
10/30/2020 8:15:00 PM 15.24444 59.44 -2 6.49 -5.1 0
10/30/2020 8:30:00 PM 15.23889 59.43 -2 6.46 -5.1 0
10/30/2020 8:45:00 PM 15.28889 59.52 -2 6.56 -4.9 0
10/30/2020 9:00:00 PM 15.24444 59.44 -2 6.47 -5 0
10/30/2020 9:15:00 PM 15.26667 59.48 -2 6.51 -5 0
10/30/2020 9:30:00 PM 15.23889 59.43 -2 6.45 -5 0
10/30/2020 9:45:00 PM 15.26667 59.48 -2 6.46 -5 0
10/30/2020 10:00:00 PM 15.23889 59.43 -2 6.44 -5 0
10/30/2020 10:15:00 PM 15.21667 59.39 -2 6.41 -5 0
10/30/2020 10:30:00 PM 15.19444 59.35 -2 6.4 -5 0
10/30/2020 10:45:00 PM 15.28889 59.52 -2 6.47 -5 0
10/30/2020 11:00:00 PM 15.3 59.54 -2 6.49 -5.1 0
10/30/2020 11:15:00 PM 15.28889 59.52 -2 6.48 -5 0
10/30/2020 11:30:00 PM 15.29444 59.53 -2 6.52 -5 0
10/30/2020 11:45:00 PM 15.30556 59.55 -2 6.57 -5 0
10/31/2020 12:00:00 AM 15.3 59.54 -2 6.52 -5 0
10/31/2020 12:15:00 AM 15.30556 59.55 -2 6.56 -5 0
10/31/2020 12:30:00 AM 14.28333 57.71 -2 6.51 -5 0
10/31/2020 12:45:00 AM 15.29444 59.53 -2 6.5 -5 0
10/31/2020 1:00:00 AM 15.36667 59.66 -2 6.58 -5.1 0
10/31/2020 1:15:00 AM 15.26111 59.47 -2 6.46 -5 0
10/31/2020 1:30:00 AM 15.3 59.54 -2 6.48 -5 0
10/31/2020 1:45:00 AM 15.28889 59.52 -2 6.49 -5 0
10/31/2020 2:00:00 AM 15.3 59.54 -2 6.47 -5 0
10/31/2020 2:15:00 AM 15.28333 59.51 -2 6.46 -5 0
10/31/2020 2:30:00 AM 15.3 59.54 -2 6.55 -5 0
10/31/2020 2:45:00 AM 15.3 59.54 -2 6.5 -5 0
10/31/2020 3:00:00 AM 15.29444 59.53 -2 6.41 -5 0
10/31/2020 3:15:00 AM 15.30556 59.55 -2 6.59 -5 0
10/31/2020 3:30:00 AM 15.17778 59.32 -2 6.47 -5 0
10/31/2020 3:45:00 AM 14 57.2 -2 6.37 -4.9 0
10/31/2020 4:00:00 AM 13.94444 57.1 -2 6.39 -5.1 0
10/31/2020 4:15:00 AM 14.40555 57.93 -2 6.46 -5 0
10/31/2020 4:30:00 AM 14.74445 58.54 -2 6.55 -5 0
10/31/2020 4:45:00 AM 15.07222 59.13 -2 6.6 -5 0
10/31/2020 5:00:00 AM 14.93889 58.89 -2 6.63 -5 0
10/31/2020 5:15:00 AM 14.93889 58.89 -2 6.62 -5 0
10/31/2020 5:30:00 AM 15.2 59.36 -2 6.62 -4.9 0
10/31/2020 5:45:00 AM 15.92778 60.67 -2 6.66 -5 0
10/31/2020 6:00:00 AM 16.01667 60.83 -2 6.66 -5 0
10/31/2020 6:15:00 AM 16.08333 60.95 -2 6.66 -5 0
10/31/2020 6:30:00 AM 15.23333 59.42 -2 6.66 -5 0
10/31/2020 6:45:00 AM 16.87222 62.37 -2 6.66 -5 0
10/31/2020 7:00:00 AM 16.06667 60.92 -2 6.66 -5 0
10/31/2020 7:15:00 AM 16.22778 61.21 -2 6.66 -5.1 0
10/31/2020 7:30:00 AM 16.59444 61.87 -2 6.66 -5 0
10/31/2020 7:45:00 AM 16.06111 60.91 -2 6.66 -5 0
10/31/2020 8:00:00 AM 16.03889 60.87 -2 6.66 -4.9 0
10/31/2020 8:15:00 AM 16.61667 61.91 -2 6.66 -5 0
10/31/2020 8:30:00 AM 16.55 61.79 -2 6.66 -5 0
10/31/2020 8:45:00 AM 16.5 61.7 -2 6.67 -5.1 0
10/31/2020 9:00:00 AM 16.16667 61.1 -2 6.66 -5 0
10/31/2020 9:15:00 AM 17.27222 63.09 -2 6.67 -5.1 0
10/31/2020 9:30:00 AM 17.56111 63.61 -2 6.66 -5 0
10/31/2020 9:45:00 AM 17.57222 63.63 -2 6.67 -5.1 0
10/31/2020 10:00:00 AM 17.51111 63.52 -2 6.67 -5.1 0
10/31/2020 10:15:00 AM 17.38889 63.3 -2 6.67 -5 0
10/31/2020 10:30:00 AM 17.36666 63.26 -2 6.66 -5 0
10/31/2020 10:45:00 AM 16.40556 61.53 -2 6.66 -5.1 0
10/31/2020 11:00:00 AM 17.22778 63.01 -2 6.67 -5.1 0
10/31/2020 11:15:00 AM 17.23333 63.02 -2 6.66 -5.1 0
10/31/2020 11:30:00 AM 17.02778 62.65 -2 6.66 -5 0
10/31/2020 11:45:00 AM 17.35 63.23 -2 6.66 -5.1 0
10/31/2020 12:00:00 PM 16.49444 61.69 -2 6.66 -5 0
10/31/2020 12:15:00 PM 17.21111 62.98 -2 6.66 -5.1 0
10/31/2020 12:30:00 PM 17.36666 63.26 -2 6.66 -5 0
10/31/2020 12:45:00 PM 16.41111 61.54 -2 6.66 -5.1 0
10/31/2020 1:00:00 PM 17.36666 63.26 -2 6.67 -5 0
10/31/2020 1:15:00 PM 16.11111 61 -2 6.66 -5 0
10/31/2020 1:30:00 PM 16.17778 61.12 -2 6.66 -5 0
10/31/2020 1:45:00 PM 16.06667 60.92 -2 6.65 -5 0
10/31/2020 2:00:00 PM 16.06111 60.91 -2 6.66 -5.1 0
10/31/2020 2:15:00 PM 16.41667 61.55 -2 6.65 -5 0
10/31/2020 2:30:00 PM 17.55556 63.6 -2 6.67 -5.1 0
10/31/2020 2:45:00 PM 15.23333 59.42 -2 6.67 -5 0
10/31/2020 3:00:00 PM 14.99445 58.99 -2 6.68 -5 0
10/31/2020 3:15:00 PM 15.18333 59.33 -2 6.64 -5 0
10/31/2020 3:30:00 PM 16.47778 61.66 -2 6.65 -5 0
10/31/2020 3:45:00 PM 15.83889 60.51 -2 6.68 -5 0
10/31/2020 4:00:00 PM 15.15555 59.28 -2 6.69 -5 0
10/31/2020 4:15:00 PM 15.55556 60 -2 6.69 -5 0
10/31/2020 4:30:00 PM 14.45556 58.02 -2 6.7 -4.9 0
10/31/2020 4:45:00 PM 15.30556 59.55 -2 6.66 -5 0
10/31/2020 5:00:00 PM 15.31111 59.56 -2 6.66 -5 0
10/31/2020 5:15:00 PM 15.58333 60.05 -2 6.7 -5 0
10/31/2020 5:30:00 PM 14.44444 58 -2 6.71 -4.9 0
10/31/2020 5:45:00 PM 15.91667 60.65 -2 6.65 -5 0
10/31/2020 6:00:00 PM 16.66111 61.99 -2 6.66 -5 0
10/31/2020 6:15:00 PM 16.25555 61.26 -2 6.66 -5.1 0
10/31/2020 6:30:00 PM 16.07778 60.94 -2 6.66 -5 0
10/31/2020 6:45:00 PM 15.36667 59.66 -2 6.73 -5 0
10/31/2020 7:00:00 PM 15.78333 60.41 -2 6.69 -5 0
10/31/2020 7:15:00 PM 15.97778 60.76 -2 6.66 -5 0
10/31/2020 7:30:00 PM 16.02222 60.84 -2 6.67 -5 0
10/31/2020 7:45:00 PM 16.47222 61.65 -2 6.66 -5.1 0
10/31/2020 8:00:00 PM 15.56667 60.02 -2 6.7 -5 0
10/31/2020 8:15:00 PM 16.40556 61.53 -2 6.66 -5 0
10/31/2020 8:30:00 PM 16.13334 61.04 -2 6.66 -5 0
10/31/2020 8:45:00 PM 16.48889 61.68 -2 6.66 -5 0
10/31/2020 9:00:00 PM 16.25555 61.26 -2 6.66 -5 0
10/31/2020 9:15:00 PM 15.76667 60.38 -2 6.66 -5 0
10/31/2020 9:30:00 PM 15.76111 60.37 -2 6.66 -5 0
10/31/2020 9:45:00 PM 15.98889 60.78 -2 6.66 -5.1 0
10/31/2020 10:00:00 PM 15.56111 60.01 -2 6.66 -5 0
10/31/2020 10:15:00 PM 16.16667 61.1 -2 6.66 -5 0
10/31/2020 10:30:00 PM 15.31667 59.57 -2 6.69 -5 0
10/31/2020 10:45:00 PM 16.21667 61.19 -2 6.66 -5.1 0
10/31/2020 11:00:00 PM 15.90556 60.63 -2 6.68 -5.1 0
10/31/2020 11:15:00 PM 15.62222 60.12 -2 6.66 -4.9 0
10/31/2020 11:30:00 PM 16.56667 61.82 -2 6.67 -5 0
10/31/2020 11:45:00 PM 16.65556 61.98 -2 6.68 -5.1 0
11/1/2020 12:00:00 AM 15.73333 60.32 -2 6.66 -5 0
11/1/2020 12:15:00 AM 15.57222 60.03 -2 6.66 -5 0
11/1/2020 12:30:00 AM 15.99445 60.79 -2 6.66 -5 0
11/1/2020 12:45:00 AM 15.91667 60.65 -2 6.66 -5 0
11/1/2020 1:00:00 AM 15.77222 60.39 -2 6.66 -5 0
11/1/2020 1:15:00 AM 15.67222 60.21 -2 6.66 -5 0
11/1/2020 1:30:00 AM 15.39444 59.71 -2 6.67 -5 0
11/1/2020 1:45:00 AM 15.38889 59.7 -2 6.66 -5 0
11/1/2020 2:00:00 AM 15.36111 59.65 -2 6.66 -5 0
11/1/2020 2:15:00 AM 16.11111 61 -2 6.66 -5 0
11/1/2020 2:30:00 AM 15.28333 59.51 -2 6.71 -5 0
11/1/2020 2:45:00 AM 15.48889 59.88 -2 6.73 -5 0
11/1/2020 3:00:00 AM 15.25555 59.46 -2 6.63 -5 0
11/1/2020 3:15:00 AM 15.32778 59.59 -2 6.67 -5 0
11/1/2020 3:30:00 AM 15.32222 59.58 -2 6.7 -5 0
11/1/2020 3:45:00 AM 15.3 59.54 -2 6.67 -5 0
11/1/2020 4:00:00 AM 15.29444 59.53 -2 6.67 -5 0
11/1/2020 4:15:00 AM 15.32222 59.58 -2 6.68 -5.1 0
11/1/2020 4:30:00 AM 15.27778 59.5 -2 6.69 -5 0
11/1/2020 4:45:00 AM 15.70556 60.27 -2 6.74 -5 0
11/1/2020 5:00:00 AM 15.51667 59.93 -2 6.8 -5 0
11/1/2020 5:15:00 AM 15.26111 59.47 -2 6.71 -5 0
11/1/2020 5:30:00 AM 15.97778 60.76 -2 6.68 -5 0
11/1/2020 5:45:00 AM 15.98889 60.78 -2 6.67 -5 0
11/1/2020 6:00:00 AM 15.83333 60.5 -2 6.74 -5 0
11/1/2020 6:15:00 AM 15.88889 60.6 -2 6.74 -5 0
11/1/2020 6:30:00 AM 16.62778 61.93 -2 6.68 -5.1 0
11/1/2020 6:45:00 AM 16.64444 61.96 -2 6.66 -5 0
11/1/2020 7:00:00 AM 16.65 61.97 -2 6.68 -5 0
11/1/2020 7:15:00 AM 16.6 61.88 -2 6.68 -5 0
11/1/2020 7:30:00 AM 16.57222 61.83 -2 6.67 -5 0
11/1/2020 7:45:00 AM 15.85556 60.54 -2 6.66 -5 0
11/1/2020 8:00:00 AM 15.77778 60.4 -2 6.67 -5 0
11/1/2020 8:15:00 AM 16.57222 61.83 -2 6.67 -5 0
11/1/2020 8:30:00 AM 15.73333 60.32 -2 6.66 -5 0
11/1/2020 8:45:00 AM 15.86667 60.56 -2 6.67 -5 0
11/1/2020 9:00:00 AM 16.60555 61.89 -2 6.68 -5 0
11/1/2020 9:15:00 AM 16.59444 61.87 -2 6.68 -5.1 0
11/1/2020 9:30:00 AM 16.68889 62.04 -2 6.68 -5 0
11/1/2020 9:45:00 AM 15.55 59.99 -2 6.66 -4.9 0
11/1/2020 10:00:00 AM 16.60555 61.89 -2 6.68 -5 0
11/1/2020 10:15:00 AM 15.53333 59.96 -2 6.67 -5 0
11/1/2020 10:30:00 AM 15.85556 60.54 -2 6.67 -5 0
11/1/2020 10:45:00 AM 16.65556 61.98 -2 6.68 -5.1 0
11/1/2020 11:00:00 AM 16.66667 62 -2 6.68 -5 0
11/1/2020 11:15:00 AM 15.83333 60.5 -2 6.67 -5 0
11/1/2020 11:30:00 AM 15.91111 60.64 -2 6.66 -5 0
11/1/2020 11:45:00 AM 16.63333 61.94 -2 6.67 -5 0
11/1/2020 12:00:00 PM 15.97222 60.75 -2 6.66 -5 0
11/1/2020 12:15:00 PM 15.56667 60.02 -2 6.66 -5 0
11/1/2020 12:30:00 PM 15.66667 60.2 -2 6.66 -5 0
11/1/2020 12:45:00 PM 16.08333 60.95 -2 6.66 -5 0
11/1/2020 1:00:00 PM 15.38889 59.7 -2 6.66 -5 0
11/1/2020 1:15:00 PM 15.51667 59.93 -2 6.66 -5 0
11/1/2020 1:30:00 PM 15.75 60.35 -2 6.69 -5 0
11/1/2020 1:45:00 PM 16.20555 61.17 -2 6.66 -5 0
11/1/2020 2:00:00 PM 16.2 61.16 -2 6.66 -5 0
11/1/2020 2:15:00 PM 16.15 61.07 -2 6.66 -5.1 0
11/1/2020 2:30:00 PM 15.3 59.54 -2 6.7 -5 0
11/1/2020 2:45:00 PM 15.15555 59.28 -2 6.73 -5 0
11/1/2020 3:00:00 PM 15.16111 59.29 -2 6.73 -5 0
11/1/2020 3:15:00 PM 15.21111 59.38 -2 6.74 -5 0
11/1/2020 3:30:00 PM 15.16111 59.29 -2 6.73 -5 0
11/1/2020 3:45:00 PM 15.17778 59.32 -2 6.72 -4.9 0
11/1/2020 4:00:00 PM 15.15555 59.28 -2 6.75 -5 0
11/1/2020 4:15:00 PM 15.03889 59.07 -2 6.75 -4.9 0
11/1/2020 4:30:00 PM 15.72222 60.3 -2 6.72 -5 0
11/1/2020 4:45:00 PM 15.16111 59.29 -2 6.74 -5 0
11/1/2020 5:00:00 PM 15.93889 60.69 -2 6.67 -5 0
11/1/2020 5:15:00 PM 15.19444 59.35 -2 6.7 -5 0
11/1/2020 5:30:00 PM 15.22778 59.41 -2 6.69 -5 0
11/1/2020 5:45:00 PM 16.26111 61.27 -2 6.66 -5 0
11/1/2020 6:00:00 PM 16.07222 60.93 -2 6.66 -5 0
11/1/2020 6:15:00 PM 15.84445 60.52 -2 6.69 -5.1 0
11/1/2020 6:30:00 PM 15.48333 59.87 -2 6.65 -5 0
11/1/2020 6:45:00 PM 14.95 58.91 -2 6.68 -5 0
11/1/2020 7:00:00 PM 15.21667 59.39 -2 6.7 -5 0
11/1/2020 7:15:00 PM 15.11666 59.21 -2 6.67 -5 0
11/1/2020 7:30:00 PM 15.18333 59.33 -2 6.66 -5 0
11/1/2020 7:45:00 PM 15.58889 60.06 -2 6.65 -5 0
11/1/2020 8:00:00 PM 15.12778 59.23 -2 6.66 -5 0
11/1/2020 8:15:00 PM 15.75 60.35 -2 6.66 -5 0
11/1/2020 8:30:00 PM 15.25555 59.46 -2 6.65 -5 0
11/1/2020 8:45:00 PM 15.36667 59.66 -2 6.65 -5 0
11/1/2020 9:00:00 PM 15.19444 59.35 -2 6.65 -5 0
11/1/2020 9:15:00 PM 15.15555 59.28 -2 6.65 -5 0
11/1/2020 9:30:00 PM 15.31667 59.57 -2 6.65 -5 0
11/1/2020 9:45:00 PM 15.13889 59.25 -2 6.68 -5 0
11/1/2020 10:00:00 PM 15.17222 59.31 -2 6.65 -5 0
11/1/2020 10:15:00 PM 15.19444 59.35 -2 6.65 -4.9 0
11/1/2020 10:30:00 PM 15.25555 59.46 -2 6.65 -5 0
11/1/2020 10:45:00 PM 15.11111 59.2 -2 6.64 -5 0
11/1/2020 11:00:00 PM 15.12778 59.23 -2 6.64 -5 0
11/1/2020 11:15:00 PM 13.77222 56.79 -2 6.62 -5 0
11/1/2020 11:30:00 PM 15.04445 59.08 -2 6.61 -5.1 0
11/1/2020 11:45:00 PM 15.05 59.09 -2 6.65 -5 0
11/2/2020 12:00:00 AM 15.31667 59.57 -2 6.65 -5 0
11/2/2020 12:15:00 AM 15.22222 59.4 -2 6.65 -5 0
11/2/2020 12:30:00 AM 15.02778 59.05 -2 6.62 -4.9 0
11/2/2020 12:45:00 AM 14.52778 58.15 -2 6.6 -4.9 0
11/2/2020 1:00:00 AM 14.86666 58.76 -2 6.6 -5 0
11/2/2020 1:15:00 AM 15.39444 59.71 -2 6.65 -5 0
11/2/2020 1:30:00 AM 16.41111 61.54 -2 6.65 -5 0
11/2/2020 1:45:00 AM 15.45 59.81 -2 6.65 -5 0
11/2/2020 2:00:00 AM 15.18333 59.33 -2 6.65 -4.9 0
11/2/2020 2:15:00 AM 15.07222 59.13 -2 6.62 -4.9 0
11/2/2020 2:30:00 AM 15.5 59.9 -2 6.61 -5 0
11/2/2020 2:45:00 AM 15.17778 59.32 -2 6.64 -5 0
11/2/2020 3:00:00 AM 15.20555 59.37 -2 6.65 -5 0
11/2/2020 3:15:00 AM 15.19444 59.35 -2 6.65 -5 0
11/2/2020 3:30:00 AM 15.2 59.36 -2 6.65 -5 0
11/2/2020 3:45:00 AM 14.82222 58.68 -2 6.62 -4.9 0
11/2/2020 4:00:00 AM 15.15555 59.28 -2 6.63 -5 0
11/2/2020 4:15:00 AM 15.12778 59.23 -2 6.65 -5 0
11/2/2020 4:30:00 AM 15.43333 59.78 -2 6.6 -5.1 0
11/2/2020 4:45:00 AM 15.24444 59.44 -2 6.65 -4.9 0
11/2/2020 5:00:00 AM 15.42222 59.76 -2 6.6 -5 0
11/2/2020 5:15:00 AM 15.5 59.9 -2 6.6 -4.9 0
11/2/2020 5:30:00 AM 15.36667 59.66 -2 6.57 -5 0
11/2/2020 5:45:00 AM 14.48333 58.07 -2 6.58 -5 0
11/2/2020 6:00:00 AM 15.25 59.45 -2 6.65 -5 0
11/2/2020 6:15:00 AM 15.58889 60.06 -2 6.6 -5 0
11/2/2020 6:30:00 AM 15.06667 59.12 -2 6.6 -5 0
11/2/2020 6:45:00 AM 14.4 57.92 -2 6.59 -4.9 0
11/2/2020 7:00:00 AM 15.25 59.45 -2 6.57 -5 0
11/2/2020 7:15:00 AM 15.07778 59.14 -2 6.6 -5 0
11/2/2020 7:30:00 AM 15.51111 59.92 -2 6.6 -5 0
11/2/2020 7:45:00 AM 14.74445 58.54 -2 6.58 -4.9 0
11/2/2020 8:00:00 AM 14.48889 58.08 -2 6.59 -5 0
11/2/2020 8:15:00 AM 15.3 59.54 -2 6.58 -5 0
11/2/2020 8:30:00 AM 14.54444 58.18 -2 6.6 -5 0
11/2/2020 8:45:00 AM 15.12222 59.22 -2 6.62 -5 0
11/2/2020 9:00:00 AM 14.64444 58.36 -2 6.59 -5 0
11/2/2020 9:15:00 AM 15.47778 59.86 -2 6.59 -5 0
11/2/2020 10:00:00 AM 15.02222 59.04 -2 6.6 -5 0
11/2/2020 10:15:00 AM 14.86111 58.75 -2 6.61 -4.9 0
11/2/2020 10:30:00 AM 15.81667 60.47 -2 6.63 -5.1 0
11/2/2020 10:45:00 AM 15.05 59.09 -2 6.62 -5 0
11/2/2020 11:00:00 AM 14.77778 58.6 -2 6.58 -5 0
11/2/2020 11:15:00 AM 15.62222 60.12 -2 6.6 -5 0
11/2/2020 11:30:00 AM 15.09444 59.17 -2 6.62 -4.9 0
11/2/2020 11:45:00 AM 15.7 60.26 -2 6.62 -5.1 0
11/2/2020 12:00:00 PM 14.46667 58.04 -2 6.63 -5 0
11/2/2020 12:15:00 PM 15.47778 59.86 -2 6.66 -5 0
11/2/2020 12:30:00 PM 16.08889 60.96 -2 6.68 -5 0
11/2/2020 12:45:00 PM 15.84445 60.52 -2 6.75 -5 0
11/2/2020 1:00:00 PM 15.7 60.26 -2 6.76 -5 0
11/2/2020 1:15:00 PM 15.67778 60.22 -2 6.86 -5 0
11/2/2020 1:30:00 PM 16.07778 60.94 -2 6.88 -5 0
11/2/2020 1:45:00 PM 15.73333 60.32 -2 6.83 -5 0
11/2/2020 2:00:00 PM 15.52778 59.95 -2 6.9 -5 0
11/2/2020 2:15:00 PM 15.54444 59.98 -2 6.91 -4.9 0
11/2/2020 2:30:00 PM 16.21667 61.19 -2 6.86 -5 0
11/2/2020 2:45:00 PM 15.55 59.99 -2 6.9 -4.9 0
11/2/2020 3:00:00 PM 15.71111 60.28 -2 6.88 -5 0
11/2/2020 3:15:00 PM 15.97778 60.76 -2 6.88 -5 0
11/2/2020 3:30:00 PM 15.32778 59.59 -2 6.9 -5 0
11/2/2020 3:45:00 PM 15.21111 59.38 -2 6.95 -5 0
11/2/2020 4:00:00 PM 15.20555 59.37 -2 6.92 -5 0
11/2/2020 4:15:00 PM 15.65 60.17 -2 6.95 -4.9 0
11/2/2020 4:30:00 PM 15.50556 59.91 -2 6.96 -5 0
11/2/2020 4:45:00 PM 15.08333 59.15 -2 6.91 -5 0
11/2/2020 5:00:00 PM 15.29444 59.53 -2 6.95 -4.9 0
11/2/2020 5:15:00 PM 15.67778 60.22 -2 6.96 -4.9 0
11/2/2020 5:30:00 PM 15.98889 60.78 -2 7 -5 0
11/2/2020 5:45:00 PM 15.16111 59.29 -2 6.94 -5 0
11/2/2020 6:00:00 PM 15.93889 60.69 -2 6.99 -5 0
11/2/2020 6:15:00 PM 15.07222 59.13 -2 6.93 -4.9 0
11/2/2020 6:30:00 PM 15.71667 60.29 -2 6.9 -5.1 0
11/2/2020 6:45:00 PM 15.06111 59.11 -2 6.92 -4.9 0
11/2/2020 7:00:00 PM 15.75 60.35 -2 6.96 -5 0
11/2/2020 7:15:00 PM 15.75 60.35 -2 6.98 -5 0
11/2/2020 7:30:00 PM 15.05556 59.1 -2 6.92 -5 0
11/2/2020 7:45:00 PM 15.03889 59.07 -2 6.91 -4.9 0
11/2/2020 8:00:00 PM 16.45 61.61 -1 7 -5 0
11/2/2020 8:15:00 PM 15.65555 60.18 -2 6.96 -4.9 0
11/2/2020 8:30:00 PM 15.57778 60.04 -2 6.99 -5 0
11/2/2020 8:45:00 PM 15.11111 59.2 -2 6.92 -4.9 0
11/2/2020 9:00:00 PM 15.46667 59.84 -2 6.95 -5 0
11/2/2020 9:15:00 PM 15.10556 59.19 -2 6.93 -5 0
11/2/2020 9:30:00 PM 15.09444 59.17 -2 6.94 -5 0
11/2/2020 9:45:00 PM 15.07778 59.14 -2 6.92 -4.9 0
11/2/2020 10:00:00 PM 15.11111 59.2 -2 6.99 -5 0
11/2/2020 10:15:00 PM 15.94444 60.7 -2 6.99 -5 0
11/2/2020 10:30:00 PM 15.66667 60.2 -2 6.96 -5 0
11/2/2020 10:45:00 PM 15.43889 59.79 -2 6.95 -5 0
11/2/2020 11:00:00 PM 15.37222 59.67 -2 6.96 -5 0
11/2/2020 11:15:00 PM 15.11111 59.2 -2 6.92 -5 0
11/2/2020 11:30:00 PM 15.11666 59.21 -2 6.93 -5 0
11/2/2020 11:45:00 PM 15.09444 59.17 -2 6.92 -4.9 0
11/3/2020 12:00:00 AM 15.15 59.27 -2 7 -4.9 0
11/3/2020 12:15:00 AM 15.30556 59.55 -2 6.95 -5 0
11/3/2020 12:30:00 AM 15.41667 59.75 -2 6.96 -5 0
11/3/2020 12:45:00 AM 15.88333 60.59 -2 6.98 -5 0
11/3/2020 1:00:00 AM 15.62222 60.12 -2 6.96 -5 0
11/3/2020 1:15:00 AM 15.20555 59.37 -2 6.93 -5 0
11/3/2020 1:30:00 AM 15.1 59.18 -2 6.93 -4.9 0
11/3/2020 1:45:00 AM 15.09444 59.17 -2 6.91 -5 0
11/3/2020 2:00:00 AM 15.35 59.63 -2 6.88 -5 0
11/3/2020 2:15:00 AM 15.58889 60.06 -2 6.88 -5 0
11/3/2020 2:30:00 AM 15.59445 60.07 -2 6.9 -5 0
11/3/2020 2:45:00 AM 15.26667 59.48 -2 6.94 -5 0
11/3/2020 3:00:00 AM 15.07222 59.13 -2 6.92 -5 0
11/3/2020 3:15:00 AM 15.10556 59.19 -2 6.88 -5 0
11/3/2020 3:30:00 AM 15.08333 59.15 -2 6.93 -5 0
11/3/2020 3:45:00 AM 15.5 59.9 -2 6.95 -5 0
11/3/2020 4:00:00 AM 15.07222 59.13 -2 6.89 -4.9 0
11/3/2020 4:15:00 AM 15.07222 59.13 -2 6.89 -5 0
11/3/2020 4:30:00 AM 15.55556 60 -2 6.87 -5 0
11/3/2020 4:45:00 AM 15.58889 60.06 -2 6.87 -4.9 0
11/3/2020 5:00:00 AM 15.63889 60.15 -2 6.88 -5 0
11/3/2020 5:15:00 AM 15.68889 60.24 -2 6.88 -5 0
11/3/2020 5:30:00 AM 15.92222 60.66 -2 6.89 -5 0
11/3/2020 5:45:00 AM 15.49444 59.89 -2 6.87 -5 0
11/3/2020 6:00:00 AM 15.20555 59.37 -2 6.86 -5 0
11/3/2020 6:15:00 AM 15.26111 59.47 -2 6.85 -5 0
11/3/2020 6:30:00 AM 15.3 59.54 -2 6.87 -5 0
11/3/2020 6:45:00 AM 15.6 60.08 -2 6.88 -4.9 0
11/3/2020 7:00:00 AM 15.64444 60.16 -2 6.88 -5 0
11/3/2020 7:15:00 AM 15.33889 59.61 -2 6.81 -5 0
11/3/2020 7:30:00 AM 15.10556 59.19 -2 6.93 -5 0
11/3/2020 7:45:00 AM 15.88889 60.6 -1 7.01 -5 0
11/3/2020 8:00:00 AM 16.43889 61.59 -1 7.01 -5 0
11/3/2020 8:15:00 AM 16.5 61.7 -1 7.01 -5 0
11/3/2020 8:30:00 AM 17.38334 63.29 -1 7.02 -5.1 0
11/3/2020 8:45:00 AM 18.06666 64.52 -1 7.02 -5.1 0
11/3/2020 9:00:00 AM 17.3 63.14 -1 7.02 -5 0
11/3/2020 9:15:00 AM 17.29445 63.13 -1 7.02 -5.1 0
11/3/2020 9:30:00 AM 17.26667 63.08 -1 7.02 -5 0
11/3/2020 9:45:00 AM 17.38334 63.29 -1 7.01 -5 0
11/3/2020 10:00:00 AM 17.37222 63.27 -1 7.02 -5 0
11/3/2020 10:15:00 AM 17.05556 62.7 -1 7.01 -5 0
11/3/2020 10:30:00 AM 17.78333 64.01 -1 7.01 -5.1 0
11/3/2020 10:45:00 AM 16.85555 62.34 -1 7.01 -5 0
11/3/2020 11:00:00 AM 17.36111 63.25 -1 7.01 -5.1 0
11/3/2020 11:15:00 AM 17.25 63.05 -1 7.01 -5 0
11/3/2020 11:30:00 AM 17.53333 63.56 -1 7.01 -5 0
11/3/2020 11:45:00 AM 16.93889 62.49 -1 7.01 -5 0
11/3/2020 12:00:00 PM 17.02778 62.65 -1 7.01 -5 0
11/3/2020 12:15:00 PM 17.84444 64.12 -1 7.01 -5 0
11/3/2020 12:30:00 PM 17.5 63.5 -1 7.01 -5.1 0
11/3/2020 12:45:00 PM 17.45555 63.42 -1 7.01 -5.1 0
11/3/2020 1:00:00 PM 18.35556 65.04 -1 7.01 -5.1 0
11/3/2020 1:15:00 PM 17.59444 63.67 -1 7.02 -5 0
11/3/2020 1:30:00 PM 16.71111 62.08 -1 7.01 -5 0
11/3/2020 1:45:00 PM 16.46111 61.63 -1 7.04 -5 0
11/3/2020 2:00:00 PM 17.46111 63.43 -1 7.01 -5 0
11/3/2020 2:15:00 PM 15.7 60.26 -2 7.05 -5 0
11/3/2020 2:30:00 PM 15.85 60.53 -2 7.06 -5 0
11/3/2020 2:45:00 PM 16.16667 61.1 -1 7.06 -5 0
11/3/2020 3:00:00 PM 15.43889 59.79 -2 7.05 -5 0
11/3/2020 3:15:00 PM 15.81111 60.46 -2 7.06 -5 0
11/3/2020 3:30:00 PM 15.73889 60.33 -2 7.07 -5 0
11/3/2020 3:45:00 PM 15.47778 59.86 -2 7.05 -5 0
11/3/2020 4:00:00 PM 15.06111 59.11 -2 7.07 -5 0
11/3/2020 4:15:00 PM 15.65555 60.18 -2 7.07 -5 0
11/3/2020 4:30:00 PM 15.83889 60.51 -2 7.09 -5 0
11/3/2020 4:45:00 PM 15.37778 59.68 -2 7.05 -4.9 0
11/3/2020 5:00:00 PM 16.12778 61.03 -2 7.01 -5 0
11/3/2020 5:15:00 PM 15.09444 59.17 -2 7.06 -4.9 0
11/3/2020 5:30:00 PM 15.26111 59.47 -2 7.06 -5 0
11/3/2020 5:45:00 PM 15.28333 59.51 -2 7.02 -4.9 0
11/3/2020 6:00:00 PM 15.13334 59.24 -2 7.02 -4.9 0
11/3/2020 6:15:00 PM 15.74444 60.34 -2 7 -5 0
11/3/2020 6:30:00 PM 15.93333 60.68 -2 6.97 -5 0
11/3/2020 6:45:00 PM 15.28333 59.51 -2 6.98 -4.9 0
11/3/2020 7:00:00 PM 15.4 59.72 -2 6.96 -5 0
11/3/2020 7:15:00 PM 15.45556 59.82 -2 6.97 -4.9 0
11/3/2020 7:30:00 PM 15.32778 59.59 -2 6.97 -4.9 0
11/3/2020 7:45:00 PM 15.10556 59.19 -2 6.97 -4.9 0
11/3/2020 8:00:00 PM 15.50556 59.91 -2 6.98 -5 0
11/3/2020 8:15:00 PM 15.51667 59.93 -2 6.96 -5 0
11/3/2020 8:30:00 PM 15.22778 59.41 -2 6.96 -5 0
11/3/2020 8:45:00 PM 15.27222 59.49 -2 6.96 -4.9 0
11/3/2020 9:00:00 PM 15.26667 59.48 -2 6.96 -4.9 0
11/3/2020 9:15:00 PM 15.07222 59.13 -2 6.93 -5 0
11/3/2020 9:30:00 PM 15.10556 59.19 -2 6.92 -4.9 0
11/3/2020 9:45:00 PM 15.11666 59.21 -2 6.92 -4.9 0
11/3/2020 10:00:00 PM 15.11111 59.2 -2 6.92 -4.9 0
11/3/2020 10:15:00 PM 15.13889 59.25 -2 6.94 -5 0
11/3/2020 10:30:00 PM 15.08333 59.15 -2 6.91 -4.9 0
11/3/2020 10:45:00 PM 15.09444 59.17 -2 6.92 -4.9 0
11/3/2020 11:00:00 PM 15.11111 59.2 -2 6.92 -4.9 0
11/3/2020 11:15:00 PM 15.07222 59.13 -2 6.91 -4.9 0
11/3/2020 11:30:00 PM 15.08889 59.16 -2 6.9 -4.9 0
11/3/2020 11:45:00 PM 15.1 59.18 -2 6.9 -5 0
11/4/2020 12:00:00 AM 15.1 59.18 -2 6.91 -5 0
11/4/2020 12:15:00 AM 15.42222 59.76 -2 6.89 -5 0
11/4/2020 12:30:00 AM 15.1 59.18 -2 6.91 -4.9 0
11/4/2020 12:45:00 AM 15.65 60.17 -2 6.89 -5 0
11/4/2020 1:00:00 AM 15.07778 59.14 -2 6.91 -5 0
11/4/2020 1:15:00 AM 15.66111 60.19 -2 6.89 -4.9 0
11/4/2020 1:30:00 AM 15.09444 59.17 -2 6.92 -5 0
11/4/2020 1:45:00 AM 15.67778 60.22 -2 6.88 -5.1 0
11/4/2020 2:00:00 AM 15.12778 59.23 -2 6.93 -5 0
11/4/2020 2:15:00 AM 15.66667 60.2 -2 6.88 -5 0
11/4/2020 2:30:00 AM 15.09444 59.17 -2 6.9 -4.9 0
11/4/2020 2:45:00 AM 15.05556 59.1 -2 6.9 -4.9 0
11/4/2020 3:00:00 AM 15.86111 60.55 -2 6.9 -5 0
11/4/2020 3:15:00 AM 15.49444 59.89 -2 6.87 -5 0
11/4/2020 3:30:00 AM 15.07778 59.14 -2 6.9 -4.9 0
11/4/2020 3:45:00 AM 15.03333 59.06 -2 6.89 -5 0
11/4/2020 4:00:00 AM 15.07222 59.13 -2 6.9 -4.9 0
11/4/2020 4:15:00 AM 15.63889 60.15 -2 6.88 -5 0
11/4/2020 4:30:00 AM 15.18333 59.33 -2 6.86 -5 0
11/4/2020 4:45:00 AM 15.2 59.36 -2 6.85 -5 0
11/4/2020 5:00:00 AM 15.77778 60.4 -2 6.89 -5 0
11/4/2020 5:15:00 AM 15.23889 59.43 -2 6.86 -5 0
11/4/2020 5:30:00 AM 15.58333 60.05 -2 6.85 -4.9 0
11/4/2020 5:45:00 AM 15.28333 59.51 -2 6.84 -5 0
11/4/2020 6:00:00 AM 15.23889 59.43 -2 6.85 -4.9 0
11/4/2020 6:15:00 AM 15.37778 59.68 -2 6.81 -5 0
11/4/2020 6:30:00 AM 15.47778 59.86 -2 6.79 -5 0
11/4/2020 6:45:00 AM 15.36111 59.65 -2 6.86 -5 0
11/4/2020 7:00:00 AM 15.63333 60.14 -2 6.75 -5 0
11/4/2020 7:15:00 AM 15.71111 60.28 -2 6.82 -5 0
11/4/2020 7:30:00 AM 16.52778 61.75 -2 6.74 -5 0
11/4/2020 7:45:00 AM 15.5 59.9 -2 6.72 -4.9 0
11/4/2020 8:00:00 AM 15.55556 60 -2 6.87 -5 0
11/4/2020 8:15:00 AM 15.08889 59.16 -2 6.93 -5 0
11/4/2020 8:30:00 AM 15.88333 60.59 -2 7 -5 0
11/4/2020 8:45:00 AM 16.17222 61.11 -1 7 -5.1 0
11/4/2020 9:00:00 AM 16.09444 60.97 -1 7.04 -5 0
11/4/2020 9:15:00 AM 15.26111 59.47 -2 7.05 -5 0
11/4/2020 9:30:00 AM 15.65555 60.18 -2 7.05 -5 0
11/4/2020 9:45:00 AM 15.11666 59.21 -2 7.03 -5 0
11/4/2020 10:00:00 AM 15.72222 60.3 -2 7.07 -5 0
11/4/2020 10:15:00 AM 15.37778 59.68 -2 7.06 -5 0
11/4/2020 10:30:00 AM 15.76667 60.38 -2 7.06 -5 0
11/4/2020 10:45:00 AM 15.08889 59.16 -2 7.04 -4.9 0
11/4/2020 11:00:00 AM 15.20555 59.37 -2 7.03 -4.9 0
11/4/2020 11:15:00 AM 15.08333 59.15 -2 7.03 -4.9 0
11/4/2020 11:30:00 AM 15.09444 59.17 -2 7.03 -4.9 0
11/4/2020 11:45:00 AM 15.11111 59.2 -2 7.04 -4.9 0
11/4/2020 12:00:00 PM 15.31111 59.56 -2 7.04 -5 0
11/4/2020 12:15:00 PM 15.26667 59.48 -2 7.02 -4.9 0
11/4/2020 12:30:00 PM 15.46111 59.83 -2 7.02 -5 0
11/4/2020 12:45:00 PM 15.5 59.9 -2 7.03 -5 0
11/4/2020 1:00:00 PM 15.66111 60.19 -2 7.01 -5 0
11/4/2020 1:15:00 PM 15.88889 60.6 -2 7 -5 0
11/4/2020 1:30:00 PM 15.89444 60.61 -2 6.92 -5 0
11/4/2020 1:45:00 PM 16.02778 60.85 -2 6.88 -4.9 0
11/4/2020 2:00:00 PM 16.12222 61.02 -2 6.9 -5 0
11/4/2020 2:15:00 PM 16.14445 61.06 -2 6.95 -5 0
11/4/2020 2:30:00 PM 16.28889 61.32 -2 6.98 -5 0
11/4/2020 2:45:00 PM 16.32222 61.38 -2 6.93 -5 0
11/4/2020 3:00:00 PM 16.28889 61.32 -2 6.91 -5 0
11/4/2020 3:15:00 PM 16.35555 61.44 -2 6.91 -5 0
11/4/2020 3:30:00 PM 16.40556 61.53 -2 6.92 -5 0
11/4/2020 3:45:00 PM 16.61667 61.91 -2 7 -5 0
11/4/2020 4:00:00 PM 16.37222 61.47 -2 6.92 -5 0
11/4/2020 4:15:00 PM 16.37222 61.47 -2 6.9 -5 0
11/4/2020 4:30:00 PM 16.32778 61.39 -2 6.91 -5 0
11/4/2020 4:45:00 PM 16.15556 61.08 -2 6.93 -5 0
11/4/2020 5:00:00 PM 16.11666 61.01 -2 6.9 -5.1 0
11/4/2020 5:15:00 PM 16.07222 60.93 -2 6.91 -5 0
11/4/2020 5:30:00 PM 15.97222 60.75 -2 6.9 -5 0
11/4/2020 5:45:00 PM 15.93889 60.69 -2 6.91 -5 0
11/4/2020 6:00:00 PM 15.95556 60.72 -2 6.89 -5 0
11/4/2020 6:15:00 PM 15.72778 60.31 -2 6.93 -4.9 0
11/4/2020 6:30:00 PM 15.76111 60.37 -2 6.96 -5 0
11/4/2020 6:45:00 PM 15.69444 60.25 -2 6.95 -5 0
11/4/2020 7:00:00 PM 15.92222 60.66 -2 6.89 -5 0
11/4/2020 7:15:00 PM 15.96111 60.73 -2 6.94 -5 0
11/4/2020 7:30:00 PM 15.78889 60.42 -2 6.94 -5 0
11/4/2020 7:45:00 PM 15.81667 60.47 -2 6.94 -5 0
11/4/2020 8:00:00 PM 15.86111 60.55 -2 6.92 -5 0
11/4/2020 8:15:00 PM 15.96667 60.74 -2 6.9 -5 0
11/4/2020 8:30:00 PM 15.87222 60.57 -2 6.88 -5 0
11/4/2020 8:45:00 PM 15.97778 60.76 -2 6.89 -5 0
11/4/2020 9:00:00 PM 15.94444 60.7 -2 6.89 -5 0
11/4/2020 9:15:00 PM 15.78889 60.42 -2 6.93 -5 0
11/4/2020 9:30:00 PM 15.91667 60.65 -2 6.88 -5 0
11/4/2020 9:45:00 PM 15.96667 60.74 -2 6.91 -5 0
11/4/2020 10:00:00 PM 15.79444 60.43 -2 6.87 -5 0
11/4/2020 10:15:00 PM 15.93333 60.68 -2 6.88 -5 0
11/4/2020 10:30:00 PM 15.92222 60.66 -2 6.88 -5 0
11/4/2020 10:45:00 PM 15.95556 60.72 -2 6.88 -5 0
11/4/2020 11:00:00 PM 16.03889 60.87 -2 6.87 -5 0
11/4/2020 11:15:00 PM 15.98889 60.78 -2 6.89 -5 0
11/4/2020 11:30:00 PM 16.02222 60.84 -2 6.86 -5 0
11/4/2020 11:45:00 PM 15.96111 60.73 -2 6.86 -4.9 0
11/5/2020 12:00:00 AM 15.98889 60.78 -2 6.83 -5 0
11/5/2020 12:15:00 AM 15.87778 60.58 -2 6.82 -5 0
11/5/2020 12:30:00 AM 16.03333 60.86 -2 6.85 -5.1 0
11/5/2020 12:45:00 AM 15.84445 60.52 -2 6.86 -5 0
11/5/2020 1:00:00 AM 15.95556 60.72 -2 6.84 -5 0
11/5/2020 1:15:00 AM 16.01667 60.83 -2 6.86 -5 0
11/5/2020 1:30:00 AM 16.03333 60.86 -2 6.84 -5 0
11/5/2020 1:45:00 AM 15.79444 60.43 -2 6.84 -5 0
11/5/2020 2:00:00 AM 16.04445 60.88 -2 6.83 -5.1 0
11/5/2020 2:15:00 AM 16.06111 60.91 -2 6.8 -5 0
11/5/2020 2:30:00 AM 16.07222 60.93 -2 6.8 -5 0
11/5/2020 2:45:00 AM 16.03889 60.87 -2 6.81 -5 0
11/5/2020 3:00:00 AM 16.06111 60.91 -2 6.81 -5 0
11/5/2020 3:15:00 AM 16.10556 60.99 -2 6.76 -5 0
11/5/2020 3:30:00 AM 16.15 61.07 -2 6.78 -5 0
11/5/2020 3:45:00 AM 16.13889 61.05 -2 6.76 -5.1 0
11/5/2020 4:00:00 AM 16.11666 61.01 -2 6.77 -5 0
11/5/2020 4:15:00 AM 16.06667 60.92 -2 6.77 -5 0
11/5/2020 4:30:00 AM 16.08889 60.96 -2 6.74 -5 0
11/5/2020 4:45:00 AM 16.18889 61.14 -2 6.77 -5 0
11/5/2020 5:00:00 AM 16.16111 61.09 -2 6.77 -5.1 0
11/5/2020 5:15:00 AM 16.22222 61.2 -2 6.78 -5 0
11/5/2020 5:30:00 AM 16.26111 61.27 -2 6.79 -5 0
11/5/2020 5:45:00 AM 16.23333 61.22 -2 6.77 -5 0
11/5/2020 6:00:00 AM 16.34444 61.42 -2 6.78 -5 0
11/5/2020 6:15:00 AM 16.31111 61.36 -2 6.71 -5 0
11/5/2020 6:30:00 AM 16.3 61.34 -2 6.74 -5.1 0
11/5/2020 6:45:00 AM 16.36111 61.45 -2 6.74 -5 0
11/5/2020 7:00:00 AM 16.37778 61.48 -2 6.72 -5 0
11/5/2020 7:15:00 AM 16.51111 61.72 -2 6.69 -5 0
11/5/2020 7:30:00 AM 15.44444 59.8 -2 6.73 -5 0
11/5/2020 7:45:00 AM 15.14444 59.26 -2 6.85 -5 0
11/5/2020 8:00:00 AM 15.31111 59.56 -2 6.88 -5 0
11/5/2020 8:15:00 AM 15.03333 59.06 -2 6.91 -4.9 0
11/5/2020 8:30:00 AM 15.08333 59.15 -2 6.96 -5 0
11/5/2020 8:45:00 AM 15.45556 59.82 -2 6.96 -4.9 0
11/5/2020 9:00:00 AM 15.11111 59.2 -2 6.95 -5 0
11/5/2020 9:15:00 AM 15.28333 59.51 -2 6.97 -5 0
11/5/2020 9:30:00 AM 15.33889 59.61 -2 6.97 -5 0
11/5/2020 9:45:00 AM 15.66111 60.19 -2 6.97 -5 0
11/5/2020 10:00:00 AM 15.8 60.44 -2 6.93 -4.9 0
11/5/2020 10:15:00 AM 15.67222 60.21 -2 6.92 -5 0
11/5/2020 10:30:00 AM 15.97778 60.76 -2 6.91 -5 0
11/5/2020 10:45:00 AM 16.06111 60.91 -2 6.89 -5 0
11/5/2020 11:00:00 AM 16.15 61.07 -2 6.9 -5 0
11/5/2020 11:15:00 AM 16.32778 61.39 -2 6.88 -5 0
11/5/2020 11:30:00 AM 16.46667 61.64 -2 6.91 -5 0
11/5/2020 11:45:00 AM 16.58889 61.86 -2 6.91 -5 0
11/5/2020 12:00:00 PM 16.61111 61.9 -2 6.94 -5 0
11/5/2020 12:15:00 PM 15.53889 59.97 -2 6.96 -5 0
11/5/2020 12:30:00 PM 15.69444 60.25 -2 6.97 -5 0
11/5/2020 12:45:00 PM 15.27778 59.5 -2 6.99 -5 0
11/5/2020 1:00:00 PM 15.43333 59.78 -2 6.99 -5 0
11/5/2020 1:15:00 PM 15.13334 59.24 -2 6.98 -5 0
11/5/2020 1:30:00 PM 15.55556 60 -2 6.98 -5 0
11/5/2020 1:45:00 PM 15.63889 60.15 -2 7 -5 0
11/5/2020 2:00:00 PM 15.28889 59.52 -2 6.99 -5 0
11/5/2020 2:15:00 PM 15.07222 59.13 -2 6.97 -5 0
11/5/2020 2:30:00 PM 14.83889 58.71 -2 7 -5 0
11/5/2020 2:45:00 PM 14.61111 58.3 -2 7.01 -5 0
11/5/2020 3:00:00 PM 14.21667 57.59 -2 7.01 -5 0
11/5/2020 3:15:00 PM 14.6 58.28 -2 7 -4.9 0
11/5/2020 3:30:00 PM 15.7 60.26 -2 6.99 -5 0
11/5/2020 3:45:00 PM 14.83889 58.71 -2 7 -4.9 0
11/5/2020 4:00:00 PM 14.88889 58.8 -2 6.98 -5 0
11/5/2020 4:15:00 PM 15.24444 59.44 -2 7 -5 0
11/5/2020 4:30:00 PM 15.52778 59.95 -2 6.91 -5 0
11/5/2020 4:45:00 PM 15.28889 59.52 -2 6.94 -5 0
11/5/2020 5:00:00 PM 14.88334 58.79 -2 7 -5 0
11/5/2020 5:15:00 PM 15.5 59.9 -2 6.95 -5 0
11/5/2020 5:30:00 PM 15.18333 59.33 -2 6.98 -4.9 0
11/5/2020 5:45:00 PM 15.60556 60.09 -2 6.89 -5.1 0
11/5/2020 6:00:00 PM 15.26667 59.48 -2 6.9 -5 0
11/5/2020 6:15:00 PM 15.52778 59.95 -2 6.88 -5 0
11/5/2020 6:30:00 PM 16.08333 60.95 -2 6.89 -5 0
11/5/2020 6:45:00 PM 15.21667 59.39 -2 6.87 -5 0
11/5/2020 7:00:00 PM 15.47778 59.86 -2 6.88 -5 0
11/5/2020 7:15:00 PM 15.14444 59.26 -2 6.94 -5 0
11/5/2020 7:30:00 PM 14.77778 58.6 -2 6.92 -5 0
11/5/2020 7:45:00 PM 15.33333 59.6 -2 6.9 -5 0
11/5/2020 8:00:00 PM 15.42778 59.77 -2 6.83 -5 0
11/5/2020 8:15:00 PM 15.60556 60.09 -2 6.84 -5 0
11/5/2020 8:30:00 PM 15.47778 59.86 -2 6.84 -5 0
11/5/2020 8:45:00 PM 15.22222 59.4 -2 6.85 -5 0
11/5/2020 9:00:00 PM 15.20555 59.37 -2 6.84 -5 0
11/5/2020 9:15:00 PM 14.93889 58.89 -2 6.86 -4.9 0
11/5/2020 9:30:00 PM 15.18889 59.34 -2 6.93 -5 0
11/5/2020 9:45:00 PM 15.03333 59.06 -2 6.84 -5 0
11/5/2020 10:00:00 PM 15.82222 60.48 -2 6.85 -5 0
11/5/2020 10:15:00 PM 15.2 59.36 -2 6.85 -4.9 0
11/5/2020 10:30:00 PM 15.28889 59.52 -2 6.82 -4.9 0
11/5/2020 10:45:00 PM 15.18889 59.34 -2 6.8 -4.9 0
11/5/2020 11:00:00 PM 14.77778 58.6 -2 6.83 -4.9 0
11/5/2020 11:15:00 PM 14.71111 58.48 -2 6.83 -5 0
11/5/2020 11:30:00 PM 15.09444 59.17 -2 6.78 -5 0
11/5/2020 11:45:00 PM 15.57778 60.04 -2 6.72 -5 0
11/6/2020 12:00:00 AM 15.48889 59.88 -2 6.8 -5 0
11/6/2020 12:15:00 AM 15.62222 60.12 -2 6.67 -5 0
11/6/2020 12:30:00 AM 14.90556 58.83 -2 6.77 -5 0
11/6/2020 12:45:00 AM 15.12222 59.22 -2 6.74 -5 0
11/6/2020 1:00:00 AM 14.98889 58.98 -2 6.74 -5 0
11/6/2020 1:15:00 AM 15.19444 59.35 -2 6.7 -5 0
11/6/2020 1:30:00 AM 15.47222 59.85 -2 6.68 -5 0
11/6/2020 1:45:00 AM 14.77222 58.59 -2 6.73 -5 0
11/6/2020 2:00:00 AM 14.91111 58.84 -2 6.71 -5 0
11/6/2020 2:15:00 AM 14.90556 58.83 -2 6.7 -5 0
11/6/2020 2:30:00 AM 14.8 58.64 -2 6.69 -5 0
11/6/2020 2:45:00 AM 14.7 58.46 -2 6.67 -5 0
11/6/2020 3:00:00 AM 15.03889 59.07 -2 6.66 -5 0
11/6/2020 3:15:00 AM 14.93333 58.88 -2 6.67 -5 0
11/6/2020 3:30:00 AM 15.00555 59.01 -2 6.66 -4.9 0
11/6/2020 3:45:00 AM 14.86111 58.75 -2 6.66 -5 0
11/6/2020 4:00:00 AM 14.52778 58.15 -2 6.66 -4.9 0
11/6/2020 4:15:00 AM 14.89444 58.81 -2 6.66 -4.9 0
11/6/2020 4:30:00 AM 14.80556 58.65 -2 6.66 -4.9 0
11/6/2020 4:45:00 AM 15.49444 59.89 -2 6.66 -5 0
11/6/2020 5:00:00 AM 14.59445 58.27 -2 6.65 -4.9 0
11/6/2020 5:15:00 AM 14.57778 58.24 -2 6.65 -4.9 0
11/6/2020 5:30:00 AM 14.57222 58.23 -2 6.65 -5 0
11/6/2020 5:45:00 AM 14.57222 58.23 -2 6.65 -5 0
11/6/2020 6:00:00 AM 14.96667 58.94 -2 6.65 -5 0
11/6/2020 6:15:00 AM 14.65556 58.38 -2 6.65 -5 0
11/6/2020 6:30:00 AM 14.63889 58.35 -2 6.65 -5 0
11/6/2020 6:45:00 AM 14.73889 58.53 -2 6.65 -5 0
11/6/2020 7:00:00 AM 14.69444 58.45 -2 6.65 -4.9 0
11/6/2020 7:15:00 AM 15.57778 60.04 -2 6.66 -5 0
11/6/2020 7:30:00 AM 15.01667 59.03 -2 6.66 -5 0
11/6/2020 7:45:00 AM 15.47222 59.85 -2 6.67 -5 0
11/6/2020 8:00:00 AM 16.46111 61.63 -2 6.68 -5 0
11/6/2020 8:15:00 AM 16.43889 61.59 -2 6.68 -5 0
11/6/2020 8:30:00 AM 16.37778 61.48 -2 6.69 -5 0
11/6/2020 8:45:00 AM 16.46111 61.63 -2 6.71 -5 0
11/6/2020 9:00:00 AM 16.46667 61.64 -2 6.71 -5 0
11/6/2020 9:15:00 AM 16.55556 61.8 -2 6.74 -5 0
11/6/2020 9:30:00 AM 16.54444 61.78 -2 6.74 -5 0
11/6/2020 9:45:00 AM 16.61111 61.9 -2 6.72 -5 0
11/6/2020 10:00:00 AM 16.56667 61.82 -2 6.75 -5 0
11/6/2020 10:15:00 AM 15.75 60.35 -2 6.76 -5 0
11/6/2020 10:30:00 AM 15.61111 60.1 -2 6.77 -5 0
11/6/2020 10:45:00 AM 15.65 60.17 -2 6.76 -5 0
11/6/2020 11:00:00 AM 15.19444 59.35 -2 6.79 -5 0
11/6/2020 11:15:00 AM 15.22778 59.41 -2 6.77 -5 0
11/6/2020 11:30:00 AM 15.03333 59.06 -2 6.75 -4.9 0
11/6/2020 11:45:00 AM 15.48889 59.88 -2 6.8 -5 0
11/6/2020 12:00:00 PM 15.81667 60.47 -2 6.76 -5 0
11/6/2020 12:15:00 PM 15.82222 60.48 -2 6.81 -5 0
11/6/2020 12:30:00 PM 14.97222 58.95 -2 6.82 -5 0
11/6/2020 12:45:00 PM 15.01667 59.03 -2 6.84 -4.9 0
11/6/2020 1:00:00 PM 15.14444 59.26 -2 6.9 -4.9 0
11/6/2020 1:15:00 PM 15.75 60.35 -2 6.83 -5 0
11/6/2020 1:30:00 PM 15.24444 59.44 -2 6.86 -5 0
11/6/2020 1:45:00 PM 14.93333 58.88 -2 6.88 -4.9 0
11/6/2020 2:00:00 PM 15.51667 59.93 -2 6.91 -5 0
11/6/2020 2:15:00 PM 14.51111 58.12 -2 6.84 -5 0
11/6/2020 2:30:00 PM 14.5 58.1 -2 6.89 -5 0
11/6/2020 2:45:00 PM 14.38333 57.89 -2 6.88 -5 0
11/6/2020 3:00:00 PM 15.05556 59.1 -2 6.88 -5 0
11/6/2020 3:15:00 PM 15.62778 60.13 -2 6.83 -5 0
11/6/2020 3:30:00 PM 14.41111 57.94 -2 6.83 -5 0
11/6/2020 3:45:00 PM 14.47222 58.05 -2 6.79 -4.9 0
11/6/2020 4:00:00 PM 14.39444 57.91 -2 6.87 -5 0
11/6/2020 4:15:00 PM 14.12778 57.43 -2 6.88 -5 0
11/6/2020 4:30:00 PM 14.43333 57.98 -2 6.91 -5 0
11/6/2020 4:45:00 PM 14.41111 57.94 -2 6.87 -5 0
11/6/2020 5:00:00 PM 15.07222 59.13 -2 6.89 -5 0
11/6/2020 5:15:00 PM 14.54444 58.18 -2 6.9 -4.9 0
11/6/2020 5:30:00 PM 15.55 59.99 -2 6.84 -5 0
11/6/2020 5:45:00 PM 15.31111 59.56 -2 6.81 -5 0
11/6/2020 6:00:00 PM 15.41667 59.75 -2 6.9 -5 0
11/6/2020 6:15:00 PM 15.30556 59.55 -2 6.9 -4.9 0
11/6/2020 6:30:00 PM 14.83333 58.7 -2 6.85 -4.9 0
11/6/2020 6:45:00 PM 14.77778 58.6 -2 6.84 -5 0
11/6/2020 7:00:00 PM 15.4 59.72 -2 6.89 -5 0
11/6/2020 7:15:00 PM 14.82778 58.69 -2 6.88 -5 0
11/6/2020 7:30:00 PM 14.73889 58.53 -2 6.83 -5 0
11/6/2020 7:45:00 PM 15.44444 59.8 -2 6.84 -5 0
11/6/2020 8:00:00 PM 15.3 59.54 -2 6.8 -5 0
11/6/2020 8:15:00 PM 14.73333 58.52 -2 6.81 -4.9 0
11/6/2020 8:30:00 PM 15.21111 59.38 -2 6.81 -5 0
11/6/2020 8:45:00 PM 14.41667 57.95 -2 6.8 -5 0
11/6/2020 9:00:00 PM 15.32222 59.58 -2 6.8 -5 0
11/6/2020 9:15:00 PM 14.97778 58.96 -2 6.78 -5 0
11/6/2020 9:30:00 PM 15.48889 59.88 -2 6.77 -5 0
11/6/2020 9:45:00 PM 15.46667 59.84 -2 6.79 -5 0
11/6/2020 10:00:00 PM 15.45 59.81 -2 6.74 -5 0
11/6/2020 10:15:00 PM 15.30556 59.55 -2 6.78 -4.9 0
11/6/2020 10:30:00 PM 15.25 59.45 -2 6.76 -4.9 0
11/6/2020 10:45:00 PM 15.16111 59.29 -2 6.78 -5 0
11/6/2020 11:00:00 PM 15.26667 59.48 -2 6.79 -5 0
11/6/2020 11:15:00 PM 14.49444 58.09 -2 6.78 -4.9 0
11/6/2020 11:30:00 PM 14.79445 58.63 -2 6.78 -5 0
11/6/2020 11:45:00 PM 15.25555 59.46 -2 6.78 -5 0
11/7/2020 12:00:00 AM 15.58333 60.05 -2 6.75 -5 0
11/7/2020 12:15:00 AM 15.29444 59.53 -2 6.73 -5.1 0
11/7/2020 12:30:00 AM 15.26111 59.47 -2 6.73 -5 0
11/7/2020 12:45:00 AM 15.57222 60.03 -2 6.75 -5 0
11/7/2020 1:00:00 AM 15.26111 59.47 -2 6.71 -5 0
11/7/2020 1:15:00 AM 14.6 58.28 -2 6.71 -5 0
11/7/2020 1:30:00 AM 14.53333 58.16 -2 6.74 -4.9 0
11/7/2020 1:45:00 AM 15.3 59.54 -2 6.73 -5 0
11/7/2020 2:00:00 AM 15.16111 59.29 -2 6.65 -5 0
11/7/2020 2:15:00 AM 15.42778 59.77 -2 6.73 -5 0
11/7/2020 2:30:00 AM 14.56111 58.21 -2 6.76 -4.9 0
11/7/2020 2:45:00 AM 15.51667 59.93 -2 6.7 -5 0
11/7/2020 3:00:00 AM 15.59445 60.07 -2 6.71 -5 0
11/7/2020 3:15:00 AM 15.45556 59.82 -2 6.73 -5 0
11/7/2020 3:30:00 AM 15.60556 60.09 -2 6.78 -5 0
11/7/2020 3:45:00 AM 14.5 58.1 -2 6.75 -5 0
11/7/2020 4:00:00 AM 14.65556 58.38 -2 6.73 -4.9 0
11/7/2020 4:15:00 AM 14.71111 58.48 -2 6.7 -4.9 0
11/7/2020 4:30:00 AM 14.47778 58.06 -2 6.69 -4.9 0
11/7/2020 4:45:00 AM 14.48333 58.07 -2 6.74 -5 0
11/7/2020 5:00:00 AM 14.08333 57.35 -2 6.69 -5 0
11/7/2020 5:15:00 AM 14.47222 58.05 -2 6.71 -5 0
11/7/2020 5:30:00 AM 14.16111 57.49 -2 6.67 -4.9 0
11/7/2020 5:45:00 AM 14.47778 58.06 -2 6.66 -5 0
11/7/2020 6:00:00 AM 14.43333 57.98 -2 6.69 -5 0
11/7/2020 6:15:00 AM 14.46667 58.04 -2 6.66 -4.9 0
11/7/2020 6:30:00 AM 14.28333 57.71 -2 6.67 -4.9 0
11/7/2020 6:45:00 AM 14.5 58.1 -2 6.66 -5 0
11/7/2020 7:00:00 AM 14.48889 58.08 -2 6.65 -5 0
11/7/2020 7:15:00 AM 14.42222 57.96 -2 6.6 -5 0
11/7/2020 7:30:00 AM 14.23333 57.62 -2 6.63 -4.9 0
11/7/2020 7:45:00 AM 14.47778 58.06 -2 6.61 -4.9 0
11/7/2020 8:00:00 AM 14.7 58.46 -2 6.65 -5 0
11/7/2020 8:15:00 AM 14.04444 57.28 -2 6.68 -4.9 0
11/7/2020 8:30:00 AM 14.58333 58.25 -2 6.72 -5 0
11/7/2020 8:45:00 AM 13.86667 56.96 -2 6.79 -5 0
11/7/2020 9:00:00 AM 14.78889 58.62 -2 6.69 -5 0
11/7/2020 9:15:00 AM 14.92222 58.86 -2 6.71 -5 0
11/7/2020 9:30:00 AM 15.01667 59.03 -2 6.72 -5 0
11/7/2020 9:45:00 AM 14.65556 58.38 -2 6.79 -5 0
11/7/2020 10:00:00 AM 15.08333 59.15 -2 6.77 -5 0
11/7/2020 10:15:00 AM 14.68333 58.43 -2 6.79 -5 0
11/7/2020 10:30:00 AM 14.72222 58.5 -2 6.8 -5 0
11/7/2020 10:45:00 AM 14.73333 58.52 -2 6.82 -5 0
11/7/2020 11:00:00 AM 15.41111 59.74 -2 6.79 -4.9 0
11/7/2020 11:15:00 AM 15.48889 59.88 -2 6.82 -5 0
11/7/2020 11:30:00 AM 15.40555 59.73 -2 6.88 -4.9 0
11/7/2020 11:45:00 AM 15.06667 59.12 -2 6.99 -5 0
11/7/2020 12:00:00 PM 15.42222 59.76 -2 6.97 -5 0
11/7/2020 12:15:00 PM 15.73333 60.32 -2 6.97 -5 0
11/7/2020 12:30:00 PM 14.85 58.73 -2 6.98 -5 0
11/7/2020 12:45:00 PM 14.47222 58.05 -2 6.93 -4.9 0
11/7/2020 1:00:00 PM 14.71667 58.49 -2 6.96 -5 0
11/7/2020 1:15:00 PM 14.23333 57.62 -2 6.89 -4.9 0
11/7/2020 1:30:00 PM 14.19444 57.55 -2 6.88 -5 0
11/7/2020 1:45:00 PM 13.51111 56.32 -2 6.88 -4.9 0
11/7/2020 2:00:00 PM 14.45 58.01 -2 6.85 -4.9 0
11/7/2020 2:15:00 PM 13.31111 55.96 -2 6.8 -4.9 0
11/7/2020 2:30:00 PM 13.52778 56.35 -2 6.81 -5 0
11/7/2020 2:45:00 PM 13.11667 55.61 -2 6.77 -4.9 0
11/7/2020 3:00:00 PM 13.02222 55.44 -2 6.74 -4.9 0
11/7/2020 3:15:00 PM 13.35 56.03 -2 6.81 -4.9 0
11/7/2020 3:30:00 PM 13.2 55.76 -2 6.78 -4.8 0
11/7/2020 3:45:00 PM 13.34445 56.02 -2 6.76 -4.9 0
11/7/2020 4:00:00 PM 12.72778 54.91 -2 6.72 -4.9 0
11/7/2020 4:15:00 PM 13.21111 55.78 -2 6.78 -4.9 0
11/7/2020 4:30:00 PM 13.24444 55.84 -2 6.77 -4.9 0
11/7/2020 4:45:00 PM 13.21111 55.78 -2 6.77 -4.8 0
11/7/2020 5:00:00 PM 13.25 55.85 -2 6.77 -4.9 0
11/7/2020 5:15:00 PM 13.78889 56.82 -2 6.85 -4.9 0
11/7/2020 5:30:00 PM 14.46111 58.03 -2 6.86 -5 0
11/7/2020 5:45:00 PM 14.53333 58.16 -2 6.87 -5 0
11/7/2020 6:00:00 PM 14.43333 57.98 -2 6.89 -5 0
11/7/2020 6:15:00 PM 14.41667 57.95 -2 6.91 -4.9 0
11/7/2020 6:30:00 PM 14.62222 58.32 -2 6.96 -5 0
11/7/2020 6:45:00 PM 14.42778 57.97 -2 6.92 -5 0
11/7/2020 7:00:00 PM 14.1 57.38 -2 6.88 -4.9 0
11/7/2020 7:15:00 PM 14.98333 58.97 -2 6.97 -4.9 0
11/7/2020 7:30:00 PM 14.15 57.47 -2 6.88 -4.9 0
11/7/2020 7:45:00 PM 14.05 57.29 -2 6.87 -5 0
11/7/2020 8:00:00 PM 14.08333 57.35 -2 6.87 -5 0
11/7/2020 8:15:00 PM 14.33333 57.8 -2 6.91 -4.9 0
11/7/2020 8:30:00 PM 14.52778 58.15 -2 6.94 -5 0
11/7/2020 8:45:00 PM 14.04444 57.28 -2 6.87 -4.9 0
11/7/2020 9:00:00 PM 13.91111 57.04 -2 6.86 -4.9 0
11/7/2020 9:15:00 PM 13.96667 57.14 -2 6.87 -5 0
11/7/2020 9:30:00 PM 13.88889 57 -2 6.87 -4.9 0
11/7/2020 9:45:00 PM 14.10556 57.39 -2 6.88 -4.9 0
11/7/2020 10:00:00 PM 14.61667 58.31 -2 6.87 -5 0
11/7/2020 10:15:00 PM 14.69444 58.45 -2 6.87 -5 0
11/7/2020 10:30:00 PM 13.76111 56.77 -2 6.84 -5 0
11/7/2020 10:45:00 PM 15.12222 59.22 -2 6.89 -5 0
11/7/2020 11:00:00 PM 14.45 58.01 -2 6.86 -5 0
11/7/2020 11:15:00 PM 15.19444 59.35 -2 6.92 -5.1 0
11/7/2020 11:30:00 PM 14.51111 58.12 -2 6.85 -4.9 0
11/7/2020 11:45:00 PM 15.03333 59.06 -2 6.85 -5 0
11/8/2020 12:00:00 AM 14.62222 58.32 -2 6.86 -5 0
11/8/2020 12:15:00 AM 14.20555 57.57 -2 6.88 -4.9 0
11/8/2020 12:30:00 AM 14.33333 57.8 -2 6.87 -4.9 0
11/8/2020 12:45:00 AM 14.39444 57.91 -2 6.91 -5 0
11/8/2020 1:00:00 AM 14.01667 57.23 -2 6.87 -5 0
11/8/2020 1:15:00 AM 14.12222 57.42 -2 6.85 -4.9 0
11/8/2020 1:30:00 AM 14.60556 58.29 -2 6.82 -5 0
11/8/2020 1:45:00 AM 14.2 57.56 -2 6.87 -5 0
11/8/2020 2:00:00 AM 14.58889 58.26 -2 6.86 -4.9 0
11/8/2020 2:15:00 AM 14.13889 57.45 -2 6.87 -5 0
11/8/2020 2:30:00 AM 13.55556 56.4 -2 6.88 -4.9 0
11/8/2020 2:45:00 AM 13.41111 56.14 -2 6.87 -4.9 0
11/8/2020 3:00:00 AM 13.38889 56.1 -2 6.82 -4.9 0
11/8/2020 3:15:00 AM 13.68889 56.64 -2 6.84 -4.9 0
11/8/2020 3:30:00 AM 13.5 56.3 -2 6.83 -5 0
11/8/2020 3:45:00 AM 13.42222 56.16 -2 6.8 -4.9 0
11/8/2020 4:00:00 AM 13.48889 56.28 -2 6.79 -5 0
11/8/2020 4:15:00 AM 13.37778 56.08 -2 6.82 -4.9 0
11/8/2020 4:30:00 AM 13.81667 56.87 -2 6.81 -4.9 0
11/8/2020 4:45:00 AM 13.38333 56.09 -2 6.81 -4.8 0
11/8/2020 5:00:00 AM 14.12778 57.43 -2 6.81 -4.9 0
11/8/2020 5:15:00 AM 14.41111 57.94 -2 6.82 -5 0
11/8/2020 5:30:00 AM 14.38889 57.9 -2 6.82 -4.9 0
11/8/2020 5:45:00 AM 12.91111 55.24 -2 6.73 -4.9 0
11/8/2020 6:00:00 AM 13.41111 56.14 -2 6.77 -4.9 0
11/8/2020 6:15:00 AM 13.43333 56.18 -2 6.79 -4.9 0
11/8/2020 6:30:00 AM 13.28333 55.91 -2 6.78 -4.9 0
11/8/2020 6:45:00 AM 13.3 55.94 -2 6.76 -4.9 0
11/8/2020 7:00:00 AM 13.15556 55.68 -2 6.76 -4.9 0
11/8/2020 7:15:00 AM 13.39444 56.11 -2 6.7 -4.9 0
11/8/2020 7:30:00 AM 13.42778 56.17 -2 6.71 -4.9 0
11/8/2020 7:45:00 AM 14.01667 57.23 -2 6.79 -5 0
11/8/2020 8:00:00 AM 13.97222 57.15 -2 6.82 -4.9 0
11/8/2020 8:15:00 AM 13.96667 57.14 -2 6.92 -4.9 0
11/8/2020 8:30:00 AM 14.23333 57.62 -2 6.91 -5 0
11/8/2020 8:45:00 AM 14.22778 57.61 -2 6.91 -4.9 0
11/8/2020 9:00:00 AM 14.22222 57.6 -2 6.98 -4.9 0
11/8/2020 9:15:00 AM 14.81111 58.66 -2 6.95 -5 0
11/8/2020 9:30:00 AM 14.82222 58.68 -2 6.98 -4.9 0
11/8/2020 9:45:00 AM 14.40555 57.93 -2 6.9 -5 0
11/8/2020 10:00:00 AM 14.82222 58.68 -2 6.98 -4.9 0
11/8/2020 10:15:00 AM 14.41111 57.94 -2 6.92 -5 0
11/8/2020 10:30:00 AM 14.42222 57.96 -2 6.88 -5 0
11/8/2020 10:45:00 AM 14.87778 58.78 -2 6.88 -5 0
11/8/2020 11:00:00 AM 14.93333 58.88 -2 6.94 -5 0
11/8/2020 11:15:00 AM 15.27778 59.5 -2 6.87 -5 0
11/8/2020 11:30:00 AM 14.46111 58.03 -2 6.92 -4.9 0
11/8/2020 11:45:00 AM 14.98333 58.97 -2 6.97 -5 0
11/8/2020 12:00:00 PM 14.15 57.47 -2 6.89 -4.9 0
11/8/2020 12:15:00 PM 14.15555 57.48 -2 6.88 -5 0
11/8/2020 12:30:00 PM 14.20555 57.57 -2 6.88 -5 0
11/8/2020 12:45:00 PM 13.96111 57.13 -2 6.87 -5 0
11/8/2020 1:00:00 PM 13.75 56.75 -2 6.84 -5 0
11/8/2020 1:15:00 PM 13.06667 55.52 -2 6.77 -4.9 0
11/8/2020 1:30:00 PM 13.48333 56.27 -2 6.83 -4.9 0
11/8/2020 1:45:00 PM 13.34445 56.02 -2 6.75 -4.9 0
11/8/2020 2:00:00 PM 13.32222 55.98 -2 6.73 -4.9 0
11/8/2020 2:15:00 PM 13.46667 56.24 -2 6.68 -5 0
11/8/2020 2:30:00 PM 13.38889 56.1 -2 6.68 -4.9 0
11/8/2020 2:45:00 PM 13.3 55.94 -2 6.67 -4.9 0
11/8/2020 3:00:00 PM 13.44444 56.2 -2 6.67 -5 0
11/8/2020 3:15:00 PM 13.47222 56.25 -2 6.67 -5 0
11/8/2020 3:30:00 PM 13.72778 56.71 -2 6.66 -4.9 0
11/8/2020 3:45:00 PM 13.71667 56.69 -2 6.67 -4.9 0
11/8/2020 4:00:00 PM 13.67222 56.61 -2 6.67 -5 0
11/8/2020 4:15:00 PM 13.38889 56.1 -2 6.67 -4.9 0
11/8/2020 4:30:00 PM 13.62222 56.52 -2 6.67 -5 0
11/8/2020 4:45:00 PM 13.47222 56.25 -2 6.66 -5 0
11/8/2020 5:00:00 PM 13.43333 56.18 -2 6.67 -5 0
11/8/2020 5:15:00 PM 13.21111 55.78 -2 6.67 -5 0
11/8/2020 5:30:00 PM 13.08333 55.55 -2 6.7 -5 0
11/8/2020 5:45:00 PM 13.07222 55.53 -2 6.67 -4.9 0
11/8/2020 6:00:00 PM 13.01667 55.43 -2 6.67 -4.9 0
11/8/2020 6:15:00 PM 13.46111 56.23 -2 6.7 -4.9 0
11/8/2020 6:30:00 PM 13.14444 55.66 -2 6.74 -4.9 0
11/8/2020 6:45:00 PM 12.63334 54.74 -2 6.72 -4.9 0
11/8/2020 7:00:00 PM 12.51111 54.52 -2 6.71 -4.9 0
11/8/2020 7:15:00 PM 12.79444 55.03 -2 6.74 -4.9 0
11/8/2020 7:30:00 PM 12.65 54.77 -2 6.72 -4.9 0
11/8/2020 7:45:00 PM 13.13889 55.65 -2 6.77 -4.9 0
11/8/2020 8:00:00 PM 12.82222 55.08 -2 6.74 -4.9 0
11/8/2020 8:15:00 PM 12.86667 55.16 -2 6.75 -4.9 0
11/8/2020 8:30:00 PM 13.39444 56.11 -2 6.8 -4.9 0
11/8/2020 8:45:00 PM 13.18333 55.73 -2 6.8 -4.9 0
11/8/2020 9:00:00 PM 13.62778 56.53 -2 6.83 -5 0
11/8/2020 9:15:00 PM 13.54445 56.38 -2 6.82 -4.9 0
11/8/2020 9:30:00 PM 13.42222 56.16 -2 6.82 -5 0
11/8/2020 9:45:00 PM 12.94444 55.3 -2 6.74 -4.9 0
11/8/2020 10:00:00 PM 13.17778 55.72 -2 6.79 -4.9 0
11/8/2020 10:15:00 PM 13.03889 55.47 -2 6.77 -4.9 0
11/8/2020 10:30:00 PM 12.55555 54.6 -2 6.72 -4.8 0
11/8/2020 10:45:00 PM 13.08333 55.55 -2 6.76 -4.9 0
11/8/2020 11:00:00 PM 12.92778 55.27 -2 6.74 -4.9 0
11/8/2020 11:15:00 PM 13.12222 55.62 -2 6.77 -4.8 0
11/8/2020 11:30:00 PM 12.65555 54.78 -2 6.73 -4.8 0
11/8/2020 11:45:00 PM 13.1 55.58 -2 6.75 -4.9 0
11/9/2020 12:00:00 AM 13.35556 56.04 -2 6.81 -4.9 0
11/9/2020 12:15:00 AM 13.01111 55.42 -2 6.74 -4.9 0
11/9/2020 12:30:00 AM 12.9 55.22 -2 6.72 -4.9 0
11/9/2020 12:45:00 AM 13.15 55.67 -2 6.78 -4.9 0
11/9/2020 1:00:00 AM 12.51667 54.53 -2 6.72 -4.9 0
11/9/2020 1:15:00 AM 12.58889 54.66 -2 6.73 -4.9 0
11/9/2020 1:30:00 AM 12.87778 55.18 -2 6.72 -4.9 0
11/9/2020 1:45:00 AM 13.17222 55.71 -2 6.74 -4.9 0
11/9/2020 2:00:00 AM 12.73333 54.92 -2 6.68 -4.9 0
11/9/2020 2:15:00 AM 12.8 55.04 -2 6.73 -4.9 0
11/9/2020 2:30:00 AM 13.85556 56.94 -2 6.68 -5 0
11/9/2020 2:45:00 AM 12.63889 54.75 -2 6.6 -4.9 0
11/9/2020 3:00:00 AM 12.51111 54.52 -2 6.69 -4.9 0
11/9/2020 3:15:00 AM 12.65 54.77 -2 6.69 -4.9 0
11/9/2020 3:30:00 AM 13.28333 55.91 -2 6.61 -4.9 0
11/9/2020 3:45:00 AM 14.38889 57.9 -2 6.66 -4.9 0
11/9/2020 4:00:00 AM 13.16667 55.7 -2 6.67 -4.9 0
11/9/2020 4:15:00 AM 13.07222 55.53 -2 6.58 -4.9 0
11/9/2020 4:30:00 AM 13.45556 56.22 -2 6.63 -4.9 0
11/9/2020 4:45:00 AM 13.06111 55.51 -2 6.62 -4.9 0
11/9/2020 5:00:00 AM 12.55555 54.6 -2 6.65 -4.8 0
11/9/2020 5:15:00 AM 12.48333 54.47 -2 6.61 -4.9 0
11/9/2020 5:30:00 AM 12.52222 54.54 -2 6.62 -4.9 0
11/9/2020 5:45:00 AM 12.54445 54.58 -2 6.55 -4.9 0
11/9/2020 6:00:00 AM 12.49445 54.49 -2 6.61 -4.9 0
11/9/2020 6:15:00 AM 12.90555 55.23 -2 6.57 -4.9 0
11/9/2020 6:30:00 AM 12.7 54.86 -2 6.53 -4.9 0
11/9/2020 6:45:00 AM 12.63334 54.74 -2 6.54 -4.9 0
11/9/2020 7:00:00 AM 12.52222 54.54 -2 6.54 -4.8 0
11/9/2020 7:15:00 AM 12.66111 54.79 -2 6.53 -5 0
11/9/2020 7:30:00 AM 12.56111 54.61 -2 6.53 -4.9 0
11/9/2020 7:45:00 AM 12.67222 54.81 -2 6.51 -4.9 0
11/9/2020 8:00:00 AM 13.34445 56.02 -2 6.55 -4.9 0
11/9/2020 8:15:00 AM 13.83333 56.9 -2 6.65 -5 0
11/9/2020 8:30:00 AM 14.95555 58.92 -2 6.66 -5 0
11/9/2020 8:45:00 AM 14.83333 58.7 -2 6.71 -5 0
11/9/2020 9:00:00 AM 14.08889 57.36 -2 6.76 -4.9 0
11/9/2020 9:15:00 AM 14.36667 57.86 -2 6.73 -5 0
11/9/2020 9:30:00 AM 14.48889 58.08 -2 6.76 -5 0
11/9/2020 9:45:00 AM 14.37222 57.87 -2 6.75 -5 0
11/9/2020 10:00:00 AM 15.00555 59.01 -2 6.75 -5 0
11/9/2020 10:15:00 AM 14.15555 57.48 -2 6.79 -5 0
11/9/2020 10:30:00 AM 14.40555 57.93 -2 6.72 -5 0
11/9/2020 10:45:00 AM 13.47778 56.26 -2 6.8 -4.8 0
11/9/2020 11:00:00 AM 13.47778 56.26 -2 6.82 -4.9 0
11/9/2020 11:15:00 AM 13.32778 55.99 -2 6.81 -4.9 0
11/9/2020 11:30:00 AM 13.68333 56.63 -2 6.79 -4.9 0
11/9/2020 11:45:00 AM 13.12778 55.63 -2 6.78 -5 0
11/9/2020 12:00:00 PM 12.82778 55.09 -2 6.7 -4.8 0
11/9/2020 12:15:00 PM 12.65555 54.78 -2 6.72 -4.8 0
11/9/2020 12:30:00 PM 12.78333 55.01 -2 6.71 -4.9 0
11/9/2020 12:45:00 PM 13.28889 55.92 -2 6.69 -4.9 0
11/9/2020 1:00:00 PM 13.29445 55.93 -2 6.67 -5 0
11/9/2020 1:15:00 PM 13.31111 55.96 -2 6.67 -4.9 0
11/9/2020 1:30:00 PM 13.45 56.21 -2 6.67 -4.9 0
11/9/2020 1:45:00 PM 13.89444 57.01 -2 6.66 -4.9 0
11/9/2020 2:00:00 PM 13.83889 56.91 -2 6.66 -4.9 0
11/9/2020 2:15:00 PM 13.91667 57.05 -2 6.66 -4.8 0
11/9/2020 2:30:00 PM 13.92222 57.06 -2 6.66 -5 0
11/9/2020 2:45:00 PM 13.95 57.11 -2 6.65 -4.9 0
11/9/2020 3:00:00 PM 13.93333 57.08 -2 6.65 -5 0
11/9/2020 3:15:00 PM 13.92778 57.07 -2 6.65 -5 0
11/9/2020 3:30:00 PM 13.93333 57.08 -2 6.65 -4.9 0
11/9/2020 3:45:00 PM 13.92778 57.07 -2 6.65 -5 0
11/9/2020 4:00:00 PM 13.92778 57.07 -2 6.65 -5 0
11/9/2020 4:15:00 PM 13.92778 57.07 -2 6.65 -4.9 0
11/9/2020 4:30:00 PM 14.03889 57.27 -2 6.65 -5 0
11/9/2020 4:45:00 PM 13.92222 57.06 -2 6.65 -4.9 0
11/9/2020 5:00:00 PM 13.92778 57.07 -2 6.65 -5 0
11/9/2020 5:15:00 PM 13.88334 56.99 -2 6.65 -4.9 0
11/9/2020 5:30:00 PM 13.86667 56.96 -2 6.65 -4.9 0
11/9/2020 5:45:00 PM 13.72778 56.71 -2 6.65 -5 0
11/9/2020 6:00:00 PM 13.67778 56.62 -2 6.66 -5 0
11/9/2020 6:15:00 PM 13.57778 56.44 -2 6.66 -4.9 0
11/9/2020 6:30:00 PM 13.51111 56.32 -2 6.66 -4.9 0
11/9/2020 6:45:00 PM 13.22222 55.8 -2 6.67 -4.9 0
11/9/2020 7:00:00 PM 13.33889 56.01 -2 6.66 -4.9 0
11/9/2020 7:15:00 PM 13.1 55.58 -2 6.67 -4.9 0
11/9/2020 7:30:00 PM 13.07222 55.53 -2 6.68 -4.9 0
11/9/2020 7:45:00 PM 13.16667 55.7 -2 6.69 -4.9 0
11/9/2020 8:00:00 PM 13.18333 55.73 -2 6.69 -4.9 0
11/9/2020 8:15:00 PM 13.02778 55.45 -2 6.68 -4.9 0
11/9/2020 8:30:00 PM 12.58889 54.66 -2 6.7 -4.9 0
11/9/2020 8:45:00 PM 12.85 55.13 -2 6.68 -4.9 0
11/9/2020 9:00:00 PM 12.98889 55.38 -2 6.68 -4.9 0
11/9/2020 9:15:00 PM 12.84444 55.12 -2 6.68 -4.9 0
11/9/2020 9:30:00 PM 12.97222 55.35 -2 6.7 -4.9 0
11/9/2020 9:45:00 PM 13.08889 55.56 -2 6.69 -4.9 0
11/9/2020 10:00:00 PM 13.15 55.67 -2 6.69 -4.9 0
11/9/2020 10:15:00 PM 13.22222 55.8 -2 6.69 -4.8 0
11/9/2020 10:30:00 PM 12.79444 55.03 -2 6.67 -4.9 0
11/9/2020 10:45:00 PM 12.94444 55.3 -2 6.67 -4.9 0
11/9/2020 11:00:00 PM 13.08889 55.56 -2 6.69 -4.9 0
11/9/2020 11:15:00 PM 12.88333 55.19 -2 6.66 -4.8 0
11/9/2020 11:30:00 PM 13.00556 55.41 -2 6.68 -4.9 0
11/9/2020 11:45:00 PM 12.81111 55.06 -2 6.66 -4.9 0
11/10/2020 12:00:00 AM 12.80556 55.05 -2 6.67 -4.9 0
11/10/2020 12:15:00 AM 13.10556 55.59 -2 6.67 -4.9 0
11/10/2020 12:30:00 AM 13.12222 55.62 -2 6.67 -5 0
11/10/2020 12:45:00 AM 12.98889 55.38 -2 6.66 -4.9 0
11/10/2020 1:00:00 AM 13.19444 55.75 -2 6.67 -4.9 0
11/10/2020 1:15:00 AM 13.15556 55.68 -2 6.65 -4.9 0
11/10/2020 1:30:00 AM 13.12778 55.63 -2 6.64 -5 0
11/10/2020 1:45:00 AM 12.98889 55.38 -2 6.67 -4.9 0
11/10/2020 2:00:00 AM 13.02778 55.45 -2 6.67 -5 0
11/10/2020 2:15:00 AM 12.98889 55.38 -2 6.66 -4.9 0
11/10/2020 2:30:00 AM 12.75556 54.96 -2 6.58 -4.9 0
11/10/2020 2:45:00 AM 13.22778 55.81 -2 6.67 -4.9 0
11/10/2020 3:00:00 AM 13.03333 55.46 -2 6.63 -4.9 0
11/10/2020 3:15:00 AM 13.02222 55.44 -2 6.66 -4.9 0
11/10/2020 3:30:00 AM 13.13889 55.65 -2 6.64 -4.9 0
11/10/2020 3:45:00 AM 13.19444 55.75 -2 6.6 -4.9 0
11/10/2020 4:00:00 AM 12.97778 55.36 -2 6.63 -4.9 0
11/10/2020 4:15:00 AM 12.98889 55.38 -2 6.64 -4.9 0
11/10/2020 4:30:00 AM 13.1 55.58 -2 6.66 -4.9 0
11/10/2020 4:45:00 AM 13.2 55.76 -2 6.65 -4.9 0
11/10/2020 5:00:00 AM 13.02778 55.45 -2 6.66 -4.9 0
11/10/2020 5:15:00 AM 13.21667 55.79 -2 6.55 -5 0
11/10/2020 5:30:00 AM 13.08333 55.55 -2 6.56 -4.9 0
11/10/2020 5:45:00 AM 13.29445 55.93 -2 6.57 -4.9 0
11/10/2020 6:00:00 AM 12.85556 55.14 -2 6.55 -4.9 0
11/10/2020 6:15:00 AM 13.41111 56.14 -2 6.52 -5 0
11/10/2020 6:30:00 AM 13.48889 56.28 -2 6.56 -4.9 0
11/10/2020 6:45:00 AM 13.46667 56.24 -2 6.6 -4.9 0
11/10/2020 7:00:00 AM 12.94444 55.3 -2 6.53 -4.9 0
11/10/2020 7:15:00 AM 13.5 56.3 -2 6.5 -4.9 0
11/10/2020 7:30:00 AM 13.21667 55.79 -2 6.56 -4.9 0
11/10/2020 7:45:00 AM 12.62222 54.72 -2 6.52 -4.9 0
11/10/2020 8:00:00 AM 12.72778 54.91 -2 6.5 -4.9 0
11/10/2020 8:15:00 AM 13.55556 56.4 -2 6.58 -4.9 0
11/10/2020 8:30:00 AM 13.07778 55.54 -2 6.56 -4.9 0
11/10/2020 8:45:00 AM 13.29445 55.93 -2 6.63 -4.8 0
11/10/2020 9:00:00 AM 13.54445 56.38 -2 6.62 -4.9 0
11/10/2020 9:15:00 AM 13.38889 56.1 -2 6.62 -4.9 0
11/10/2020 9:30:00 AM 14.02222 57.24 -2 6.66 -5 0
11/10/2020 9:45:00 AM 13.97778 57.16 -2 6.69 -4.9 0
11/10/2020 10:00:00 AM 13.57778 56.44 -2 6.7 -4.9 0
11/10/2020 10:15:00 AM 13.11667 55.61 -2 6.67 -4.9 0
11/10/2020 10:30:00 AM 12.92222 55.26 -2 6.67 -4.9 0
11/10/2020 10:45:00 AM 13.37222 56.07 -2 6.67 -5 0
11/10/2020 11:00:00 AM 13.46667 56.24 -2 6.68 -5 0
11/10/2020 11:15:00 AM 13.08889 55.56 -2 6.69 -4.9 0
11/10/2020 11:30:00 AM 13.24444 55.84 -2 6.67 -4.9 0
11/10/2020 11:45:00 AM 13.43333 56.18 -2 6.67 -4.9 0
11/10/2020 12:00:00 PM 13.82222 56.88 -2 6.68 -5 0
11/10/2020 12:15:00 PM 13.91111 57.04 -2 6.66 -5 0
11/10/2020 12:30:00 PM 14.01111 57.22 -2 6.67 -5 0
11/10/2020 12:45:00 PM 13.94444 57.1 -2 6.66 -5 0
11/10/2020 1:00:00 PM 14.03333 57.26 -2 6.66 -4.9 0
11/10/2020 1:15:00 PM 13.93333 57.08 -2 6.65 -5 0
11/10/2020 1:30:00 PM 13.93333 57.08 -2 6.65 -5 0
11/10/2020 1:45:00 PM 13.92778 57.07 -2 6.65 -5 0
11/10/2020 2:00:00 PM 14.01111 57.22 -2 6.65 -5 0
11/10/2020 2:15:00 PM 14.09444 57.37 -2 6.65 -4.9 0
11/10/2020 2:30:00 PM 14.28333 57.71 -2 6.63 -4.9 0
11/10/2020 2:45:00 PM 14.41111 57.94 -2 6.58 -5 0
11/10/2020 3:00:00 PM 14.56667 58.22 -2 6.56 -5 0
11/10/2020 3:15:00 PM 14.66111 58.39 -2 6.59 -5 0
11/10/2020 3:30:00 PM 14.03889 57.27 -2 6.62 -5 0
11/10/2020 3:45:00 PM 14.10556 57.39 -2 6.68 -4.9 0
11/10/2020 4:00:00 PM 13.99444 57.19 -3 6.66 -5 0
11/10/2020 4:15:00 PM 14.07222 57.33 -2 6.69 -5 0
11/10/2020 4:30:00 PM 13.97778 57.16 -3 6.66 -5 0
11/10/2020 4:45:00 PM 14.03889 57.27 -3 6.71 -5 0
11/10/2020 5:00:00 PM 14.67222 58.41 -2 6.76 -5 0
11/10/2020 5:15:00 PM 14.58333 58.25 -2 6.73 -5 0
11/10/2020 5:30:00 PM 14.55556 58.2 -2 6.7 -5 0
11/10/2020 5:45:00 PM 14.48333 58.07 -2 6.64 -5 0
11/10/2020 6:00:00 PM 14.41111 57.94 -2 6.73 -5 0
11/10/2020 6:15:00 PM 14.31667 57.77 -2 6.72 -5 0
11/10/2020 6:30:00 PM 14.27778 57.7 -2 6.72 -5 0
11/10/2020 6:45:00 PM 14.18889 57.54 -2 6.65 -4.9 0
11/10/2020 7:00:00 PM 14.26667 57.68 -2 6.62 -5 0
11/10/2020 7:15:00 PM 14.24444 57.64 -2 6.63 -5.1 0
11/10/2020 7:30:00 PM 14.22222 57.6 -2 6.67 -5 0
11/10/2020 7:45:00 PM 14.07222 57.33 -2 6.65 -4.9 0
11/10/2020 8:00:00 PM 14.19444 57.55 -2 6.62 -4.9 0
11/10/2020 8:15:00 PM 14.22222 57.6 -2 6.63 -4.9 0
11/10/2020 8:30:00 PM 14.23889 57.63 -2 6.6 -5 0
11/10/2020 8:45:00 PM 14.25556 57.66 -2 6.6 -5 0
11/10/2020 9:00:00 PM 14.22778 57.61 -2 6.59 -5 0
11/10/2020 9:15:00 PM 14.01667 57.23 -2 6.65 -4.9 0
11/10/2020 9:30:00 PM 14.14444 57.46 -2 6.63 -5 0
11/10/2020 9:45:00 PM 14.16667 57.5 -2 6.63 -5 0
11/10/2020 10:00:00 PM 14.25 57.65 -2 6.61 -5 0
11/10/2020 10:15:00 PM 14.23333 57.62 -2 6.61 -5 0
11/10/2020 10:30:00 PM 14.17778 57.52 -2 6.62 -4.9 0
11/10/2020 10:45:00 PM 14.15555 57.48 -2 6.65 -5 0
11/10/2020 11:00:00 PM 14.22222 57.6 -2 6.63 -4.9 0
11/10/2020 11:15:00 PM 14.2 57.56 -2 6.64 -4.9 0
11/10/2020 11:30:00 PM 14.07222 57.33 -2 6.65 -5 0
11/10/2020 11:45:00 PM 14.28333 57.71 -2 6.61 -5 0
11/11/2020 12:00:00 AM 14.07222 57.33 -2 6.65 -4.9 0
11/11/2020 12:15:00 AM 14.12778 57.43 -2 6.64 -5 0
11/11/2020 12:30:00 AM 14.06111 57.31 -2 6.65 -5 0
11/11/2020 12:45:00 AM 13.99444 57.19 -2 6.65 -5 0
11/11/2020 1:00:00 AM 13.96667 57.14 -2 6.65 -5 0
11/11/2020 1:15:00 AM 13.96667 57.14 -2 6.65 -4.9 0
11/11/2020 1:30:00 AM 13.95 57.11 -2 6.65 -4.9 0
11/11/2020 1:45:00 AM 14.24444 57.64 -2 6.61 -5 0
11/11/2020 2:00:00 AM 14.11667 57.41 -2 6.58 -5 0
11/11/2020 2:15:00 AM 13.93889 57.09 -2 6.65 -4.9 0
11/11/2020 2:30:00 AM 13.93889 57.09 -2 6.65 -5 0
11/11/2020 2:45:00 AM 13.93333 57.08 -2 6.65 -4.9 0
11/11/2020 3:00:00 AM 14.16667 57.5 -2 6.63 -5 0
11/11/2020 3:15:00 AM 14.07222 57.33 -2 6.65 -5 0
11/11/2020 3:30:00 AM 14.26111 57.67 -2 6.64 -5 0
11/11/2020 3:45:00 AM 14.09444 57.37 -2 6.65 -5 0
11/11/2020 4:00:00 AM 14.09444 57.37 -2 6.65 -5 0
11/11/2020 4:15:00 AM 14.09444 57.37 -2 6.65 -4.9 0
11/11/2020 4:30:00 AM 14.12222 57.42 -2 6.65 -4.9 0
11/11/2020 4:45:00 AM 14.04444 57.28 -2 6.65 -5 0
11/11/2020 5:00:00 AM 14.19444 57.55 -2 6.64 -5 0
11/11/2020 5:15:00 AM 14.07778 57.34 -2 6.65 -4.9 0
11/11/2020 5:30:00 AM 14.26667 57.68 -2 6.62 -5 0
11/11/2020 5:45:00 AM 13.96111 57.13 -2 6.65 -5 0
11/11/2020 6:00:00 AM 14.11111 57.4 -2 6.65 -5 0
11/11/2020 6:15:00 AM 14.05 57.29 -2 6.65 -4.9 0
11/11/2020 6:30:00 AM 14.03889 57.27 -2 6.65 -4.9 0
11/11/2020 6:45:00 AM 14.07778 57.34 -2 6.65 -5 0
11/11/2020 7:00:00 AM 14.08333 57.35 -2 6.64 -4.9 0
11/11/2020 7:15:00 AM 14.06667 57.32 -2 6.65 -5 0
11/11/2020 7:30:00 AM 14.02222 57.24 -2 6.65 -5 0
11/11/2020 7:45:00 AM 14.08333 57.35 -2 6.65 -5 0
11/11/2020 8:00:00 AM 14.27778 57.7 -2 6.64 -5 0
11/11/2020 8:15:00 AM 14.16667 57.5 -2 6.64 -5 0
11/11/2020 8:30:00 AM 14.13889 57.45 -2 6.65 -5 0
11/11/2020 8:45:00 AM 14.13333 57.44 -2 6.65 -4.9 0
11/11/2020 9:00:00 AM 14.06111 57.31 -2 6.65 -4.9 0
11/11/2020 9:15:00 AM 13.97222 57.15 -2 6.65 -4.9 0
11/11/2020 9:30:00 AM 13.99444 57.19 -2 6.65 -5 0
11/11/2020 9:45:00 AM 14.05556 57.3 -2 6.65 -4.9 0
11/11/2020 10:00:00 AM 14.00556 57.21 -2 6.65 -5 0
11/11/2020 10:15:00 AM 13.97222 57.15 -2 6.65 -4.9 0
11/11/2020 10:30:00 AM 14.06111 57.31 -2 6.65 -4.9 0
11/11/2020 10:45:00 AM 13.97778 57.16 -2 6.65 -5 0
11/11/2020 11:00:00 AM 13.98333 57.17 -2 6.65 -5 0
11/11/2020 11:15:00 AM 14.15 57.47 -2 6.65 -5 0
11/11/2020 11:30:00 AM 14.29444 57.73 -2 6.61 -4.9 0
11/11/2020 11:45:00 AM 14.17778 57.52 -2 6.64 -4.9 0
11/11/2020 12:00:00 PM 14.16111 57.49 -2 6.65 -4.9 0
11/11/2020 12:15:00 PM 14.12778 57.43 -2 6.65 -4.9 0
11/11/2020 12:30:00 PM 14.23889 57.63 -2 6.64 -5 0
11/11/2020 12:45:00 PM 14.23333 57.62 -2 6.65 -5 0
11/11/2020 1:00:00 PM 14.24444 57.64 -2 6.65 -5 0
11/11/2020 1:15:00 PM 14.26111 57.67 -2 6.65 -5.1 0
11/11/2020 1:30:00 PM 14.38889 57.9 -2 6.65 -5 0
11/11/2020 1:45:00 PM 14.6 58.28 -2 6.61 -5 0
11/11/2020 2:00:00 PM 14.64444 58.36 -2 6.59 -5 0
11/11/2020 2:15:00 PM 14.69444 58.45 -2 6.6 -5 0
11/11/2020 2:30:00 PM 14.74445 58.54 -2 6.6 -4.9 0
11/11/2020 2:45:00 PM 14.86111 58.75 -2 6.58 -5 0
11/11/2020 3:00:00 PM 14.81111 58.66 -2 6.64 -5 0
11/11/2020 3:15:00 PM 14.98889 58.98 -2 6.55 -5 0
11/11/2020 3:30:00 PM 15.05556 59.1 -2 6.56 -5 0
11/11/2020 3:45:00 PM 15.04445 59.08 -2 6.54 -5 0
11/11/2020 4:00:00 PM 14.03889 57.27 -3 6.48 -4.9 0
11/11/2020 4:15:00 PM 14.01667 57.23 -3 6.48 -4.9 0
11/11/2020 4:30:00 PM 14.04444 57.28 -3 6.41 -5 0
11/11/2020 4:45:00 PM 14.11111 57.4 -2 6.5 -5 0
11/11/2020 5:00:00 PM 13.57778 56.44 -3 6.44 -5 0
11/11/2020 5:15:00 PM 13.71111 56.68 -3 6.43 -4.9 0
11/11/2020 5:30:00 PM 14.77222 58.59 -2 6.54 -5.1 0
11/11/2020 5:45:00 PM 13.46667 56.24 -3 6.4 -5 0
11/11/2020 6:00:00 PM 13.45 56.21 -3 6.4 -4.9 0
11/11/2020 6:15:00 PM 13.91111 57.04 -3 6.47 -5 0
11/11/2020 6:30:00 PM 13.61111 56.5 -3 6.42 -4.9 0
11/11/2020 6:45:00 PM 13.86111 56.95 -3 6.47 -5 0
11/11/2020 7:00:00 PM 13.35 56.03 -3 6.4 -4.8 0
11/11/2020 7:15:00 PM 13.53889 56.37 -3 6.42 -5 0
11/11/2020 7:30:00 PM 13.51111 56.32 -3 6.42 -5 0
11/11/2020 7:45:00 PM 13.41111 56.14 -3 6.41 -4.9 0
11/11/2020 8:00:00 PM 13.40556 56.13 -3 6.4 -5 0
11/11/2020 8:15:00 PM 13.91667 57.05 -3 6.47 -5 0
11/11/2020 8:30:00 PM 14.25 57.65 -2 6.52 -5 0
11/11/2020 8:45:00 PM 14.01667 57.23 -3 6.48 -5 0
11/11/2020 9:00:00 PM 13.79445 56.83 -3 6.46 -5 0
11/11/2020 9:15:00 PM 14.09444 57.37 -2 6.49 -5 0
11/11/2020 9:30:00 PM 14.45556 58.02 -2 6.54 -5 0
11/11/2020 9:45:00 PM 14.23889 57.63 -2 6.51 -5 0
11/11/2020 10:00:00 PM 15.11111 59.2 -2 6.55 -5 0
11/11/2020 10:15:00 PM 14.26111 57.67 -2 6.52 -5 0
11/11/2020 10:30:00 PM 14.19444 57.55 -2 6.5 -5 0
11/11/2020 10:45:00 PM 14.10556 57.39 -2 6.5 -5 0
11/11/2020 11:00:00 PM 15.09444 59.17 -2 6.53 -5 0
11/11/2020 11:15:00 PM 14.23889 57.63 -2 6.52 -4.9 0
11/11/2020 11:30:00 PM 14.33889 57.81 -2 6.52 -4.9 0
11/11/2020 11:45:00 PM 14.28889 57.72 -2 6.52 -5 0
11/12/2020 12:00:00 AM 14.05 57.29 -3 6.47 -5 0
11/12/2020 12:15:00 AM 14.11111 57.4 -2 6.49 -5 0
11/12/2020 12:30:00 AM 14.28333 57.71 -2 6.51 -5 0
11/12/2020 12:45:00 AM 15.12778 59.23 -2 6.54 -5.1 0
11/12/2020 1:00:00 AM 13.93889 57.09 -3 6.48 -5.1 0
11/12/2020 1:15:00 AM 14.37222 57.87 -2 6.52 -5 0
11/12/2020 1:30:00 AM 14.12778 57.43 -2 6.49 -5 0
11/12/2020 1:45:00 AM 13.92778 57.07 -3 6.47 -5 0
11/12/2020 2:00:00 AM 15.10556 59.19 -2 6.55 -5 0
11/12/2020 2:15:00 AM 14.15 57.47 -2 6.51 -4.9 0
11/12/2020 2:30:00 AM 15.10556 59.19 -2 6.54 -5 0
11/12/2020 2:45:00 AM 14.09444 57.37 -2 6.49 -5 0
11/12/2020 3:00:00 AM 14.20555 57.57 -2 6.49 -5 0
11/12/2020 3:15:00 AM 15.11111 59.2 -2 6.52 -5.1 0
11/12/2020 3:30:00 AM 15.10556 59.19 -2 6.54 -5 0
11/12/2020 3:45:00 AM 13.88334 56.99 -3 6.47 -5 0
11/12/2020 4:00:00 AM 13.71111 56.68 -3 6.45 -4.9 0
11/12/2020 4:15:00 AM 13.61111 56.5 -3 6.43 -4.9 0
11/12/2020 4:30:00 AM 13.86111 56.95 -3 6.47 -5 0
11/12/2020 4:45:00 AM 14.02222 57.24 -3 6.48 -4.9 0
11/12/2020 5:00:00 AM 15.10556 59.19 -2 6.56 -5 0
11/12/2020 5:15:00 AM 13.91111 57.04 -3 6.47 -5 0
11/12/2020 5:30:00 AM 13.49444 56.29 -3 6.42 -5 0
11/12/2020 5:45:00 AM 13.61666 56.51 -3 6.41 -4.9 0
11/12/2020 6:00:00 AM 13.72222 56.7 -3 6.44 -4.9 0
11/12/2020 6:15:00 AM 14.10556 57.39 -3 6.47 -5 0
11/12/2020 6:30:00 AM 14.22222 57.6 -2 6.5 -5 0
11/12/2020 6:45:00 AM 15.12222 59.22 -2 6.53 -5 0
11/12/2020 7:00:00 AM 15.10556 59.19 -2 6.54 -5 0
11/12/2020 7:15:00 AM 14.17222 57.51 -2 6.49 -5 0
11/12/2020 7:30:00 AM 15.12778 59.23 -2 6.52 -5 0
11/12/2020 7:45:00 AM 14.25556 57.66 -2 6.51 -5 0
11/12/2020 8:00:00 AM 14.14444 57.46 -2 6.49 -5 0
11/12/2020 8:15:00 AM 13.98333 57.17 -3 6.48 -5 0
11/12/2020 8:30:00 AM 13.73333 56.72 -3 6.43 -5 0
11/12/2020 8:45:00 AM 13.81111 56.86 -3 6.47 -4.9 0
11/12/2020 9:00:00 AM 14.12778 57.43 -2 6.5 -5 0
11/12/2020 9:15:00 AM 14.21111 57.58 -2 6.5 -5 0
11/12/2020 9:30:00 AM 13.91111 57.04 -3 6.48 -5.1 0
11/12/2020 9:45:00 AM 13.88334 56.99 -3 6.47 -4.9 0
11/12/2020 10:00:00 AM 13.72778 56.71 -3 6.45 -5 0
11/12/2020 10:15:00 AM 13.77222 56.79 -3 6.47 -4.9 0
11/12/2020 10:30:00 AM 15.07778 59.14 -2 6.54 -5 0
11/12/2020 10:45:00 AM 14.1 57.38 -3 6.48 -5 0
11/12/2020 11:00:00 AM 13.52222 56.34 -3 6.41 -5 0
11/12/2020 11:15:00 AM 14.36667 57.86 -2 6.49 -5 0
11/12/2020 11:30:00 AM 13.82778 56.89 -3 6.47 -4.9 0
11/12/2020 11:45:00 AM 13.81111 56.86 -3 6.44 -5 0
11/12/2020 12:00:00 PM 13.55556 56.4 -3 6.42 -5 0
11/12/2020 12:15:00 PM 13.35556 56.04 -3 6.4 -5 0
11/12/2020 12:30:00 PM 14.16667 57.5 -3 6.41 -4.9 0
11/12/2020 12:45:00 PM 13.26667 55.88 -3 6.4 -4.9 0
11/12/2020 1:00:00 PM 14.21667 57.59 -3 6.41 -4.9 0
11/12/2020 1:15:00 PM 13.70555 56.67 -3 6.43 -5 0
11/12/2020 1:30:00 PM 14.05 57.29 -3 6.48 -4.9 0
11/12/2020 1:45:00 PM 13.97778 57.16 -3 6.46 -5.1 0
11/12/2020 2:00:00 PM 13.86667 56.96 -3 6.45 -5 0
11/12/2020 2:15:00 PM 13.00556 55.41 -3 6.34 -4.9 0
11/12/2020 2:30:00 PM 13.06111 55.51 -3 6.37 -5 0
11/12/2020 2:45:00 PM 13.61111 56.5 -3 6.42 -5 0
11/12/2020 3:00:00 PM 13.04444 55.48 -3 6.36 -5 0
11/12/2020 3:15:00 PM 13.48333 56.27 -3 6.4 -4.9 0
11/12/2020 3:30:00 PM 13.76667 56.78 -3 6.48 -5 0
11/12/2020 3:45:00 PM 13.72778 56.71 -3 6.44 -4.9 0
11/12/2020 4:00:00 PM 13.96111 57.13 -3 6.48 -5 0
11/12/2020 4:15:00 PM 14.26667 57.68 -2 6.54 -5 0
11/12/2020 4:30:00 PM 13.79445 56.83 -3 6.47 -5 0
11/12/2020 4:45:00 PM 13.96667 57.14 -3 6.48 -5 0
11/12/2020 5:00:00 PM 14.15555 57.48 -2 6.51 -5 0
11/12/2020 5:15:00 PM 13.81111 56.86 -3 6.47 -5 0
11/12/2020 5:30:00 PM 14.13333 57.44 -2 6.5 -5 0
11/12/2020 5:45:00 PM 14.73889 58.53 -2 6.59 -4.9 0
11/12/2020 6:00:00 PM 14.7 58.46 -2 6.59 -5 0
11/12/2020 6:15:00 PM 14.75556 58.56 -2 6.54 -5 0
11/12/2020 6:30:00 PM 14.73333 58.52 -2 6.54 -5 0
11/12/2020 6:45:00 PM 14.48889 58.08 -2 6.61 -5 0
11/12/2020 7:00:00 PM 14.48889 58.08 -2 6.59 -4.9 0
11/12/2020 7:15:00 PM 14.45 58.01 -2 6.58 -5 0
11/12/2020 7:30:00 PM 14.38889 57.9 -2 6.58 -5 0
11/12/2020 7:45:00 PM 14.34445 57.82 -2 6.57 -5 0
11/12/2020 8:00:00 PM 14.30556 57.75 -2 6.57 -5 0
11/12/2020 8:15:00 PM 14.21667 57.59 -2 6.61 -5 0
11/12/2020 8:30:00 PM 14.07778 57.34 -2 6.64 -5 0
11/12/2020 8:45:00 PM 14.08889 57.36 -2 6.62 -4.9 0
11/12/2020 9:00:00 PM 14.11111 57.4 -2 6.59 -5 0
11/12/2020 9:15:00 PM 14.07222 57.33 -2 6.61 -5 0
11/12/2020 9:30:00 PM 13.99444 57.19 -2 6.63 -4.9 0
11/12/2020 9:45:00 PM 14.00556 57.21 -2 6.63 -4.9 0
11/12/2020 10:00:00 PM 13.92222 57.06 -2 6.64 -5 0
11/12/2020 10:15:00 PM 13.92222 57.06 -2 6.64 -5 0
11/12/2020 10:30:00 PM 13.93889 57.09 -2 6.62 -5 0
11/12/2020 10:45:00 PM 14.00556 57.21 -2 6.62 -4.9 0
11/12/2020 11:00:00 PM 13.92778 57.07 -2 6.64 -4.9 0
11/12/2020 11:15:00 PM 13.92222 57.06 -2 6.64 -4.9 0
11/12/2020 11:30:00 PM 13.92222 57.06 -2 6.62 -5 0
11/12/2020 11:45:00 PM 13.92222 57.06 -2 6.64 -5 0
11/13/2020 12:00:00 AM 13.92222 57.06 -2 6.64 -5 0
11/13/2020 12:15:00 AM 13.92222 57.06 -2 6.64 -4.9 0
11/13/2020 12:30:00 AM 13.92778 57.07 -2 6.63 -5 0
11/13/2020 12:45:00 AM 13.92778 57.07 -2 6.64 -4.9 0
11/13/2020 1:00:00 AM 13.92222 57.06 -2 6.61 -5.1 0
11/13/2020 1:15:00 AM 13.92222 57.06 -2 6.63 -5 0
11/13/2020 1:30:00 AM 13.93333 57.08 -2 6.62 -5 0
11/13/2020 1:45:00 AM 13.92778 57.07 -2 6.59 -5 0
11/13/2020 2:00:00 AM 13.92222 57.06 -2 6.63 -5 0
11/13/2020 2:15:00 AM 14 57.2 -2 6.63 -4.9 0
11/13/2020 2:30:00 AM 13.92778 57.07 -2 6.62 -4.9 0
11/13/2020 2:45:00 AM 13.92222 57.06 -2 6.62 -5 0
11/13/2020 3:00:00 AM 13.92778 57.07 -2 6.6 -5 0
11/13/2020 3:15:00 AM 13.98889 57.18 -2 6.63 -5 0
11/13/2020 3:30:00 AM 13.99444 57.19 -2 6.62 -5 0
11/13/2020 3:45:00 AM 14.01111 57.22 -2 6.6 -4.9 0
11/13/2020 4:00:00 AM 14.03333 57.26 -2 6.59 -5 0
11/13/2020 4:15:00 AM 14.03889 57.27 -2 6.61 -5 0
11/13/2020 4:30:00 AM 14.04444 57.28 -2 6.58 -5 0
11/13/2020 4:45:00 AM 14.02222 57.24 -2 6.57 -5 0
11/13/2020 5:00:00 AM 14.03333 57.26 -2 6.54 -5 0
11/13/2020 5:15:00 AM 13.93333 57.08 -2 6.51 -5 0
11/13/2020 5:30:00 AM 13.94444 57.1 -2 6.53 -5 0
11/13/2020 5:45:00 AM 14.08333 57.35 -2 6.55 -5 0
11/13/2020 6:00:00 AM 14.00556 57.21 -2 6.53 -5 0
11/13/2020 6:15:00 AM 13.92778 57.07 -2 6.46 -5 0
11/13/2020 6:30:00 AM 13.92778 57.07 -2 6.45 -4.9 0
11/13/2020 6:45:00 AM 13.92778 57.07 -2 6.47 -4.9 0
11/13/2020 7:00:00 AM 13.92778 57.07 -2 6.45 -5 0
11/13/2020 7:15:00 AM 13.92778 57.07 -2 6.48 -4.9 0
11/13/2020 7:30:00 AM 13.91667 57.05 -2 6.47 -4.9 0
11/13/2020 7:45:00 AM 13.44444 56.2 -2 6.47 -4.9 0
11/13/2020 8:00:00 AM 13.23333 55.82 -2 6.46 -4.9 0
11/13/2020 8:15:00 AM 13.42222 56.16 -2 6.42 -5 0
11/13/2020 8:30:00 AM 13.3 55.94 -2 6.49 -5 0
11/13/2020 8:45:00 AM 13.27222 55.89 -2 6.49 -4.9 0
11/13/2020 9:00:00 AM 12.83333 55.1 -2 6.41 -4.9 0
11/13/2020 9:15:00 AM 13.04444 55.48 -2 6.46 -4.9 0
11/13/2020 9:30:00 AM 12.99444 55.39 -2 6.47 -4.9 0
11/13/2020 9:45:00 AM 13.22222 55.8 -2 6.5 -4.9 0
11/13/2020 10:00:00 AM 12.97222 55.35 -2 6.51 -4.9 0
11/13/2020 10:15:00 AM 13.35556 56.04 -2 6.54 -4.9 0
11/13/2020 10:30:00 AM 13.40556 56.13 -2 6.51 -5 0
11/13/2020 10:45:00 AM 13.43889 56.19 -2 6.51 -4.9 0
11/13/2020 11:00:00 AM 13.08333 55.55 -2 6.5 -4.9 0
11/13/2020 11:15:00 AM 13.30556 55.95 -2 6.56 -4.9 0
11/13/2020 11:30:00 AM 13.16111 55.69 -2 6.54 -4.9 0
11/13/2020 11:45:00 AM 13.17222 55.71 -2 6.54 -4.9 0
11/13/2020 12:00:00 PM 13.32778 55.99 -2 6.54 -5 0
11/13/2020 12:15:00 PM 13.12778 55.63 -2 6.52 -5 0
11/13/2020 12:30:00 PM 13.2 55.76 -2 6.51 -5 0
11/13/2020 12:45:00 PM 13.27778 55.9 -2 6.52 -4.9 0
11/13/2020 1:00:00 PM 13.68889 56.64 -2 6.54 -5 0
11/13/2020 1:15:00 PM 13.85556 56.94 -2 6.65 -4.9 0
11/13/2020 1:30:00 PM 13.63889 56.55 -2 6.66 -5 0
11/13/2020 1:45:00 PM 13.92222 57.06 -2 6.66 -4.9 0
11/13/2020 2:00:00 PM 13.93889 57.09 -2 6.66 -5 0
11/13/2020 2:15:00 PM 13.93889 57.09 -2 6.66 -5 0
11/13/2020 2:30:00 PM 13.97222 57.15 -2 6.66 -4.9 0
11/13/2020 2:45:00 PM 13.90555 57.03 -2 6.66 -4.9 0
11/13/2020 3:00:00 PM 14.01667 57.23 -2 6.66 -4.9 0
11/13/2020 3:15:00 PM 13.93333 57.08 -2 6.65 -5 0
11/13/2020 3:30:00 PM 13.92222 57.06 -2 6.65 -4.9 0
11/13/2020 3:45:00 PM 13.91111 57.04 -2 6.66 -5 0
11/13/2020 4:00:00 PM 13.97778 57.16 -2 6.66 -4.9 0
11/13/2020 4:15:00 PM 14.02222 57.24 -2 6.66 -5 0
11/13/2020 4:30:00 PM 13.94444 57.1 -2 6.66 -4.9 0
11/13/2020 4:45:00 PM 13.92778 57.07 -2 6.66 -5 0
11/13/2020 5:00:00 PM 13.76667 56.78 -2